
Distance (Route):
Temperature : 11.9°C
Humidity : 39.1%
Pressure : 0hPa| Receiver | Frames | First received | Last received |
|---|---|---|---|
| IW2NTF | 823 | 2026-09-03 10:04:51 | 2026-09-03 12:27:25 |
| AUTORXJP | 150 | 2026-09-03 10:43:44 | 2026-09-03 12:09:11 |
| DB0UT-7 | 58 | 2026-09-03 11:21:24 | 2026-09-03 11:56:49 |
| DO3MHA-12 | 57 | 2026-09-03 11:28:22 | 2026-09-03 11:55:40 |
| DB0ND-19 | 2 | 2026-09-03 11:31:17 | 2026-09-03 11:31:48 |
| Receiver | Date | Latitude | Longitude | Direction | Speed | Altitude | Climb | Temperature | Humidity | Pressure | Voltage | Killtimer | Uptime | BKT | XDATA |
|---|---|---|---|---|---|---|---|---|---|---|---|---|---|---|---|
| IW2NTF | 2026-09-03 12:27:25 | 43.83175 | 8.08792 | 168° | 7km/h | 2655m | -7.4m/s | 11.9°C | 39.1% | 0hPa | 2.6V | 07:54:42 | 02:51:13 | 00:00:00 | |
| IW2NTF | 2026-09-03 12:27:19 | 43.83187 | 8.08789 | 165° | 9km/h | 2700m | -6.9m/s | 11.5°C | 39.7% | 0hPa | 2.7V | 07:54:48 | 02:51:07 | 00:00:00 | |
| IW2NTF | 2026-09-03 12:27:12 | 43.83201 | 8.08786 | 179° | 9km/h | 2745m | -7.8m/s | 11.2°C | 34.9% | 0hPa | 2.7V | 07:54:54 | 02:51:01 | 00:00:00 | |
| IW2NTF | 2026-09-03 12:27:07 | 43.83217 | 8.08788 | 182° | 11km/h | 2790m | -7.7m/s | 10.9°C | 31.9% | 0hPa | 2.7V | 07:55:00 | 02:50:55 | 00:00:00 | |
| IW2NTF | 2026-09-03 12:27:01 | 43.83235 | 8.08789 | 184° | 13km/h | 2834m | -7.5m/s | 10.6°C | 31.5% | 0hPa | 2.7V | 07:55:06 | 02:50:49 | 00:00:00 | |
| IW2NTF | 2026-09-03 12:26:55 | 43.83256 | 8.08788 | 173° | 16km/h | 2879m | -7.5m/s | 10.6°C | 23.4% | 0hPa | 2.6V | 07:55:12 | 02:50:43 | 00:00:00 | |
| IW2NTF | 2026-09-03 12:26:49 | 43.83279 | 8.08786 | 174° | 15km/h | 2924m | -7.8m/s | 10.6°C | 18% | 0hPa | 2.7V | 07:55:18 | 02:50:37 | 00:00:00 | |
| IW2NTF | 2026-09-03 12:26:42 | 43.83302 | 8.08782 | 177° | 16km/h | 2968m | -7.1m/s | 10.6°C | 14.3% | 0hPa | 2.7V | 07:55:24 | 02:50:31 | 00:00:00 | |
| IW2NTF | 2026-09-03 12:26:37 | 43.83328 | 8.08778 | 176° | 18km/h | 3011m | -7.5m/s | 10.5°C | 10.1% | 0hPa | 2.6V | 07:55:30 | 02:50:25 | 00:00:00 | |
| IW2NTF | 2026-09-03 12:26:32 | 43.83354 | 8.08774 | 173° | 16km/h | 3057m | -8m/s | 10.6°C | 6.4% | 0hPa | 2.7V | 07:55:36 | 02:50:19 | 00:00:00 | |
| IW2NTF | 2026-09-03 12:26:25 | 43.83382 | 8.08770 | 173° | 22km/h | 3102m | -7.8m/s | 10.6°C | 4.7% | 0hPa | 2.7V | 07:55:42 | 02:50:13 | 00:00:00 | |
| IW2NTF | 2026-09-03 12:26:19 | 43.83418 | 8.08764 | 171° | 22km/h | 3146m | -7.4m/s | 10.2°C | 4.6% | 0hPa | 2.7V | 07:55:48 | 02:50:07 | 00:00:00 | |
| IW2NTF | 2026-09-03 12:26:12 | 43.83455 | 8.08756 | 170° | 26km/h | 3192m | -8.2m/s | 10.3°C | 4.4% | 0hPa | 2.7V | 07:55:54 | 02:50:01 | 00:00:00 | |
| IW2NTF | 2026-09-03 12:26:07 | 43.83495 | 8.08749 | 173° | 27km/h | 3239m | -8m/s | 10.2°C | 6.8% | 0hPa | 2.7V | 07:56:00 | 02:49:55 | 00:00:00 | |
| IW2NTF | 2026-09-03 12:26:01 | 43.83536 | 8.08741 | 168° | 26km/h | 3285m | -8.2m/s | 10.2°C | 8.8% | 0hPa | 2.7V | 07:56:06 | 02:49:49 | 00:00:00 | |
| IW2NTF | 2026-09-03 12:25:56 | 43.83577 | 8.08730 | 168° | 29km/h | 3331m | -7.8m/s | 9.9°C | 29.2% | 0hPa | 2.6V | 07:56:12 | 02:49:43 | 00:00:00 | |
| IW2NTF | 2026-09-03 12:25:50 | 43.83604 | 8.08724 | 171° | 27km/h | 3363m | -8m/s | 9.5°C | 37.7% | 0hPa | 2.7V | 07:56:16 | 02:49:39 | 00:00:00 | |
| IW2NTF | 2026-09-03 12:25:45 | 43.83646 | 8.08714 | 166° | 27km/h | 3409m | -8.2m/s | 9.1°C | 40.5% | 0hPa | 2.7V | 07:56:22 | 02:49:33 | 00:00:00 | |
| IW2NTF | 2026-09-03 12:25:39 | 43.83687 | 8.08704 | 171° | 26km/h | 3457m | -8m/s | 8.6°C | 46.5% | 0hPa | 2.7V | 07:56:28 | 02:49:27 | 00:00:00 | |
| IW2NTF | 2026-09-03 12:25:32 | 43.83725 | 8.08696 | 167° | 26km/h | 3502m | -8.2m/s | 8.1°C | 48.2% | 0hPa | 2.7V | 07:56:34 | 02:49:21 | 00:00:00 | |
| IW2NTF | 2026-09-03 12:25:27 | 43.83764 | 8.08687 | 171° | 26km/h | 3549m | -7.9m/s | 7.7°C | 51.9% | 0hPa | 2.6V | 07:56:40 | 02:49:15 | 00:00:00 | |
| IW2NTF | 2026-09-03 12:25:20 | 43.83802 | 8.08680 | 170° | 26km/h | 3595m | -8m/s | 7.6°C | 49.6% | 0hPa | 2.7V | 07:56:46 | 02:49:09 | 00:00:00 | |
| IW2NTF | 2026-09-03 12:25:15 | 43.83839 | 8.08670 | 164° | 24km/h | 3640m | -7.7m/s | 7.6°C | 46% | 0hPa | 2.7V | 07:56:52 | 02:49:03 | 00:00:00 | |
| IW2NTF | 2026-09-03 12:25:09 | 43.83877 | 8.08656 | 166° | 27km/h | 3685m | -7.7m/s | 7.4°C | 41.9% | 0hPa | 2.7V | 07:56:58 | 02:48:57 | 00:00:00 | |
| IW2NTF | 2026-09-03 12:25:02 | 43.83918 | 8.08643 | 168° | 27km/h | 3731m | -8m/s | 7.2°C | 37% | 0hPa | 2.6V | 07:57:04 | 02:48:51 | 00:00:00 | |
| IW2NTF | 2026-09-03 12:24:57 | 43.83959 | 8.08633 | 172° | 27km/h | 3777m | -7.7m/s | 7.1°C | 27.6% | 0hPa | 2.7V | 07:57:10 | 02:48:45 | 00:00:00 | |
| IW2NTF | 2026-09-03 12:24:51 | 43.83999 | 8.08628 | 174° | 27km/h | 3823m | -8.3m/s | 6.9°C | 22.6% | 0hPa | 2.7V | 07:57:16 | 02:48:39 | 00:00:00 | |
| IW2NTF | 2026-09-03 12:24:45 | 43.84043 | 8.08625 | 178° | 31km/h | 3870m | -7.6m/s | 6.8°C | 32.5% | 0hPa | 2.7V | 07:57:22 | 02:48:33 | 00:00:00 | |
| IW2NTF | 2026-09-03 12:24:38 | 43.84092 | 8.08624 | 178° | 33km/h | 3915m | -7.6m/s | 6.5°C | 32.4% | 0hPa | 2.6V | 07:57:28 | 02:48:27 | 00:00:00 | |
| IW2NTF | 2026-09-03 12:24:33 | 43.84142 | 8.08620 | 175° | 33km/h | 3960m | -7.7m/s | 6.2°C | 29.5% | 0hPa | 2.7V | 07:57:34 | 02:48:21 | 00:00:00 | |
| IW2NTF | 2026-09-03 12:24:28 | 43.84197 | 8.08613 | 176° | 38km/h | 4006m | -8.1m/s | 6°C | 28.6% | 0hPa | 2.7V | 07:57:40 | 02:48:15 | 00:00:00 | |
| IW2NTF | 2026-09-03 12:24:23 | 43.84236 | 8.08609 | 175° | 40km/h | 4036m | -7.7m/s | 6°C | 23.5% | 0hPa | 2.7V | 07:57:44 | 02:48:11 | 00:00:00 | |
| IW2NTF | 2026-09-03 12:24:17 | 43.84298 | 8.08599 | 171° | 42km/h | 4082m | -8.1m/s | 6.1°C | 14.7% | 0hPa | 2.6V | 07:57:50 | 02:48:05 | 00:00:00 | |
| IW2NTF | 2026-09-03 12:24:12 | 43.84362 | 8.08584 | 168° | 44km/h | 4129m | -7.7m/s | 6.2°C | 7.9% | 0hPa | 2.7V | 07:57:56 | 02:47:59 | 00:00:00 | |
| IW2NTF | 2026-09-03 12:24:05 | 43.84428 | 8.08568 | 169° | 44km/h | 4175m | -8.2m/s | 6.1°C | 8.3% | 0hPa | 2.7V | 07:58:02 | 02:47:53 | 00:00:00 | |
| IW2NTF | 2026-09-03 12:23:58 | 43.84492 | 8.08552 | 169° | 44km/h | 4223m | -7.6m/s | 5.6°C | 26.1% | 0hPa | 2.7V | 07:58:08 | 02:47:47 | 00:00:00 | |
| IW2NTF | 2026-09-03 12:23:52 | 43.84556 | 8.08533 | 166° | 44km/h | 4269m | -8.3m/s | 5.2°C | 28.1% | 0hPa | 2.7V | 07:58:14 | 02:47:41 | 00:00:00 | |
| IW2NTF | 2026-09-03 12:23:47 | 43.84622 | 8.08511 | 164° | 44km/h | 4315m | -7.8m/s | 4.9°C | 31.3% | 0hPa | 2.6V | 07:58:20 | 02:47:35 | 00:00:00 | |
| IW2NTF | 2026-09-03 12:23:42 | 43.84687 | 8.08484 | 161° | 44km/h | 4362m | -8.2m/s | 4.6°C | 32.5% | 0hPa | 2.7V | 07:58:26 | 02:47:29 | 00:00:00 | |
| IW2NTF | 2026-09-03 12:23:36 | 43.84750 | 8.08453 | 158° | 44km/h | 4410m | -7.9m/s | 4.2°C | 33% | 0hPa | 2.7V | 07:58:32 | 02:47:23 | 00:00:00 | |
| IW2NTF | 2026-09-03 12:23:28 | 43.84812 | 8.08418 | 155° | 44km/h | 4457m | -8m/s | 4°C | 31.3% | 0hPa | 2.7V | 07:58:38 | 02:47:17 | 00:00:00 | |
| IW2NTF | 2026-09-03 12:23:22 | 43.84872 | 8.08379 | 154° | 42km/h | 4504m | -8m/s | 3.7°C | 30.8% | 0hPa | 2.6V | 07:58:44 | 02:47:11 | 00:00:00 | |
| IW2NTF | 2026-09-03 12:23:17 | 43.84931 | 8.08338 | 153° | 42km/h | 4551m | -7.9m/s | 3.4°C | 29.9% | 0hPa | 2.7V | 07:58:50 | 02:47:05 | 00:00:00 | |
| IW2NTF | 2026-09-03 12:23:10 | 43.84990 | 8.08296 | 151° | 42km/h | 4599m | -8.5m/s | 3.1°C | 29.5% | 0hPa | 2.7V | 07:58:56 | 02:46:59 | 00:00:00 | |
| IW2NTF | 2026-09-03 12:23:05 | 43.85048 | 8.08256 | 153° | 44km/h | 4647m | -8.4m/s | 2.8°C | 29.2% | 0hPa | 2.7V | 07:59:02 | 02:46:53 | 00:00:00 | |
| IW2NTF | 2026-09-03 12:23:00 | 43.85098 | 8.08225 | 155° | 42km/h | 4687m | -8m/s | 2.4°C | 30% | 0hPa | 2.6V | 07:59:07 | 02:46:48 | 00:00:00 | |
| IW2NTF | 2026-09-03 12:22:54 | 43.85157 | 8.08189 | 157° | 44km/h | 4735m | -7.7m/s | 1.9°C | 31.1% | 0hPa | 2.7V | 07:59:13 | 02:46:42 | 00:00:00 | |
| IW2NTF | 2026-09-03 12:22:48 | 43.85218 | 8.08153 | 157° | 42km/h | 4782m | -7.9m/s | 1.5°C | 33% | 0hPa | 2.7V | 07:59:19 | 02:46:36 | 00:00:00 | |
| IW2NTF | 2026-09-03 12:22:42 | 43.85278 | 8.08117 | 155° | 42km/h | 4830m | -8.4m/s | 1.1°C | 36.6% | 0hPa | 2.7V | 07:59:25 | 02:46:30 | 00:00:00 | |
| IW2NTF | 2026-09-03 12:22:36 | 43.85338 | 8.08078 | 152° | 44km/h | 4878m | -7.9m/s | 0.7°C | 35% | 0hPa | 2.7V | 07:59:31 | 02:46:24 | 00:00:00 | |
| IW2NTF | 2026-09-03 12:22:30 | 43.85397 | 8.08036 | 150° | 44km/h | 4925m | -8.2m/s | 0.3°C | 38.1% | 0hPa | 2.6V | 07:59:37 | 02:46:18 | 00:00:00 | |
| IW2NTF | 2026-09-03 12:22:24 | 43.85455 | 8.07988 | 149° | 46km/h | 4971m | -7.9m/s | -0°C | 36.6% | 0hPa | 2.6V | 07:59:43 | 02:46:12 | 00:00:00 | |
| IW2NTF | 2026-09-03 12:22:18 | 43.85514 | 8.07939 | 147° | 46km/h | 5017m | -8m/s | -0.4°C | 37.5% | 0hPa | 2.7V | 07:59:49 | 02:46:06 | 00:00:00 | |
| IW2NTF | 2026-09-03 12:22:08 | 43.85614 | 8.07853 | 148° | 46km/h | 5097m | -8.2m/s | -1.2°C | 41.3% | 0hPa | 2.7V | 07:59:59 | 02:45:56 | 00:00:00 | |
| IW2NTF | 2026-09-03 12:21:58 | 43.85714 | 8.07769 | 150° | 46km/h | 5174m | -7.6m/s | -1.9°C | 41% | 0hPa | 2.7V | 08:00:09 | 02:45:46 | 00:00:00 | |
| IW2NTF | 2026-09-03 12:21:48 | 43.85815 | 8.07690 | 151° | 44km/h | 5251m | -7.9m/s | -2.5°C | 40.6% | 0hPa | 2.6V | 08:00:19 | 02:45:36 | 00:00:00 | |
| IW2NTF | 2026-09-03 12:21:36 | 43.85917 | 8.07616 | 153° | 47km/h | 5328m | -7.9m/s | -3.1°C | 38.2% | 0hPa | 2.7V | 08:00:29 | 02:45:26 | 00:00:00 | |
| IW2NTF | 2026-09-03 12:21:26 | 43.86024 | 8.07539 | 151° | 49km/h | 5406m | -7.7m/s | -3.7°C | 37% | 0hPa | 2.7V | 08:00:39 | 02:45:16 | 00:00:00 | |
| IW2NTF | 2026-09-03 12:21:16 | 43.86138 | 8.07450 | 148° | 55km/h | 5482m | -8.1m/s | -4.2°C | 36.5% | 0hPa | 2.7V | 08:00:49 | 02:45:06 | 00:00:00 | |
| IW2NTF | 2026-09-03 12:21:06 | 43.86256 | 8.07348 | 147° | 55km/h | 5559m | -8m/s | -4.7°C | 34.3% | 0hPa | 2.7V | 08:00:59 | 02:44:56 | 00:00:00 | |
| IW2NTF | 2026-09-03 12:20:56 | 43.86375 | 8.07246 | 148° | 55km/h | 5638m | -7.6m/s | -5.3°C | 37% | 0hPa | 2.5V | 08:01:09 | 02:44:46 | 00:00:00 | |
| IW2NTF | 2026-09-03 12:20:46 | 43.86495 | 8.07143 | 147° | 55km/h | 5716m | -8.2m/s | -5.9°C | 39.8% | 0hPa | 2.6V | 08:01:19 | 02:44:36 | 00:00:00 | |
| IW2NTF | 2026-09-03 12:20:36 | 43.86614 | 8.07038 | 146° | 55km/h | 5794m | -8.1m/s | -6.6°C | 40.8% | 0hPa | 2.6V | 08:01:29 | 02:44:26 | 00:00:00 | |
| IW2NTF | 2026-09-03 12:20:26 | 43.86733 | 8.06935 | 149° | 55km/h | 5872m | -7.8m/s | -7.3°C | 41.3% | 0hPa | 2.6V | 08:01:39 | 02:44:16 | 00:00:00 | |
| IW2NTF | 2026-09-03 12:20:16 | 43.86853 | 8.06837 | 149° | 55km/h | 5949m | -7.8m/s | -7.9°C | 38.1% | 0hPa | 2.6V | 08:01:49 | 02:44:06 | 00:00:00 | |
| IW2NTF | 2026-09-03 12:20:06 | 43.86973 | 8.06742 | 150° | 53km/h | 6026m | -7.7m/s | -8.6°C | 39.5% | 0hPa | 2.6V | 08:01:59 | 02:43:56 | 00:00:00 | |
| IW2NTF | 2026-09-03 12:19:56 | 43.87093 | 8.06649 | 150° | 55km/h | 6103m | -8.2m/s | -9.3°C | 41% | 0hPa | 2.6V | 08:02:09 | 02:43:46 | 00:00:00 | |
| IW2NTF | 2026-09-03 12:19:45 | 43.87230 | 8.06548 | 150° | 55km/h | 6190m | -8.3m/s | -10.1°C | 42.8% | 0hPa | 2.6V | 08:02:20 | 02:43:35 | 00:00:00 | |
| IW2NTF | 2026-09-03 12:19:37 | 43.87351 | 8.06454 | 149° | 55km/h | 6269m | -8m/s | -10.9°C | 45% | 0hPa | 2.6V | 08:02:30 | 02:43:25 | 00:00:00 | |
| IW2NTF | 2026-09-03 12:19:25 | 43.87472 | 8.06356 | 148° | 55km/h | 6347m | -7.7m/s | -11.5°C | 46.5% | 0hPa | 2.6V | 08:02:40 | 02:43:15 | 00:00:00 | |
| IW2NTF | 2026-09-03 12:19:16 | 43.87595 | 8.06257 | 149° | 55km/h | 6425m | -7.5m/s | -12.2°C | 48.9% | 0hPa | 2.6V | 08:02:50 | 02:43:05 | 00:00:00 | |
| IW2NTF | 2026-09-03 12:19:05 | 43.87723 | 8.06155 | 150° | 58km/h | 6502m | -8.1m/s | -12.8°C | 46.7% | 0hPa | 2.6V | 08:03:00 | 02:42:55 | 00:00:00 | |
| IW2NTF | 2026-09-03 12:18:56 | 43.87850 | 8.06046 | 147° | 60km/h | 6579m | -7.7m/s | -13.3°C | 46% | 0hPa | 2.6V | 08:03:10 | 02:42:45 | 00:00:00 | |
| IW2NTF | 2026-09-03 12:18:44 | 43.87981 | 8.05933 | 149° | 62km/h | 6657m | -7.8m/s | -13.8°C | 42% | 0hPa | 2.5V | 08:03:20 | 02:42:35 | 00:00:00 | |
| IW2NTF | 2026-09-03 12:18:36 | 43.88115 | 8.05816 | 147° | 62km/h | 6733m | -7.6m/s | -14.4°C | 42.4% | 0hPa | 2.6V | 08:03:30 | 02:42:25 | 00:00:00 | |
| IW2NTF | 2026-09-03 12:18:24 | 43.88250 | 8.05704 | 149° | 62km/h | 6811m | -7.5m/s | -14.9°C | 40.9% | 0hPa | 2.6V | 08:03:40 | 02:42:15 | 00:00:00 | |
| IW2NTF | 2026-09-03 12:18:16 | 43.88390 | 8.05608 | 156° | 58km/h | 6887m | -7.7m/s | -15.2°C | 27.5% | 0hPa | 2.6V | 08:03:50 | 02:42:05 | 00:00:00 | |
| IW2NTF | 2026-09-03 12:18:04 | 43.88527 | 8.05529 | 158° | 58km/h | 6965m | -8m/s | -15.5°C | 14.9% | 0hPa | 2.6V | 08:04:00 | 02:41:55 | 00:00:00 | |
| IW2NTF | 2026-09-03 12:17:56 | 43.88663 | 8.05459 | 160° | 57km/h | 7041m | -7.9m/s | -15.9°C | 22.3% | 0hPa | 2.6V | 08:04:10 | 02:41:45 | 00:00:00 | |
| IW2NTF | 2026-09-03 12:17:43 | 43.88801 | 8.05396 | 161° | 58km/h | 7118m | -8.2m/s | -16°C | 13.2% | 0hPa | 2.6V | 08:04:20 | 02:41:35 | 00:00:00 | |
| IW2NTF | 2026-09-03 12:17:38 | 43.88946 | 8.05333 | 162° | 60km/h | 7201m | -8m/s | -16.3°C | 18.7% | 0hPa | 2.5V | 08:04:30 | 02:41:25 | 00:00:00 | |
| IW2NTF | 2026-09-03 12:17:27 | 43.89096 | 8.05265 | 162° | 64km/h | 7284m | -8.6m/s | -17.1°C | 20.2% | 0hPa | 2.6V | 08:04:40 | 02:41:15 | 00:00:00 | |
| IW2NTF | 2026-09-03 12:17:17 | 43.89243 | 8.05199 | 163° | 60km/h | 7365m | -8.4m/s | -17.7°C | 20.5% | 0hPa | 2.5V | 08:04:50 | 02:41:05 | 00:00:00 | |
| IW2NTF | 2026-09-03 12:17:07 | 43.89385 | 8.05144 | 166° | 55km/h | 7448m | -8.2m/s | -18.3°C | 16.7% | 0hPa | 2.6V | 08:05:00 | 02:40:55 | 00:00:00 | |
| IW2NTF | 2026-09-03 12:16:57 | 43.89521 | 8.05106 | 170° | 53km/h | 7530m | -8.3m/s | -18.7°C | 12.5% | 0hPa | 2.5V | 08:05:10 | 02:40:45 | 00:00:00 | |
| IW2NTF | 2026-09-03 12:16:47 | 43.89658 | 8.05085 | 175° | 55km/h | 7608m | -7.6m/s | -19.2°C | 10.4% | 0hPa | 2.6V | 08:05:20 | 02:40:35 | 00:00:00 | |
| IW2NTF | 2026-09-03 12:16:32 | 43.89825 | 8.05079 | 179° | 57km/h | 7700m | -7.6m/s | -19.8°C | 9.7% | 0hPa | 2.5V | 08:05:32 | 02:40:23 | 00:00:00 | |
| IW2NTF | 2026-09-03 12:16:21 | 43.89960 | 8.05077 | 178° | 55km/h | 7777m | -8m/s | -20.4°C | 10.4% | 0hPa | 2.5V | 08:05:42 | 02:40:13 | 00:00:00 | |
| IW2NTF | 2026-09-03 12:16:12 | 43.90096 | 8.05069 | 177° | 53km/h | 7858m | -8.5m/s | -21.2°C | 10.4% | 0hPa | 2.5V | 08:05:52 | 02:40:03 | 00:00:00 | |
| IW2NTF | 2026-09-03 12:16:01 | 43.90226 | 8.05060 | 175° | 53km/h | 7940m | -8.7m/s | -21.9°C | 10.2% | 0hPa | 2.6V | 08:06:02 | 02:39:53 | 00:00:00 | |
| IW2NTF | 2026-09-03 12:15:51 | 43.90361 | 8.05045 | 174° | 53km/h | 8022m | -8.4m/s | -22.6°C | 10.9% | 0hPa | 2.5V | 08:06:12 | 02:39:43 | 00:00:00 | |
| IW2NTF | 2026-09-03 12:15:41 | 43.90497 | 8.05023 | 173° | 55km/h | 8104m | -8.6m/s | -23.2°C | 9.8% | 0hPa | 2.6V | 08:06:22 | 02:39:33 | 00:00:00 | |
| IW2NTF | 2026-09-03 12:15:31 | 43.90642 | 8.04998 | 173° | 58km/h | 8186m | -8.3m/s | -23.8°C | 9.7% | 0hPa | 2.5V | 08:06:32 | 02:39:23 | 00:00:00 | |
| IW2NTF | 2026-09-03 12:15:21 | 43.90797 | 8.04975 | 172° | 62km/h | 8268m | -8.4m/s | -24.5°C | 10.2% | 0hPa | 2.5V | 08:06:42 | 02:39:13 | 00:00:00 | |
| IW2NTF | 2026-09-03 12:15:11 | 43.90960 | 8.04952 | 174° | 64km/h | 8350m | -8.7m/s | -25.2°C | 10.8% | 0hPa | 2.6V | 08:06:52 | 02:39:03 | 00:00:00 | |
| IW2NTF | 2026-09-03 12:15:01 | 43.91160 | 8.04930 | 174° | 69km/h | 8449m | -8.7m/s | -26.1°C | 11.4% | 0hPa | 2.6V | 08:07:04 | 02:38:51 | 00:00:00 | |
| IW2NTF | 2026-09-03 12:14:51 | 43.91334 | 8.04914 | 177° | 69km/h | 8531m | -8.2m/s | -26.9°C | 11.9% | 0hPa | 2.6V | 08:07:14 | 02:38:41 | 00:00:00 | |
| IW2NTF | 2026-09-03 12:14:41 | 43.91516 | 8.04900 | 176° | 75km/h | 8613m | -8.4m/s | -27.6°C | 12.1% | 0hPa | 2.6V | 08:07:24 | 02:38:31 | 00:00:00 | |
| IW2NTF | 2026-09-03 12:14:31 | 43.91705 | 8.04888 | 177° | 77km/h | 8697m | -8.6m/s | -28.3°C | 12.8% | 0hPa | 2.5V | 08:07:34 | 02:38:21 | 00:00:00 | |
| IW2NTF | 2026-09-03 12:14:21 | 43.91897 | 8.04879 | 177° | 75km/h | 8782m | -9.1m/s | -29.1°C | 13.6% | 0hPa | 2.5V | 08:07:44 | 02:38:11 | 00:00:00 | |
| IW2NTF | 2026-09-03 12:14:10 | 43.92092 | 8.04874 | 179° | 75km/h | 8868m | -9m/s | -29.9°C | 14.8% | 0hPa | 2.6V | 08:07:54 | 02:38:01 | 00:00:00 | |
| IW2NTF | 2026-09-03 12:13:59 | 43.92282 | 8.04878 | 180° | 75km/h | 8955m | -8.8m/s | -30.6°C | 14.6% | 0hPa | 2.5V | 08:08:04 | 02:37:51 | 00:00:00 | |
| IW2NTF | 2026-09-03 12:13:49 | 43.92476 | 8.04879 | 179° | 77km/h | 9041m | -8.8m/s | -31.3°C | 13.7% | 0hPa | 2.5V | 08:08:14 | 02:37:41 | 00:00:00 | |
| IW2NTF | 2026-09-03 12:13:42 | 43.92672 | 8.04880 | 179° | 78km/h | 9127m | -8.8m/s | -32.1°C | 12.4% | 0hPa | 2.6V | 08:08:24 | 02:37:31 | 00:00:00 | |
| IW2NTF | 2026-09-03 12:13:29 | 43.92871 | 8.04879 | 179° | 78km/h | 9214m | -9.2m/s | -33°C | 12.2% | 0hPa | 2.5V | 08:08:34 | 02:37:21 | 00:00:00 | |
| IW2NTF | 2026-09-03 12:13:23 | 43.93069 | 8.04874 | 179° | 77km/h | 9303m | -9.2m/s | -33.8°C | 12.9% | 0hPa | 2.5V | 08:08:44 | 02:37:11 | 00:00:00 | |
| IW2NTF | 2026-09-03 12:13:13 | 43.93267 | 8.04873 | 179° | 78km/h | 9393m | -9.5m/s | -34.6°C | 12.9% | 0hPa | 2.5V | 08:08:54 | 02:37:01 | 00:00:00 | |
| IW2NTF | 2026-09-03 12:13:03 | 43.93467 | 8.04869 | 179° | 78km/h | 9486m | -9.7m/s | -35.5°C | 13.3% | 0hPa | 2.5V | 08:09:04 | 02:36:51 | 00:00:00 | |
| IW2NTF | 2026-09-03 12:12:53 | 43.93662 | 8.04867 | 178° | 77km/h | 9577m | -9.8m/s | -36.3°C | 13.6% | 0hPa | 2.5V | 08:09:14 | 02:36:41 | 00:00:00 | |
| IW2NTF | 2026-09-03 12:12:43 | 43.93858 | 8.04863 | 179° | 75km/h | 9669m | -9.2m/s | -37.1°C | 14.2% | 0hPa | 2.5V | 08:09:24 | 02:36:31 | 00:00:00 | |
| IW2NTF | 2026-09-03 12:12:33 | 43.94049 | 8.04862 | 180° | 75km/h | 9761m | -9.4m/s | -37.9°C | 14.9% | 0hPa | 2.6V | 08:09:34 | 02:36:21 | 00:00:00 | |
| IW2NTF | 2026-09-03 12:12:23 | 43.94237 | 8.04861 | 180° | 71km/h | 9858m | -10.4m/s | -38.7°C | 15.1% | 0hPa | 2.6V | 08:09:44 | 02:36:11 | 00:00:00 | |
| IW2NTF | 2026-09-03 12:12:13 | 43.94423 | 8.04871 | 182° | 75km/h | 9954m | -9.3m/s | -39.5°C | 16.1% | 0hPa | 2.5V | 08:09:54 | 02:36:01 | 00:00:00 | |
| IW2NTF | 2026-09-03 12:11:59 | 43.94620 | 8.04883 | 183° | 77km/h | 10048m | -9.8m/s | -40.2°C | 17.3% | 0hPa | 2.5V | 08:10:04 | 02:35:51 | 00:00:00 | |
| IW2NTF | 2026-09-03 12:11:52 | 43.94857 | 8.04902 | 183° | 78km/h | 10165m | -10.2m/s | -41.1°C | 18.1% | 0hPa | 2.6V | 08:10:16 | 02:35:39 | 00:00:00 | |
| IW2NTF | 2026-09-03 12:11:41 | 43.95051 | 8.04924 | 183° | 75km/h | 10263m | -9.9m/s | -42.1°C | 19.6% | 0hPa | 2.5V | 08:10:26 | 02:35:29 | 00:00:00 | |
| IW2NTF | 2026-09-03 12:11:31 | 43.95244 | 8.04940 | 183° | 75km/h | 10360m | -9.7m/s | -43°C | 20.8% | 0hPa | 2.6V | 08:10:36 | 02:35:19 | 00:00:00 | |
| IW2NTF | 2026-09-03 12:11:16 | 43.95477 | 8.04963 | 184° | 80km/h | 10474m | -9.2m/s | -44°C | 21.7% | 0hPa | 2.6V | 08:10:48 | 02:35:07 | 00:00:00 | |
| IW2NTF | 2026-09-03 12:11:05 | 43.95683 | 8.04983 | 183° | 82km/h | 10569m | -9.6m/s | -44.7°C | 20.7% | 0hPa | 2.6V | 08:10:58 | 02:34:57 | 00:00:00 | |
| IW2NTF | 2026-09-03 12:10:56 | 43.95889 | 8.04992 | 182° | 82km/h | 10664m | -9.6m/s | -45.4°C | 21.7% | 0hPa | 2.5V | 08:11:08 | 02:34:47 | 00:00:00 | |
| IW2NTF | 2026-09-03 12:10:45 | 43.96098 | 8.05000 | 180° | 84km/h | 10762m | -10.3m/s | -46.2°C | 22.7% | 0hPa | 2.5V | 08:11:18 | 02:34:37 | 00:00:00 | |
| IW2NTF | 2026-09-03 12:10:36 | 43.96311 | 8.05005 | 180° | 84km/h | 10858m | -9.9m/s | -47.1°C | 23.8% | 0hPa | 2.5V | 08:11:28 | 02:34:27 | 00:00:00 | |
| IW2NTF | 2026-09-03 12:10:25 | 43.96521 | 8.05002 | 178° | 84km/h | 10951m | -9.8m/s | -48°C | 27.2% | 0hPa | 2.6V | 08:11:38 | 02:34:17 | 00:00:00 | |
| IW2NTF | 2026-09-03 12:10:19 | 43.96731 | 8.04992 | 177° | 84km/h | 11049m | -9.6m/s | -49°C | 29.5% | 0hPa | 2.6V | 08:11:48 | 02:34:07 | 00:00:00 | |
| IW2NTF | 2026-09-03 12:10:05 | 43.96943 | 8.04984 | 177° | 84km/h | 11142m | -9.7m/s | -49.9°C | 31.9% | 0hPa | 2.5V | 08:11:58 | 02:33:57 | 00:00:00 | |
| IW2NTF | 2026-09-03 12:09:59 | 43.97156 | 8.04967 | 176° | 84km/h | 11237m | -9.6m/s | -50.7°C | 35.4% | 0hPa | 2.5V | 08:12:08 | 02:33:47 | 00:00:00 | |
| IW2NTF | 2026-09-03 12:09:45 | 43.97368 | 8.04944 | 174° | 86km/h | 11333m | -9.4m/s | -51.6°C | 38.7% | 0hPa | 2.6V | 08:12:18 | 02:33:37 | 00:00:00 | |
| IW2NTF | 2026-09-03 12:09:37 | 43.97629 | 8.04905 | 173° | 88km/h | 11448m | -9.7m/s | -52.6°C | 41.6% | 0hPa | 2.5V | 08:12:30 | 02:33:25 | 00:00:00 | |
| IW2NTF | 2026-09-03 12:09:25 | 43.97849 | 8.04861 | 170° | 89km/h | 11541m | -9.6m/s | -53.5°C | 43.6% | 0hPa | 2.6V | 08:12:40 | 02:33:15 | 00:00:00 | |
| IW2NTF | 2026-09-03 12:09:17 | 43.98069 | 8.04805 | 169° | 88km/h | 11642m | -9.8m/s | -54.4°C | 45.8% | 0hPa | 2.5V | 08:12:50 | 02:33:05 | 00:00:00 | |
| AUTORXJP | 2026-09-03 12:09:11 | 43.98114 | 8.04792 | 168° | 89km/h | 11662m | -10.0m/s | -54.5°C | 38.7% | -1.0hPa | 2.5V | 00:00:00 | 00:00:00 | 00:00:00 | |
| IW2NTF | 2026-09-03 12:09:05 | 43.98297 | 8.04729 | 164° | 95km/h | 11744m | -10m/s | -55.2°C | 42.6% | 0hPa | 2.5V | 08:13:00 | 02:32:55 | 00:00:00 | |
| IW2NTF | 2026-09-03 12:08:57 | 43.98534 | 8.04619 | 158° | 102km/h | 11848m | -10.7m/s | -55.2°C | 38% | 0hPa | 2.5V | 08:13:10 | 02:32:45 | 00:00:00 | |
| IW2NTF | 2026-09-03 12:08:45 | 43.98783 | 8.04483 | 159° | 108km/h | 11957m | -11.8m/s | -55.9°C | 36.7% | 0hPa | 2.6V | 08:13:20 | 02:32:35 | 00:00:00 | |
| IW2NTF | 2026-09-03 12:08:37 | 43.99048 | 8.04343 | 157° | 115km/h | 12070m | -11.7m/s | -56.6°C | 35% | 0hPa | 2.5V | 08:13:30 | 02:32:25 | 00:00:00 | |
| IW2NTF | 2026-09-03 12:08:25 | 43.99325 | 8.04198 | 160° | 117km/h | 12191m | -13.1m/s | -57.5°C | 33.5% | 0hPa | 2.5V | 08:13:40 | 02:32:15 | 00:00:00 | |
| IW2NTF | 2026-09-03 12:08:17 | 43.99608 | 8.04063 | 161° | 119km/h | 12306m | -12.1m/s | -57.8°C | 29.8% | 0hPa | 2.5V | 08:13:50 | 02:32:05 | 00:00:00 | |
| AUTORXJP | 2026-09-03 12:08:09 | 43.99722 | 8.04011 | 161° | 115km/h | 12354m | -11.0m/s | -58.0°C | 23.0% | -1.0hPa | 2.6V | 00:00:00 | 00:00:00 | 00:00:00 | |
| IW2NTF | 2026-09-03 12:08:05 | 43.99884 | 8.03937 | 161° | 108km/h | 12423m | -12.8m/s | -58°C | 27.2% | 0hPa | 2.6V | 08:14:00 | 02:31:55 | 00:00:00 | |
| IW2NTF | 2026-09-03 12:07:57 | 44.00116 | 8.03819 | 158° | 91km/h | 12536m | -10.7m/s | -57.7°C | 26.6% | 0hPa | 2.6V | 08:14:10 | 02:31:45 | 00:00:00 | |
| IW2NTF | 2026-09-03 12:07:45 | 44.00319 | 8.03709 | 156° | 77km/h | 12643m | -10.3m/s | -58.4°C | 26.3% | 0hPa | 2.5V | 08:14:20 | 02:31:35 | 00:00:00 | |
| IW2NTF | 2026-09-03 12:07:37 | 44.00490 | 8.03587 | 152° | 75km/h | 12752m | -12.2m/s | -59.1°C | 27.4% | 0hPa | 2.5V | 08:14:30 | 02:31:25 | 00:00:00 | |
| IW2NTF | 2026-09-03 12:07:25 | 44.00652 | 8.03460 | 146° | 75km/h | 12870m | -12.2m/s | -60°C | 28.7% | 0hPa | 2.5V | 08:14:40 | 02:31:15 | 00:00:00 | |
| IW2NTF | 2026-09-03 12:07:17 | 44.00811 | 8.03296 | 140° | 82km/h | 12989m | -12.8m/s | -60.7°C | 28.5% | 0hPa | 2.5V | 08:14:50 | 02:31:05 | 00:00:00 | |
| AUTORXJP | 2026-09-03 12:07:07 | 44.00951 | 8.03148 | 144° | 91km/h | 13090m | -11.8m/s | -61.1°C | 21.4% | -1.0hPa | 2.5V | 00:00:00 | 00:00:00 | 00:00:00 | |
| IW2NTF | 2026-09-03 12:07:05 | 44.00989 | 8.03111 | 145° | 91km/h | 13114m | -12.8m/s | -61°C | 27.9% | 0hPa | 2.5V | 08:15:00 | 02:30:55 | 00:00:00 | |
| IW2NTF | 2026-09-03 12:06:57 | 44.01179 | 8.02932 | 146° | 95km/h | 13239m | -12.6m/s | -61.8°C | 28.8% | 0hPa | 2.6V | 08:15:10 | 02:30:45 | 00:00:00 | |
| IW2NTF | 2026-09-03 12:06:45 | 44.01388 | 8.02770 | 152° | 93km/h | 13364m | -12.9m/s | -62.6°C | 27.8% | 0hPa | 2.6V | 08:15:20 | 02:30:35 | 00:00:00 | |
| IW2NTF | 2026-09-03 12:06:37 | 44.01586 | 8.02605 | 143° | 91km/h | 13491m | -12.4m/s | -61.5°C | 21.4% | 0hPa | 2.6V | 08:15:30 | 02:30:25 | 00:00:00 | |
| AUTORXJP | 2026-09-03 12:06:36 | 44.01509 | 8.02677 | 148° | 91km/h | 13440m | -12.7m/s | -61.9°C | 17.0% | -1.0hPa | 2.6V | 00:00:00 | 00:00:00 | 00:00:00 | |
| AUTORXJP | 2026-09-03 12:06:05 | 44.02107 | 8.02030 | 146° | 89km/h | 13855m | -13.3m/s | -61.0°C | 8.4% | -1.0hPa | 2.6V | 00:00:00 | 00:00:00 | 00:00:00 | |
| AUTORXJP | 2026-09-03 12:05:34 | 44.02601 | 8.01527 | 144° | 73km/h | 14269m | -14.1m/s | -60.9°C | 6.3% | -1.0hPa | 2.6V | 00:00:00 | 00:00:00 | 00:00:00 | |
| IW2NTF | 2026-09-03 12:05:31 | 44.02674 | 8.01452 | 140° | 71km/h | 14337m | -13.1m/s | -60.8°C | 10.8% | 0hPa | 2.6V | 08:16:34 | 02:29:21 | 00:00:00 | |
| AUTORXJP | 2026-09-03 12:05:03 | 44.02948 | 8.00974 | 119° | 60km/h | 14689m | -14.0m/s | -60.8°C | 4.5% | -1.0hPa | 2.7V | 00:00:00 | 00:00:00 | 00:00:00 | |
| AUTORXJP | 2026-09-03 12:04:32 | 44.03220 | 8.00372 | 123° | 75km/h | 15117m | -13.8m/s | -61.4°C | 3.7% | -1.0hPa | 2.7V | 00:00:00 | 00:00:00 | 00:00:00 | |
| AUTORXJP | 2026-09-03 12:04:01 | 44.03535 | 7.99809 | 143° | 49km/h | 15564m | -15.3m/s | -61.5°C | 3.2% | -1.0hPa | 2.7V | 00:00:00 | 00:00:00 | 00:00:00 | |
| IW2NTF | 2026-09-03 12:03:48 | 44.03699 | 7.99604 | 130° | 55km/h | 15810m | -14.3m/s | -62.2°C | 7.5% | 0hPa | 2.7V | 08:18:19 | 02:27:36 | 00:00:00 | |
| IW2NTF | 2026-09-03 12:03:38 | 44.03794 | 7.99438 | 128° | 68km/h | 15955m | -15m/s | -62.5°C | 7.8% | 0hPa | 2.6V | 08:18:29 | 02:27:26 | 00:00:00 | |
| AUTORXJP | 2026-09-03 12:03:29 | 44.03840 | 7.99366 | 135° | 68km/h | 16013m | -14.8m/s | -62.4°C | 3.1% | -1.0hPa | 2.7V | 00:00:00 | 00:00:00 | 00:00:00 | |
| IW2NTF | 2026-09-03 12:03:24 | 44.03921 | 7.99277 | 145° | 66km/h | 16097m | -14.3m/s | -61.9°C | 7.2% | 0hPa | 2.7V | 08:18:39 | 02:27:16 | 00:00:00 | |
| IW2NTF | 2026-09-03 12:03:18 | 44.04042 | 7.99179 | 151° | 42km/h | 16242m | -15.9m/s | -61°C | 6.4% | 0hPa | 2.6V | 08:18:49 | 02:27:06 | 00:00:00 | |
| IW2NTF | 2026-09-03 12:03:08 | 44.04135 | 7.99105 | 150° | 42km/h | 16390m | -15.8m/s | -60.9°C | 6.1% | 0hPa | 2.7V | 08:18:59 | 02:26:56 | 00:00:00 | |
| AUTORXJP | 2026-09-03 12:02:58 | 44.04177 | 7.99070 | 144° | 33km/h | 16467m | -15.3m/s | -60.9°C | 2.1% | -1.0hPa | 2.6V | 00:00:00 | 00:00:00 | 00:00:00 | |
| IW2NTF | 2026-09-03 12:02:54 | 44.04204 | 7.99034 | 129° | 27km/h | 16545m | -15.9m/s | -60.4°C | 5.8% | 0hPa | 2.6V | 08:19:09 | 02:26:46 | 00:00:00 | |
| IW2NTF | 2026-09-03 12:02:48 | 44.04245 | 7.98943 | 115° | 35km/h | 16698m | -16.9m/s | -60.9°C | 5.8% | 0hPa | 2.6V | 08:19:19 | 02:26:36 | 00:00:00 | |
| AUTORXJP | 2026-09-03 12:02:27 | 44.04345 | 7.98742 | 134° | 51km/h | 16949m | -17.4m/s | -61.7°C | 2.1% | -1.0hPa | 2.6V | 00:00:00 | 00:00:00 | 00:00:00 | |
| IW2NTF | 2026-09-03 12:02:00 | 44.04588 | 7.98476 | 156° | 37km/h | 17403m | -16.1m/s | -59°C | 5% | 0hPa | 2.6V | 08:20:03 | 02:25:52 | 00:00:00 | |
| AUTORXJP | 2026-09-03 12:01:56 | 44.04613 | 7.98462 | 157° | 33km/h | 17448m | -15.0m/s | -59.1°C | 1.6% | -1.0hPa | 2.6V | 00:00:00 | 00:00:00 | 00:00:00 | |
| IW2NTF | 2026-09-03 12:01:51 | 44.04662 | 7.98440 | 169° | 24km/h | 17556m | -16.6m/s | -59.7°C | 5.1% | 0hPa | 2.6V | 08:20:13 | 02:25:42 | 00:00:00 | |
| IW2NTF | 2026-09-03 12:01:40 | 44.04730 | 7.98413 | 146° | 24km/h | 17746m | -15.8m/s | -60.4°C | 5.5% | 0hPa | 2.6V | 08:20:25 | 02:25:30 | 00:00:00 | |
| IW2NTF | 2026-09-03 12:01:31 | 44.04783 | 7.98356 | 148° | 31km/h | 17905m | -15.9m/s | -60.9°C | 5.9% | 0hPa | 2.6V | 08:20:35 | 02:25:20 | 00:00:00 | |
| AUTORXJP | 2026-09-03 12:01:25 | 44.04795 | 7.98344 | 142° | 29km/h | 17938m | -17.2m/s | -61.0°C | 1.7% | -1.0hPa | 2.7V | 00:00:00 | 00:00:00 | 00:00:00 | |
| IW2NTF | 2026-09-03 12:01:20 | 44.04832 | 7.98275 | 123° | 31km/h | 18073m | -16.4m/s | -59.5°C | 5.2% | 0hPa | 2.7V | 08:20:45 | 02:25:10 | 00:00:00 | |
| IW2NTF | 2026-09-03 12:01:11 | 44.04889 | 7.98185 | 139° | 42km/h | 18236m | -15.8m/s | -59.1°C | 5% | 0hPa | 2.7V | 08:20:55 | 02:25:00 | 00:00:00 | |
| IW2NTF | 2026-09-03 12:00:59 | 44.04992 | 7.98117 | 166° | 42km/h | 18398m | -17.6m/s | -59.5°C | 5.5% | 0hPa | 2.7V | 08:21:05 | 02:24:50 | 00:00:00 | |
| AUTORXJP | 2026-09-03 12:00:54 | 44.05021 | 7.98107 | 158° | 35km/h | 18447m | -16.6m/s | -59.2°C | 1.4% | -1.0hPa | 2.7V | 00:00:00 | 00:00:00 | 00:00:00 | |
| IW2NTF | 2026-09-03 12:00:51 | 44.05078 | 7.98053 | 140° | 44km/h | 18561m | -17.7m/s | -58.8°C | 5.5% | 0hPa | 2.7V | 08:21:15 | 02:24:40 | 00:00:00 | |
| IW2NTF | 2026-09-03 12:00:40 | 44.05171 | 7.97999 | 177° | 37km/h | 18735m | -17.6m/s | -56.7°C | 4.8% | 0hPa | 2.6V | 08:21:25 | 02:24:30 | 00:00:00 | |
| IW2NTF | 2026-09-03 12:00:30 | 44.05246 | 7.98019 | 214° | 20km/h | 18906m | -18.2m/s | -55°C | 4% | 0hPa | 2.7V | 08:21:35 | 02:24:20 | 00:00:00 | |
| AUTORXJP | 2026-09-03 12:00:23 | 44.05256 | 7.98039 | 247° | 16km/h | 18981m | -18.5m/s | -54.5°C | 1.0% | -1.0hPa | 2.7V | 00:00:00 | 00:00:00 | 00:00:00 | |
| IW2NTF | 2026-09-03 12:00:20 | 44.05257 | 7.98067 | 272° | 13km/h | 19087m | -18.5m/s | -55.1°C | 3.9% | 0hPa | 2.7V | 08:21:45 | 02:24:10 | 00:00:00 | |
| IW2NTF | 2026-09-03 12:00:10 | 44.05271 | 7.98094 | 201° | 9km/h | 19266m | -18.4m/s | -56.1°C | 4.2% | 0hPa | 2.7V | 08:21:55 | 02:24:00 | 00:00:00 | |
| IW2NTF | 2026-09-03 12:00:00 | 44.05317 | 7.98106 | 199° | 16km/h | 19450m | -18.5m/s | -56.9°C | 4.4% | 0hPa | 2.7V | 08:22:05 | 02:23:50 | 00:00:00 | |
| AUTORXJP | 2026-09-03 11:59:52 | 44.05333 | 7.98114 | 195° | 11km/h | 19547m | -19.1m/s | -56.7°C | 1.1% | -1.0hPa | 2.6V | 00:00:00 | 00:00:00 | 00:00:00 | |
| IW2NTF | 2026-09-03 11:59:50 | 44.05347 | 7.98118 | 180° | 9km/h | 19636m | -17.9m/s | -56.8°C | 4.3% | 0hPa | 2.6V | 08:22:15 | 02:23:40 | 00:00:00 | |
| IW2NTF | 2026-09-03 11:59:41 | 44.05344 | 7.98099 | 50° | 13km/h | 19811m | -18.7m/s | -57.9°C | 4.9% | 0hPa | 2.6V | 08:22:25 | 02:23:30 | 00:00:00 | |
| IW2NTF | 2026-09-03 11:59:30 | 44.05351 | 7.98033 | 124° | 27km/h | 19999m | -20.4m/s | -57.5°C | 4.7% | 0hPa | 2.7V | 08:22:35 | 02:23:20 | 00:00:00 | |
| AUTORXJP | 2026-09-03 11:59:21 | 44.05374 | 7.97999 | 141° | 13km/h | 20117m | -20.7m/s | -57.3°C | 1.2% | -1.0hPa | 2.7V | 00:00:00 | 00:00:00 | 00:00:00 | |
| IW2NTF | 2026-09-03 11:59:20 | 44.05384 | 7.97992 | 146° | 7km/h | 20194m | -20.2m/s | -57°C | 4.6% | 0hPa | 2.7V | 08:22:45 | 02:23:10 | 00:00:00 | |
| IW2NTF | 2026-09-03 11:59:10 | 44.05392 | 7.97977 | 88° | 5km/h | 20392m | -20.2m/s | -56.9°C | 4.6% | 0hPa | 2.7V | 08:22:55 | 02:23:00 | 00:00:00 | |
| IW2NTF | 2026-09-03 11:59:01 | 44.05412 | 7.97976 | 179° | 20km/h | 20594m | -20m/s | -56.4°C | 4.6% | 0hPa | 2.6V | 08:23:05 | 02:22:50 | 00:00:00 | |
| AUTORXJP | 2026-09-03 11:58:50 | 44.05435 | 7.97979 | 223° | 4km/h | 20759m | -21.2m/s | -55.7°C | 1.1% | -1.0hPa | 2.7V | 00:00:00 | 00:00:00 | 00:00:00 | |
| IW2NTF | 2026-09-03 11:58:48 | 44.05436 | 7.97981 | 282° | 0km/h | 20800m | -20.5m/s | -55.9°C | 4.4% | 0hPa | 2.7V | 08:23:15 | 02:22:40 | 00:00:00 | |
| IW2NTF | 2026-09-03 11:58:42 | 44.05448 | 7.97964 | 148° | 11km/h | 21000m | -19.8m/s | -55.4°C | 4.4% | 0hPa | 2.7V | 08:23:25 | 02:22:30 | 00:00:00 | |
| IW2NTF | 2026-09-03 11:58:28 | 44.05447 | 7.97932 | 75° | 18km/h | 21201m | -21.3m/s | -54.4°C | 4% | 0hPa | 2.6V | 08:23:35 | 02:22:20 | 00:00:00 | |
| IW2NTF | 2026-09-03 11:58:18 | 44.05463 | 7.97897 | 177° | 7km/h | 21389m | -19.3m/s | -54.5°C | 4.1% | 0hPa | 2.7V | 08:23:45 | 02:22:10 | 00:00:00 | |
| IW2NTF | 2026-09-03 11:58:13 | 44.05450 | 7.97900 | 12° | 11km/h | 21586m | -20.7m/s | -54°C | 3.8% | 0hPa | 2.6V | 08:23:55 | 02:22:00 | 00:00:00 | |
| IW2NTF | 2026-09-03 11:57:58 | 44.05437 | 7.97920 | 285° | 7km/h | 21797m | -21.9m/s | -54°C | 3.9% | 0hPa | 2.7V | 08:24:05 | 02:21:50 | 00:00:00 | |
| IW2NTF | 2026-09-03 11:57:51 | 44.05430 | 7.97924 | 21° | 9km/h | 22045m | -20.7m/s | -54.1°C | 4.1% | 0hPa | 2.6V | 08:24:17 | 02:21:38 | 00:00:00 | |
| AUTORXJP | 2026-09-03 11:57:48 | 44.05434 | 7.97925 | 344° | 5km/h | 22006m | -19.5m/s | -54.3°C | 1.0% | -1.0hPa | 2.7V | 00:00:00 | 00:00:00 | 00:00:00 | |
| IW2NTF | 2026-09-03 11:57:38 | 44.05431 | 7.97920 | 286° | 9km/h | 22247m | -20.4m/s | -53.5°C | 3.9% | 0hPa | 2.7V | 08:24:27 | 02:21:28 | 00:00:00 | |
| IW2NTF | 2026-09-03 11:57:30 | 44.05431 | 7.97953 | 234° | 7km/h | 22465m | -23.2m/s | -53°C | 3.8% | 0hPa | 2.6V | 08:24:37 | 02:21:18 | 00:00:00 | |
| IW2NTF | 2026-09-03 11:57:20 | 44.05440 | 7.97973 | 278° | 9km/h | 22692m | -22.5m/s | -53.2°C | 4% | 0hPa | 2.7V | 08:24:47 | 02:21:08 | 00:00:00 | |
| AUTORXJP | 2026-09-03 11:57:17 | 44.05440 | 7.97971 | 254° | 5km/h | 22669m | -22.5m/s | -53.1°C | 0.9% | -1.0hPa | 2.7V | 00:00:00 | 00:00:00 | 00:00:00 | |
| IW2NTF | 2026-09-03 11:57:09 | 44.05437 | 7.97973 | 174° | 2km/h | 22911m | -22.4m/s | -52.5°C | 3.9% | 0hPa | 2.7V | 08:24:57 | 02:20:58 | 00:00:00 | |
| IW2NTF | 2026-09-03 11:57:01 | 44.05427 | 7.97994 | 9° | 15km/h | 23132m | -22.7m/s | -50.6°C | 3.3% | 0hPa | 2.6V | 08:25:07 | 02:20:48 | 00:00:00 | |
| DB0UT-7 | 2026-09-03 11:56:49 | 44.05410 | 7.97979 | 67° | 5km/h | 23270m | -23.4m/s | -50.1°C | 3.1% | 0hPa | 2.6V | 08:25:00 | 00:00:00 | 00:00:00 | |
| IW2NTF | 2026-09-03 11:56:48 | 44.05409 | 7.97970 | 158° | 2km/h | 23357m | -21.5m/s | -50.5°C | 3.1% | 0hPa | 2.7V | 08:25:17 | 02:20:38 | 00:00:00 | |
| AUTORXJP | 2026-09-03 11:56:46 | 44.05409 | 7.97970 | 158° | 2km/h | 23357m | -21.5m/s | -50.5°C | 0.7% | -1.0hPa | 2.6V | 00:00:00 | 00:00:00 | 00:00:00 | |
| IW2NTF | 2026-09-03 11:56:41 | 44.05405 | 7.97986 | 258° | 7km/h | 23570m | -22.4m/s | -51.4°C | 3.4% | 0hPa | 2.6V | 08:25:27 | 02:20:28 | 00:00:00 | |
| IW2NTF | 2026-09-03 11:56:28 | 44.05417 | 7.98002 | 292° | 2km/h | 23807m | -22.6m/s | -51.9°C | 3.5% | 0hPa | 2.7V | 08:25:37 | 02:20:18 | 00:00:00 | |
| DB0UT-7 | 2026-09-03 11:56:19 | 44.05414 | 7.98013 | 287° | 7km/h | 23943m | -21.3m/s | -52.4°C | 3.8% | 0hPa | 2.6V | 00:00:00 | 02:20:12 | 00:00:00 | |
| IW2NTF | 2026-09-03 11:56:18 | 44.05408 | 7.98028 | 316° | 11km/h | 24035m | -25.6m/s | -52.5°C | 3.9% | 0hPa | 2.6V | 08:25:47 | 02:20:08 | 00:00:00 | |
| AUTORXJP | 2026-09-03 11:56:14 | 44.05407 | 7.98031 | 324° | 11km/h | 24061m | -26.0m/s | -52.4°C | 0.8% | -1.0hPa | 2.7V | 00:00:00 | 00:00:00 | 00:00:00 | |
| IW2NTF | 2026-09-03 11:56:09 | 44.05408 | 7.98033 | 188° | 7km/h | 24273m | -23.9m/s | -51.7°C | 3.6% | 0hPa | 2.7V | 08:25:57 | 02:19:58 | 00:00:00 | |
| IW2NTF | 2026-09-03 11:55:57 | 44.05418 | 7.98035 | 220° | 5km/h | 24543m | -23.6m/s | -50.8°C | 3.4% | 0hPa | 2.6V | 08:26:07 | 02:19:48 | 00:00:00 | |
| IW2NTF | 2026-09-03 11:55:50 | 44.05413 | 7.98079 | 315° | 26km/h | 24806m | -26.9m/s | -51.3°C | 3.7% | 0hPa | 2.7V | 08:26:17 | 02:19:38 | 00:00:00 | |
| DB0UT-7 | 2026-09-03 11:55:49 | 44.05426 | 7.98056 | 293° | 18km/h | 24691m | -29.7m/s | -50.8°C | 3.5% | 0hPa | 2.7V | 00:00:00 | 00:00:00 | 00:00:00 | |
| AUTORXJP | 2026-09-03 11:55:43 | 44.05401 | 7.98091 | 322° | 33km/h | 24859m | -26.9m/s | -51.1°C | 0.8% | -1.0hPa | 2.7V | 00:00:00 | 00:00:00 | 00:00:00 | |
| DO3MHA-12 | 2026-09-03 11:55:40 | 44.05380 | 7.98109 | 334° | 22km/h | 24939m | -26.8m/s | -50.8°C | 3.6% | 0hPa | 2.7V | 00:00:00 | 02:19:33 | 00:00:00 | |
| IW2NTF | 2026-09-03 11:55:39 | 44.05349 | 7.98116 | 25° | 18km/h | 25069m | -24.6m/s | -50.4°C | 3.5% | 0hPa | 2.7V | 08:26:27 | 02:19:28 | 00:00:00 | |
| IW2NTF | 2026-09-03 11:55:31 | 44.05334 | 7.98092 | 352° | 7km/h | 25312m | -25.1m/s | -48.9°C | 3.1% | 0hPa | 2.6V | 08:26:37 | 02:19:18 | 00:00:00 | |
| DO3MHA-12 | 2026-09-03 11:55:30 | 44.05339 | 7.98097 | 83° | 13km/h | 25192m | -24.8m/s | -49.3°C | 3.2% | 0hPa | 2.6V | 00:00:00 | 02:19:23 | 00:00:00 | |
| DB0UT-7 | 2026-09-03 11:55:19 | 44.05317 | 7.98099 | 353° | 26km/h | 25466m | -27.7m/s | -48.9°C | 3.0% | 0hPa | 2.6V | 00:00:00 | 02:19:12 | 00:00:00 | |
| DO3MHA-12 | 2026-09-03 11:55:18 | 44.05313 | 7.98099 | 10° | 13km/h | 25493m | -28.6m/s | -48.9°C | 3.0% | 0hPa | 2.7V | 00:00:00 | 02:19:11 | 00:00:00 | |
| IW2NTF | 2026-09-03 11:55:17 | 44.05306 | 7.98099 | 3° | 7km/h | 25577m | -27.7m/s | -49.1°C | 3.1% | 0hPa | 2.7V | 08:26:47 | 02:19:08 | 00:00:00 | |
| AUTORXJP | 2026-09-03 11:55:12 | 44.05299 | 7.98099 | 348° | 15km/h | 25651m | -24.1m/s | -49.1°C | 0.6% | -1.0hPa | 2.6V | 00:00:00 | 00:00:00 | 00:00:00 | |
| DO3MHA-12 | 2026-09-03 11:55:08 | 44.05277 | 7.98100 | 7° | 35km/h | 25753m | -26.8m/s | -48.7°C | 3.0% | 0hPa | 2.6V | 08:26:00 | 02:19:01 | 00:00:00 | |
| IW2NTF | 2026-09-03 11:55:07 | 44.05252 | 7.98091 | 26° | 38km/h | 25831m | -26.3m/s | -49°C | 3% | 0hPa | 2.7V | 08:26:57 | 02:18:58 | 00:00:00 | |
| IW2NTF | 2026-09-03 11:54:57 | 44.05198 | 7.98015 | 51° | 16km/h | 26083m | -23.8m/s | -49.5°C | 3.3% | 0hPa | 2.7V | 08:27:07 | 02:18:48 | 00:00:00 | |
| DB0UT-7 | 2026-09-03 11:54:49 | 44.05181 | 7.98006 | 25° | 15km/h | 26230m | -24.1m/s | -49.4°C | 3.3% | 0hPa | 2.7V | 00:00:00 | 00:00:00 | 00:00:00 | |
| IW2NTF | 2026-09-03 11:54:47 | 44.05169 | 7.97977 | 64° | 24km/h | 26378m | -25.3m/s | -49.4°C | 3.3% | 0hPa | 2.7V | 08:27:19 | 02:18:36 | 00:00:00 | |
| AUTORXJP | 2026-09-03 11:54:41 | 44.05164 | 7.97962 | 63° | 20km/h | 26429m | -26.1m/s | -49.5°C | 0.7% | -1.0hPa | 2.7V | 00:00:00 | 00:00:00 | 00:00:00 | |
| IW2NTF | 2026-09-03 11:54:37 | 44.05153 | 7.97932 | 80° | 9km/h | 26643m | -26.7m/s | -48.6°C | 3.2% | 0hPa | 2.7V | 08:27:29 | 02:18:26 | 00:00:00 | |
| IW2NTF | 2026-09-03 11:54:26 | 44.05131 | 7.97905 | 36° | 9km/h | 26924m | -27.8m/s | -47.7°C | 3% | 0hPa | 2.6V | 08:27:39 | 02:18:16 | 00:00:00 | |
| DB0UT-7 | 2026-09-03 11:54:19 | 44.05132 | 7.97891 | 133° | 16km/h | 27029m | -25.3m/s | -47.4°C | 2.9% | 0hPa | 2.6V | 00:00:00 | 02:18:12 | 00:00:00 | |
| IW2NTF | 2026-09-03 11:54:15 | 44.05142 | 7.97881 | 89° | 2km/h | 27188m | -27.7m/s | -47.4°C | 2.8% | 0hPa | 2.6V | 08:27:49 | 02:18:06 | 00:00:00 | |
| AUTORXJP | 2026-09-03 11:54:10 | 44.05140 | 7.97879 | 7° | 5km/h | 27272m | -27.0m/s | -47.4°C | 0.6% | -1.0hPa | 2.6V | 00:00:00 | 00:00:00 | 00:00:00 | |
| IW2NTF | 2026-09-03 11:54:05 | 44.05138 | 7.97873 | 120° | 2km/h | 27458m | -26.4m/s | -47.7°C | 2.9% | 0hPa | 2.6V | 08:27:59 | 02:17:56 | 00:00:00 | |
| IW2NTF | 2026-09-03 11:53:55 | 44.05112 | 7.97834 | 62° | 18km/h | 27720m | -28.9m/s | -48.1°C | 3.1% | 0hPa | 2.7V | 08:28:09 | 02:17:46 | 00:00:00 | |
| DO3MHA-12 | 2026-09-03 11:53:50 | 44.05112 | 7.97817 | 122° | 13km/h | 27799m | -28.5m/s | -47.7°C | 3.0% | 0hPa | 2.7V | 00:00:00 | 02:17:43 | 00:00:00 | |
| IW2NTF | 2026-09-03 11:53:48 | 44.05122 | 7.97811 | 356° | 13km/h | 28001m | -29.1m/s | -47.4°C | 3% | 0hPa | 2.7V | 08:28:19 | 02:17:36 | 00:00:00 | |
| DB0UT-7 | 2026-09-03 11:53:46 | 44.05123 | 7.97808 | 195° | 11km/h | 27917m | -30.0m/s | -47.3°C | 3.0% | 0hPa | 2.6V | 00:00:00 | 00:00:00 | 00:00:00 | |
| AUTORXJP | 2026-09-03 11:53:39 | 44.05101 | 7.97803 | 36° | 26km/h | 28114m | -27.1m/s | -47.2°C | 0.6% | -1.0hPa | 2.7V | 00:00:00 | 00:00:00 | 00:00:00 | |
| IW2NTF | 2026-09-03 11:53:38 | 44.05090 | 7.97767 | 117° | 15km/h | 28286m | -33.7m/s | -46.3°C | 2.8% | 0hPa | 2.7V | 08:28:29 | 02:17:26 | 00:00:00 | |
| IW2NTF | 2026-09-03 11:53:28 | 44.05093 | 7.97755 | 9° | 7km/h | 28630m | -33m/s | -46.4°C | 2.8% | 0hPa | 2.7V | 08:28:39 | 02:17:16 | 00:00:00 | |
| DO3MHA-12 | 2026-09-03 11:53:21 | 44.05090 | 7.97754 | 33° | 22km/h | 28693m | -31.3m/s | -46.2°C | 2.8% | 0hPa | 2.7V | 00:00:00 | 02:17:14 | 00:00:00 | |
| IW2NTF | 2026-09-03 11:53:19 | 44.05080 | 7.97753 | 347° | 16km/h | 28941m | -27.8m/s | -45.9°C | 2.8% | 0hPa | 2.7V | 08:28:49 | 02:17:06 | 00:00:00 | |
| DB0UT-7 | 2026-09-03 11:53:16 | 44.05087 | 7.97752 | 16° | 16km/h | 28855m | -31.3m/s | -45.5°C | 2.7% | 0hPa | 2.6V | 00:00:00 | 02:17:09 | 00:00:00 | |
| IW2NTF | 2026-09-03 11:53:09 | 44.05035 | 7.97730 | 86° | 18km/h | 29244m | -30.7m/s | -46.1°C | 3% | 0hPa | 2.6V | 08:28:59 | 02:16:56 | 00:00:00 | |
| AUTORXJP | 2026-09-03 11:53:08 | 44.05051 | 7.97753 | 14° | 22km/h | 29093m | -29.9m/s | -46.1°C | 0.6% | -1.0hPa | 2.7V | 00:00:00 | 00:00:00 | 00:00:00 | |
| DO3MHA-12 | 2026-09-03 11:53:07 | 44.05046 | 7.97750 | 29° | 16km/h | 29123m | -30.6m/s | -46.1°C | 3.0% | 0hPa | 2.7V | 00:00:00 | 02:17:00 | 00:00:00 | |
| IW2NTF | 2026-09-03 11:52:59 | 44.05032 | 7.97688 | 89° | 13km/h | 29566m | -34.3m/s | -43.8°C | 2.6% | 0hPa | 2.6V | 08:29:09 | 02:16:46 | 00:00:00 | |
| IW2NTF | 2026-09-03 11:52:48 | 44.05069 | 7.97651 | 137° | 11km/h | 29916m | -34.7m/s | -43.2°C | 2.5% | 0hPa | 2.6V | 08:29:19 | 02:16:36 | 00:00:00 | |
| DB0UT-7 | 2026-09-03 11:52:46 | 44.05056 | 7.97660 | 156° | 16km/h | 29810m | -38.0m/s | -43.0°C | 2.5% | 0hPa | 2.6V | 00:00:00 | 00:00:00 | 00:00:00 | |
| DO3MHA-12 | 2026-09-03 11:52:39 | 44.05077 | 7.97645 | 175° | 13km/h | 30058m | -35.8m/s | -43.5°C | 2.6% | 0hPa | 2.6V | 00:00:00 | 02:16:32 | 00:00:00 | |
| IW2NTF | 2026-09-03 11:52:37 | 44.05097 | 7.97649 | 194° | 15km/h | 30298m | -46.2m/s | -42.3°C | 2.3% | 0hPa | 2.6V | 08:29:29 | 02:16:26 | 00:00:00 | |
| AUTORXJP | 2026-09-03 11:52:37 | 44.05087 | 7.97645 | 193° | 15km/h | 30172m | -38.7m/s | -42.8°C | 0.5% | -1.0hPa | 2.6V | 00:00:00 | 00:00:00 | 00:00:00 | |
| DO3MHA-12 | 2026-09-03 11:52:29 | 44.05110 | 7.97652 | 200° | 33km/h | 30483m | -48.5m/s | -42.4°C | 2.4% | 0hPa | 2.6V | 00:00:00 | 02:16:22 | 00:00:00 | |
| IW2NTF | 2026-09-03 11:52:27 | 44.05134 | 7.97664 | 198° | 15km/h | 30777m | -48.1m/s | -43°C | 2.6% | 0hPa | 2.6V | 08:29:39 | 02:16:16 | 00:00:00 | |
| IW2NTF | 2026-09-03 11:52:18 | 44.05192 | 7.97724 | 226° | 44km/h | 31235m | -38.5m/s | -41.4°C | 2.4% | 0hPa | 2.7V | 08:29:49 | 02:16:06 | 00:00:00 | |
| DB0UT-7 | 2026-09-03 11:52:16 | 44.05168 | 7.97694 | 219° | 27km/h | 31105m | -45.1m/s | -42.0°C | 2.5% | 0hPa | 2.6V | 00:00:00 | 02:16:09 | 08:30:00 | |
| DO3MHA-12 | 2026-09-03 11:52:12 | 44.05199 | 7.97736 | 237° | 29km/h | 31272m | -36.3m/s | -41.3°C | 2.4% | 0hPa | 2.6V | 00:00:00 | 02:16:05 | 00:00:00 | |
| IW2NTF | 2026-09-03 11:52:06 | 44.05206 | 7.97818 | 284° | 24km/h | 31644m | -49.9m/s | -40.5°C | 2.2% | 0hPa | 2.7V | 08:30:00 | 02:15:56 | 00:00:00 | |
| DO3MHA-12 | 2026-09-03 11:52:02 | 44.05205 | 7.97826 | 284° | 24km/h | 31693m | -51.0m/s | -40.6°C | 2.3% | 0hPa | 2.7V | 00:00:00 | 02:15:55 | 00:00:00 | |
| IW2NTF | 2026-09-03 11:51:59 | 44.05210 | 7.97905 | 249° | 9km/h | 32130m | -49.2m/s | -38.4°C | 2% | 0hPa | 2.7V | 08:30:00 | 02:15:46 | 00:00:00 | |
| DB0UT-7 | 2026-09-03 11:51:46 | 44.05203 | 7.97948 | 276° | 24km/h | 32468m | -45.0m/s | -38.5°C | 1.9% | 0hPa | 2.7V | 00:00:00 | 00:00:00 | 00:00:00 | |
| IW2NTF | 2026-09-03 11:51:45 | 44.05206 | 7.97975 | 244° | 22km/h | 32600m | -42.6m/s | -38.4°C | 1.9% | 0hPa | 2.7V | 08:30:00 | 02:15:36 | 00:00:00 | |
| IW2NTF | 2026-09-03 11:51:34 | 44.05241 | 7.98013 | 264° | 29km/h | 32926m | -11.1m/s | -38.5°C | 2% | 0hPa | 2.7V | 08:30:00 | 02:15:26 | 00:00:00 | |
| DO3MHA-12 | 2026-09-03 11:51:33 | 44.05241 | 7.98013 | 265° | 29km/h | 32927m | -11.1m/s | -38.4°C | 2.0% | 0hPa | 2.6V | 00:00:00 | 02:15:26 | 00:00:00 | |
| IW2NTF | 2026-09-03 11:51:29 | 44.05242 | 7.98110 | 219° | 27km/h | 32890m | 6.1m/s | -38.2°C | 2% | 0hPa | 2.6V | 08:30:00 | 02:15:16 | 00:00:00 | |
| DO3MHA-12 | 2026-09-03 11:51:23 | 44.05242 | 7.98110 | 220° | 22km/h | 32891m | 6.0m/s | -38.1°C | 2.0% | 0hPa | 2.6V | 00:00:00 | 02:15:16 | 08:30:00 | |
| DB0UT-7 | 2026-09-03 11:51:16 | 44.05264 | 7.98145 | 261° | 31km/h | 32850m | 6.3m/s | -38.3°C | 1.9% | 0hPa | 2.6V | 00:00:00 | 02:15:09 | 00:00:00 | |
| IW2NTF | 2026-09-03 11:51:15 | 44.05266 | 7.98174 | 269° | 31km/h | 32832m | 6m/s | -38.2°C | 2% | 0hPa | 2.6V | 08:30:00 | 02:15:06 | 00:00:00 | |
| DO3MHA-12 | 2026-09-03 11:51:13 | 44.05266 | 7.98174 | 270° | 29km/h | 32832m | 5.9m/s | -38.2°C | 2.0% | 0hPa | 2.7V | 00:00:00 | 02:15:06 | 00:00:00 | |
| IW2NTF | 2026-09-03 11:51:08 | 44.05314 | 7.98244 | 213° | 24km/h | 32775m | 6.3m/s | -38.5°C | 2% | 0hPa | 2.7V | 08:30:00 | 02:14:56 | 00:00:00 | |
| AUTORXJP | 2026-09-03 11:51:04 | 44.05314 | 7.98244 | 213° | 22km/h | 32776m | 6.3m/s | -38.5°C | 0.3% | -1.0hPa | 2.7V | 00:00:00 | 00:00:00 | 00:00:00 | |
| IW2NTF | 2026-09-03 11:50:57 | 44.05334 | 7.98344 | 233° | 33km/h | 32716m | 5.7m/s | -38.6°C | 2.1% | 0hPa | 2.7V | 08:30:00 | 02:14:46 | 00:00:00 | |
| IW2NTF | 2026-09-03 11:50:49 | 44.05364 | 7.98423 | 285° | 26km/h | 32658m | 4.8m/s | -38.6°C | 2% | 0hPa | 2.6V | 08:30:00 | 02:14:36 | 00:00:00 | |
| DB0UT-7 | 2026-09-03 11:50:46 | 44.05369 | 7.98399 | 267° | 20km/h | 32676m | 7.7m/s | -38.8°C | 2.1% | 0hPa | 2.7V | 00:00:00 | 00:00:00 | 00:00:00 | |
| IW2NTF | 2026-09-03 11:50:39 | 44.05390 | 7.98483 | 273° | 15km/h | 32601m | 5.7m/s | -38.6°C | 2.1% | 0hPa | 2.7V | 08:30:00 | 02:14:26 | 00:00:00 | |
| AUTORXJP | 2026-09-03 11:50:32 | 44.05390 | 7.98489 | 274° | 20km/h | 32595m | 6.6m/s | -38.5°C | 0.4% | -1.0hPa | 2.7V | 00:00:00 | 00:00:00 | 00:00:00 | |
| IW2NTF | 2026-09-03 11:50:28 | 44.05379 | 7.98551 | 266° | 7km/h | 32543m | 6.1m/s | -38.9°C | 2% | 0hPa | 2.7V | 08:30:00 | 02:14:16 | 00:00:00 | |
| IW2NTF | 2026-09-03 11:50:19 | 44.05376 | 7.98597 | 315° | 18km/h | 32485m | 5.9m/s | -38.9°C | 2% | 0hPa | 2.6V | 08:30:00 | 02:14:06 | 00:00:00 | |
| DB0UT-7 | 2026-09-03 11:50:16 | 44.05388 | 7.98582 | 308° | 20km/h | 32502m | 6.1m/s | -38.8°C | 2.0% | 0hPa | 2.7V | 00:00:00 | 02:14:09 | 00:00:00 | |
| IW2NTF | 2026-09-03 11:50:09 | 44.05348 | 7.98637 | 293° | 29km/h | 32427m | 5.7m/s | -39°C | 2% | 0hPa | 2.7V | 08:30:00 | 02:13:56 | 00:00:00 | |
| AUTORXJP | 2026-09-03 11:50:01 | 44.05345 | 7.98655 | 272° | 22km/h | 32416m | 5.6m/s | -39.0°C | 0.3% | -1.0hPa | 2.7V | 00:00:00 | 00:00:00 | 00:00:00 | |
| IW2NTF | 2026-09-03 11:49:59 | 44.05326 | 7.98690 | 298° | 26km/h | 32368m | 6.3m/s | -39.1°C | 2% | 0hPa | 2.7V | 08:30:00 | 02:13:46 | 00:00:00 | |
| IW2NTF | 2026-09-03 11:49:49 | 44.05314 | 7.98753 | 305° | 16km/h | 32309m | 5.8m/s | -38.7°C | 2% | 0hPa | 2.6V | 08:30:00 | 02:13:36 | 00:00:00 | |
| DB0UT-7 | 2026-09-03 11:49:46 | 44.05323 | 7.98743 | 314° | 27km/h | 32325m | 6.3m/s | -38.9°C | 2.0% | 0hPa | 2.7V | 00:00:00 | 00:00:00 | 00:00:00 | |
| IW2NTF | 2026-09-03 11:49:39 | 44.05316 | 7.98851 | 272° | 27km/h | 32248m | 6.8m/s | -38.8°C | 2% | 0hPa | 2.7V | 08:30:00 | 02:13:26 | 00:00:00 | |
| AUTORXJP | 2026-09-03 11:49:30 | 44.05312 | 7.98881 | 291° | 26km/h | 32230m | 6.5m/s | -38.8°C | 0.4% | -1.0hPa | 2.7V | 00:00:00 | 00:00:00 | 00:00:00 | |
| IW2NTF | 2026-09-03 11:49:29 | 44.05304 | 7.98951 | 254° | 44km/h | 32188m | 5.3m/s | -38.7°C | 2% | 0hPa | 2.7V | 08:30:00 | 02:13:16 | 00:00:00 | |
| IW2NTF | 2026-09-03 11:49:19 | 44.05319 | 7.99046 | 261° | 31km/h | 32130m | 5.1m/s | -39.5°C | 2% | 0hPa | 2.6V | 08:30:00 | 02:13:06 | 00:00:00 | |
| DB0UT-7 | 2026-09-03 11:49:16 | 44.05318 | 7.99018 | 271° | 29km/h | 32147m | 6.6m/s | -39.1°C | 2.0% | 0hPa | 2.7V | 00:00:00 | 02:13:09 | 00:00:00 | |
| IW2NTF | 2026-09-03 11:49:09 | 44.05255 | 7.99706 | 279° | 35km/h | 31670m | 4.8m/s | -40.9°C | 2.1% | 0hPa | 2.6V | 08:30:00 | 02:11:44 | 00:00:00 | |
| DO3MHA-12 | 2026-09-03 11:49:08 | 44.05332 | 7.99097 | 240° | 31km/h | 32102m | 4.8m/s | -40.0°C | 2.1% | 0hPa | 2.7V | 00:00:00 | 02:13:01 | 00:00:00 | |
| IW2NTF | 2026-09-03 11:49:03 | 44.05241 | 7.99767 | 293° | 33km/h | 31639m | 5m/s | -41.3°C | 2.2% | 0hPa | 2.7V | 08:30:00 | 02:11:38 | 00:00:00 | |
| AUTORXJP | 2026-09-03 11:48:59 | 44.05360 | 7.99191 | 246° | 11km/h | 32049m | 5.3m/s | -40.4°C | 0.4% | -1.0hPa | 2.7V | 00:00:00 | 00:00:00 | 00:00:00 | |
| DO3MHA-12 | 2026-09-03 11:48:58 | 44.05362 | 7.99195 | 230° | 24km/h | 32043m | 5.8m/s | -40.5°C | 2.2% | 0hPa | 2.7V | 00:00:00 | 02:12:51 | 00:00:00 | |
| DO3MHA-12 | 2026-09-03 11:48:48 | 44.05393 | 7.99263 | 281° | 20km/h | 31986m | 6.3m/s | -40.6°C | 2.2% | 0hPa | 2.7V | 00:00:00 | 02:12:41 | 00:00:00 | |
| DB0UT-7 | 2026-09-03 11:48:46 | 44.05391 | 7.99284 | 282° | 22km/h | 31975m | 4.8m/s | -40.5°C | 2.1% | 0hPa | 2.7V | 00:00:00 | 00:00:00 | 00:00:00 | |
| DO3MHA-12 | 2026-09-03 11:48:38 | 44.05393 | 7.99327 | 251° | 22km/h | 31928m | 4.9m/s | -40.8°C | 2.2% | 0hPa | 2.7V | 00:00:00 | 02:12:31 | 00:00:00 | |
| DO3MHA-12 | 2026-09-03 11:48:28 | 44.05380 | 7.99402 | 270° | 20km/h | 31873m | 5.1m/s | -41.3°C | 2.3% | 0hPa | 2.7V | 00:00:00 | 02:12:21 | 00:00:00 | |
| DO3MHA-12 | 2026-09-03 11:48:18 | 44.05348 | 7.99453 | 319° | 35km/h | 31817m | 6.5m/s | -41.5°C | 2.3% | 0hPa | 2.6V | 00:00:00 | 02:12:11 | 00:00:00 | |
| DB0UT-7 | 2026-09-03 11:48:16 | 44.05331 | 7.99472 | 323° | 38km/h | 31805m | 5.1m/s | -41.5°C | 2.2% | 0hPa | 2.6V | 00:00:00 | 02:12:09 | 00:00:00 | |
| DO3MHA-12 | 2026-09-03 11:48:08 | 44.05307 | 7.99545 | 293° | 35km/h | 31761m | 5.9m/s | -41.2°C | 2.3% | 0hPa | 2.6V | 00:00:00 | 02:12:01 | 00:00:00 | |
| AUTORXJP | 2026-09-03 11:47:57 | 44.05268 | 7.99654 | 289° | 20km/h | 31702m | 5.3m/s | -40.7°C | 0.4% | -1.0hPa | 2.6V | 00:00:00 | 00:00:00 | 00:00:00 | |
| IW2NTF | 2026-09-03 11:47:41 | 44.05241 | 7.99878 | 283° | 16km/h | 31586m | 3.8m/s | -41.3°C | 2.2% | 0hPa | 2.6V | 08:30:00 | 02:11:28 | 00:00:00 | |
| IW2NTF | 2026-09-03 11:47:30 | 44.05259 | 7.99998 | 236° | 31km/h | 31534m | 5.3m/s | -41.7°C | 2.3% | 0hPa | 2.7V | 08:30:00 | 02:11:18 | 00:00:00 | |
| AUTORXJP | 2026-09-03 11:47:26 | 44.05254 | 7.99989 | 232° | 35km/h | 31539m | 4.4m/s | -41.7°C | 0.4% | -1.0hPa | 2.6V | 00:00:00 | 00:00:00 | 00:00:00 | |
| IW2NTF | 2026-09-03 11:47:20 | 44.05272 | 8.00090 | 242° | 46km/h | 31481m | 6.1m/s | -41.7°C | 2.3% | 0hPa | 2.6V | 08:30:00 | 02:11:08 | 00:00:00 | |
| IW2NTF | 2026-09-03 11:47:10 | 44.05321 | 8.00188 | 273° | 31km/h | 31431m | 5.2m/s | -41.8°C | 2.3% | 0hPa | 2.7V | 08:30:00 | 02:10:58 | 00:00:00 | |
| IW2NTF | 2026-09-03 11:47:01 | 44.05397 | 8.00299 | 216° | 33km/h | 31383m | 5.6m/s | -41.5°C | 2.3% | 0hPa | 2.6V | 08:30:00 | 02:10:48 | 00:00:00 | |
| AUTORXJP | 2026-09-03 11:46:55 | 44.05396 | 8.00299 | 216° | 33km/h | 31383m | 5.6m/s | -41.6°C | 0.4% | -1.0hPa | 2.7V | 00:00:00 | 00:00:00 | 00:00:00 | |
| IW2NTF | 2026-09-03 11:46:50 | 44.05447 | 8.00381 | 215° | 42km/h | 31331m | 5.3m/s | -41.6°C | 2.3% | 0hPa | 2.7V | 08:30:00 | 02:10:38 | 00:00:00 | |
| IW2NTF | 2026-09-03 11:46:41 | 44.05508 | 8.00462 | 225° | 33km/h | 31281m | 6.2m/s | -41.9°C | 2.3% | 0hPa | 2.7V | 08:30:00 | 02:10:28 | 00:00:00 | |
| DB0UT-7 | 2026-09-03 11:46:37 | 44.05497 | 8.00449 | 214° | 27km/h | 31291m | 4.4m/s | -41.8°C | 2.3% | 0hPa | 2.6V | 00:00:00 | 02:10:30 | 00:00:00 | |
| IW2NTF | 2026-09-03 11:46:31 | 44.05564 | 8.00549 | 221° | 27km/h | 31227m | 5m/s | -42.5°C | 2.3% | 0hPa | 2.6V | 08:30:00 | 02:10:18 | 00:00:00 | |
| AUTORXJP | 2026-09-03 11:46:25 | 44.05570 | 8.00556 | 221° | 27km/h | 31223m | 4.5m/s | -42.6°C | 0.4% | -1.0hPa | 2.7V | 00:00:00 | 00:00:00 | 00:00:00 | |
| IW2NTF | 2026-09-03 11:46:21 | 44.05612 | 8.00600 | 240° | 24km/h | 31175m | 5.1m/s | -43.1°C | 2.4% | 0hPa | 2.7V | 08:30:00 | 02:10:08 | 00:00:00 | |
| IW2NTF | 2026-09-03 11:46:11 | 44.05672 | 8.00620 | 175° | 27km/h | 31120m | 6.1m/s | -43°C | 2.4% | 0hPa | 2.6V | 08:30:00 | 02:09:58 | 00:00:00 | |
| IW2NTF | 2026-09-03 11:46:00 | 44.05721 | 8.00646 | 162° | 29km/h | 31066m | 5.6m/s | -43.3°C | 2.4% | 0hPa | 2.7V | 08:30:00 | 02:09:48 | 00:00:00 | |
| AUTORXJP | 2026-09-03 11:45:53 | 44.05744 | 8.00636 | 171° | 29km/h | 31052m | 5.0m/s | -43.3°C | 0.5% | -1.0hPa | 2.6V | 00:00:00 | 00:00:00 | 00:00:00 | |
| IW2NTF | 2026-09-03 11:45:51 | 44.05764 | 8.00654 | 212° | 11km/h | 31014m | 4.9m/s | -43.4°C | 2.4% | 0hPa | 2.6V | 08:30:00 | 02:09:38 | 00:00:00 | |
| IW2NTF | 2026-09-03 11:45:41 | 44.05815 | 8.00653 | 125° | 11km/h | 30958m | 4.5m/s | -43.5°C | 2.5% | 0hPa | 2.7V | 08:30:00 | 02:09:28 | 00:00:00 | |
| DB0UT-7 | 2026-09-03 11:45:37 | 44.05810 | 8.00660 | 145° | 11km/h | 30969m | 5.7m/s | -43.6°C | 2.5% | 0hPa | 2.6V | 00:00:00 | 02:09:30 | 00:00:00 | |
| IW2NTF | 2026-09-03 11:45:31 | 44.05835 | 8.00664 | 197° | 9km/h | 30905m | 5.4m/s | -43.9°C | 2.6% | 0hPa | 2.7V | 08:30:00 | 02:09:18 | 00:00:00 | |
| AUTORXJP | 2026-09-03 11:45:22 | 44.05851 | 8.00668 | 178° | 18km/h | 30883m | 4.5m/s | -43.9°C | 0.5% | -1.0hPa | 2.6V | 00:00:00 | 00:00:00 | 00:00:00 | |
| IW2NTF | 2026-09-03 11:45:21 | 44.05869 | 8.00658 | 187° | 11km/h | 30848m | 5.6m/s | -43.8°C | 2.5% | 0hPa | 2.6V | 08:30:00 | 02:09:08 | 00:00:00 | |
| IW2NTF | 2026-09-03 11:45:11 | 44.05882 | 8.00668 | 168° | 7km/h | 30792m | 5.5m/s | -43.8°C | 2.6% | 0hPa | 2.7V | 08:30:00 | 02:08:58 | 00:00:00 | |
| DB0UT-7 | 2026-09-03 11:45:07 | 44.05879 | 8.00667 | 238° | 11km/h | 30802m | 5.7m/s | -43.8°C | 2.6% | 0hPa | 2.6V | 00:00:00 | 00:00:00 | 00:00:00 | |
| IW2NTF | 2026-09-03 11:45:01 | 44.05911 | 8.00654 | 166° | 5km/h | 30733m | 5.3m/s | -43.5°C | 2.5% | 0hPa | 2.6V | 08:30:00 | 02:08:48 | 00:00:00 | |
| AUTORXJP | 2026-09-03 11:44:51 | 44.05917 | 8.00662 | 218° | 9km/h | 30704m | 5.2m/s | -43.5°C | 0.5% | -1.0hPa | 2.7V | 00:00:00 | 00:00:00 | 00:00:00 | |
| IW2NTF | 2026-09-03 11:44:50 | 44.05955 | 8.00667 | 172° | 7km/h | 30637m | 6m/s | -43.3°C | 2.5% | 0hPa | 2.7V | 08:30:00 | 02:08:32 | 00:00:00 | |
| DO3MHA-12 | 2026-09-03 11:44:45 | 44.05932 | 8.00661 | 177° | 15km/h | 30673m | 6.7m/s | -43.4°C | 2.5% | 0hPa | 2.6V | 00:00:00 | 02:08:38 | 00:00:00 | |
| DB0UT-7 | 2026-09-03 11:44:37 | 44.05960 | 8.00667 | 183° | 15km/h | 30627m | 5.8m/s | -43.2°C | 2.5% | 0hPa | 2.6V | 00:00:00 | 02:08:30 | 00:00:00 | |
| DO3MHA-12 | 2026-09-03 11:44:35 | 44.05967 | 8.00669 | 203° | 18km/h | 30614m | 5.7m/s | -43.2°C | 2.5% | 0hPa | 2.6V | 00:00:00 | 02:08:28 | 00:00:00 | |
| IW2NTF | 2026-09-03 11:44:34 | 44.05993 | 8.00681 | 197° | 15km/h | 30578m | 6.2m/s | -43.1°C | 2.5% | 0hPa | 2.7V | 08:30:00 | 02:08:22 | 00:00:00 | |
| DO3MHA-12 | 2026-09-03 11:44:25 | 44.06006 | 8.00692 | 222° | 13km/h | 30555m | 5.8m/s | -43.0°C | 2.4% | 0hPa | 2.6V | 00:00:00 | 02:08:18 | 00:00:00 | |
| IW2NTF | 2026-09-03 11:44:22 | 44.06016 | 8.00705 | 221° | 18km/h | 30521m | 5.9m/s | -42.9°C | 2.4% | 0hPa | 2.6V | 08:30:00 | 02:08:12 | 00:00:00 | |
| AUTORXJP | 2026-09-03 11:44:20 | 44.06016 | 8.00705 | 221° | 18km/h | 30521m | 5.9m/s | -42.9°C | 0.5% | -1.0hPa | 2.7V | 00:00:00 | 00:00:00 | 00:00:00 | |
| IW2NTF | 2026-09-03 11:44:15 | 44.06047 | 8.00718 | 201° | 18km/h | 30464m | 5.8m/s | -42.9°C | 2.5% | 0hPa | 2.7V | 08:30:00 | 02:08:02 | 00:00:00 | |
| DB0UT-7 | 2026-09-03 11:44:07 | 44.06056 | 8.00723 | 197° | 15km/h | 30453m | 6.7m/s | -42.9°C | 2.4% | 0hPa | 2.7V | 00:00:00 | 00:00:00 | 00:00:00 | |
| DO3MHA-12 | 2026-09-03 11:44:05 | 44.06064 | 8.00725 | 190° | 11km/h | 30441m | 5.3m/s | -42.8°C | 2.5% | 0hPa | 2.6V | 00:00:00 | 02:07:58 | 00:00:00 | |
| IW2NTF | 2026-09-03 11:44:02 | 44.06083 | 8.00737 | 202° | 5km/h | 30407m | 6.5m/s | -42.8°C | 2.4% | 0hPa | 2.7V | 08:30:00 | 02:07:52 | 00:00:00 | |
| IW2NTF | 2026-09-03 11:43:55 | 44.06121 | 8.00733 | 181° | 22km/h | 30347m | 5.3m/s | -42.6°C | 2.4% | 0hPa | 2.6V | 08:30:00 | 02:07:42 | 00:00:00 | |
| AUTORXJP | 2026-09-03 11:43:49 | 44.06127 | 8.00733 | 188° | 16km/h | 30342m | 5.6m/s | -42.6°C | 0.5% | -1.0hPa | 2.6V | 00:00:00 | 00:00:00 | 00:00:00 | |
| DO3MHA-12 | 2026-09-03 11:43:45 | 44.06135 | 8.00740 | 252° | 13km/h | 30324m | 5.3m/s | -42.5°C | 2.4% | 0hPa | 2.6V | 00:00:00 | 02:07:38 | 00:00:00 | |
| IW2NTF | 2026-09-03 11:43:41 | 44.06131 | 8.00746 | 183° | 7km/h | 30290m | 6.8m/s | -42.7°C | 2.4% | 0hPa | 2.6V | 08:30:00 | 02:07:32 | 00:00:00 | |
| DB0UT-7 | 2026-09-03 11:43:37 | 44.06138 | 8.00749 | 196° | 18km/h | 30277m | 5.8m/s | -42.8°C | 2.4% | 0hPa | 2.7V | 00:00:00 | 02:07:30 | 00:00:00 | |
| IW2NTF | 2026-09-03 11:43:35 | 44.06168 | 8.00752 | 313° | 7km/h | 30231m | 7m/s | -42.9°C | 2.4% | 0hPa | 2.7V | 08:30:00 | 02:07:22 | 00:00:00 | |
| DO3MHA-12 | 2026-09-03 11:43:25 | 44.06163 | 8.00769 | 276° | 16km/h | 30207m | 5.8m/s | -42.9°C | 2.4% | 0hPa | 2.6V | 00:00:00 | 02:07:18 | 00:00:00 | |
| IW2NTF | 2026-09-03 11:43:21 | 44.06188 | 8.00779 | 181° | 26km/h | 30172m | 4.6m/s | -43°C | 2.4% | 0hPa | 2.6V | 08:30:00 | 02:07:12 | 00:00:00 | |
| AUTORXJP | 2026-09-03 11:43:17 | 44.06199 | 8.00779 | 167° | 13km/h | 30161m | 6.3m/s | -43.0°C | 0.5% | -1.0hPa | 2.6V | 00:00:00 | 00:00:00 | 00:00:00 | |
| IW2NTF | 2026-09-03 11:43:15 | 44.06205 | 8.00793 | 196° | 13km/h | 30116m | 6.2m/s | -43.5°C | 2.5% | 0hPa | 2.6V | 08:30:00 | 02:07:02 | 00:00:00 | |
| DO3MHA-12 | 2026-09-03 11:43:05 | 44.06225 | 8.00790 | 177° | 18km/h | 30093m | 6.3m/s | -43.6°C | 2.5% | 0hPa | 2.6V | 00:00:00 | 02:06:58 | 00:00:00 | |
| IW2NTF | 2026-09-03 11:43:01 | 44.06256 | 8.00794 | 172° | 9km/h | 30057m | 5.7m/s | -43.6°C | 2.5% | 0hPa | 2.7V | 08:30:00 | 02:06:52 | 00:00:00 | |
| DO3MHA-12 | 2026-09-03 11:42:55 | 44.06269 | 8.00792 | 170° | 20km/h | 30035m | 4.5m/s | -43.6°C | 2.5% | 0hPa | 2.6V | 00:00:00 | 02:06:48 | 00:00:00 | |
| IW2NTF | 2026-09-03 11:42:54 | 44.06298 | 8.00766 | 145° | 18km/h | 30001m | 5.7m/s | -43.5°C | 2.5% | 0hPa | 2.6V | 08:30:00 | 02:06:42 | 00:00:00 | |
| AUTORXJP | 2026-09-03 11:42:46 | 44.06309 | 8.00762 | 183° | 9km/h | 29985m | 4.7m/s | -43.4°C | 0.5% | -1.0hPa | 2.6V | 00:00:00 | 00:00:00 | 00:00:00 | |
| DO3MHA-12 | 2026-09-03 11:42:45 | 44.06311 | 8.00762 | 167° | 18km/h | 29980m | 5.1m/s | -43.4°C | 2.5% | 0hPa | 2.6V | 00:00:00 | 02:06:38 | 00:00:00 | |
| IW2NTF | 2026-09-03 11:42:41 | 44.06323 | 8.00732 | 134° | 24km/h | 29946m | 5.9m/s | -43.3°C | 2.5% | 0hPa | 2.6V | 08:30:00 | 02:06:32 | 00:00:00 | |
| DO3MHA-12 | 2026-09-03 11:42:35 | 44.06342 | 8.00712 | 138° | 16km/h | 29924m | 5.8m/s | -43.2°C | 2.5% | 0hPa | 2.6V | 00:00:00 | 02:06:28 | 00:00:00 | |
| IW2NTF | 2026-09-03 11:42:34 | 44.06359 | 8.00694 | 143° | 15km/h | 29890m | 5m/s | -43.4°C | 2.5% | 0hPa | 2.7V | 08:30:00 | 02:06:22 | 00:00:00 | |
| DO3MHA-12 | 2026-09-03 11:42:25 | 44.06367 | 8.00670 | 109° | 22km/h | 29868m | 4.2m/s | -43.2°C | 2.4% | 0hPa | 2.6V | 00:00:00 | 02:06:18 | 00:00:00 | |
| IW2NTF | 2026-09-03 11:42:22 | 44.06394 | 8.00640 | 168° | 16km/h | 29836m | 4.9m/s | -43.3°C | 2.5% | 0hPa | 2.6V | 08:30:00 | 02:06:12 | 00:00:00 | |
| AUTORXJP | 2026-09-03 11:42:15 | 44.06398 | 8.00632 | 54° | 9km/h | 29814m | 4.6m/s | -43.4°C | 0.5% | -1.0hPa | 2.7V | 00:00:00 | 00:00:00 | 00:00:00 | |
| IW2NTF | 2026-09-03 11:42:14 | 44.06403 | 8.00621 | 151° | 18km/h | 29783m | 5.5m/s | -43.4°C | 2.5% | 0hPa | 2.7V | 08:30:00 | 02:06:02 | 00:00:00 | |
| DB0UT-7 | 2026-09-03 11:42:14 | 44.06397 | 8.00629 | 52° | 13km/h | 29810m | 4.7m/s | -43.5°C | 2.4% | 0hPa | 2.6V | 00:00:00 | 00:00:00 | 00:00:00 | |
| IW2NTF | 2026-09-03 11:42:01 | 44.06423 | 8.00582 | 16° | 9km/h | 29727m | 4.8m/s | -43.3°C | 2.4% | 0hPa | 2.6V | 08:30:00 | 02:05:52 | 00:00:00 | |
| IW2NTF | 2026-09-03 11:41:53 | 44.06440 | 8.00552 | 193° | 2km/h | 29662m | 5.3m/s | -44°C | 2.5% | 0hPa | 2.6V | 08:30:00 | 02:05:40 | 00:00:00 | |
| DB0UT-7 | 2026-09-03 11:41:44 | 44.06440 | 8.00553 | 11° | 13km/h | 29646m | 5.9m/s | -44.0°C | 2.5% | 0hPa | 2.7V | 00:00:00 | 02:05:37 | 08:30:00 | |
| IW2NTF | 2026-09-03 11:41:42 | 44.06437 | 8.00536 | 58° | 9km/h | 29609m | 5.5m/s | -44.5°C | 2.5% | 0hPa | 2.7V | 08:30:00 | 02:05:30 | 00:00:00 | |
| IW2NTF | 2026-09-03 11:41:29 | 44.06429 | 8.00485 | 94° | 26km/h | 29542m | 5.7m/s | -45°C | 2.6% | 0hPa | 2.7V | 08:30:00 | 02:05:18 | 00:00:00 | |
| IW2NTF | 2026-09-03 11:41:17 | 44.06423 | 8.00443 | 169° | 4km/h | 29488m | 3.6m/s | -45.7°C | 2.6% | 0hPa | 2.7V | 08:30:00 | 02:05:08 | 00:00:00 | |
| DB0UT-7 | 2026-09-03 11:41:14 | 44.06424 | 8.00442 | 123° | 20km/h | 29485m | 3.8m/s | -45.7°C | 2.7% | 0hPa | 2.7V | 00:00:00 | 00:00:00 | 00:00:00 | |
| AUTORXJP | 2026-09-03 11:41:13 | 44.06425 | 8.00439 | 104° | 11km/h | 29480m | 5.8m/s | -45.8°C | 0.6% | -1.0hPa | 2.7V | 00:00:00 | 00:00:00 | 00:00:00 | |
| IW2NTF | 2026-09-03 11:41:11 | 44.06423 | 8.00372 | 38° | 15km/h | 29435m | 6.3m/s | -46°C | 2.7% | 0hPa | 2.7V | 08:30:00 | 02:04:58 | 00:00:00 | |
| IW2NTF | 2026-09-03 11:40:57 | 44.06401 | 8.00349 | 87° | 29km/h | 29381m | 6.1m/s | -46.2°C | 2.8% | 0hPa | 2.7V | 08:30:00 | 02:04:48 | 00:00:00 | |
| IW2NTF | 2026-09-03 11:40:50 | 44.06366 | 8.00299 | 347° | 22km/h | 29325m | 5m/s | -46.4°C | 2.8% | 0hPa | 2.6V | 08:30:00 | 02:04:38 | 00:00:00 | |
| DB0UT-7 | 2026-09-03 11:40:44 | 44.06361 | 8.00301 | 346° | 18km/h | 29321m | 5.6m/s | -46.5°C | 2.9% | 0hPa | 2.7V | 00:00:00 | 02:04:37 | 00:00:00 | |
| AUTORXJP | 2026-09-03 11:40:42 | 44.06354 | 8.00303 | 8° | 9km/h | 29309m | 4.6m/s | -46.6°C | 0.6% | -1.0hPa | 2.7V | 00:00:00 | 00:00:00 | 00:00:00 | |
| IW2NTF | 2026-09-03 11:40:37 | 44.06327 | 8.00263 | 36° | 22km/h | 29272m | 6m/s | -46.6°C | 2.9% | 0hPa | 2.7V | 08:30:00 | 02:04:28 | 00:00:00 | |
| IW2NTF | 2026-09-03 11:40:30 | 44.06287 | 8.00268 | 28° | 18km/h | 29215m | 5.8m/s | -46.3°C | 2.8% | 0hPa | 2.7V | 08:30:00 | 02:04:18 | 00:00:00 | |
| IW2NTF | 2026-09-03 11:40:16 | 44.06246 | 8.00277 | 322° | 11km/h | 29160m | 4.9m/s | -46.2°C | 2.9% | 0hPa | 2.6V | 08:30:00 | 02:04:08 | 00:00:00 | |
| DB0UT-7 | 2026-09-03 11:40:14 | 44.06243 | 8.00279 | 351° | 16km/h | 29155m | 6.2m/s | -46.2°C | 2.9% | 0hPa | 2.6V | 00:00:00 | 00:00:00 | 00:00:00 | |
| AUTORXJP | 2026-09-03 11:40:11 | 44.06226 | 8.00270 | 24° | 20km/h | 29130m | 6.3m/s | -46.3°C | 0.6% | -1.0hPa | 2.7V | 00:00:00 | 00:00:00 | 00:00:00 | |
| IW2NTF | 2026-09-03 11:40:10 | 44.06201 | 8.00270 | 343° | 26km/h | 29100m | 6m/s | -46°C | 2.7% | 0hPa | 2.7V | 08:30:00 | 02:03:58 | 00:00:00 | |
| IW2NTF | 2026-09-03 11:40:00 | 44.06161 | 8.00262 | 30° | 13km/h | 29029m | 5.4m/s | -46.4°C | 2.9% | 0hPa | 2.7V | 08:30:00 | 02:03:46 | 00:00:00 | |
| IW2NTF | 2026-09-03 11:39:47 | 44.06132 | 8.00254 | 67° | 24km/h | 28965m | 5.8m/s | -46°C | 2.8% | 0hPa | 2.7V | 08:30:00 | 02:03:35 | 00:00:00 | |
| DB0UT-7 | 2026-09-03 11:39:44 | 44.06135 | 8.00266 | 70° | 15km/h | 28979m | 6.6m/s | -46.1°C | 2.9% | 0hPa | 2.6V | 00:00:00 | 02:03:37 | 00:00:00 | |
| AUTORXJP | 2026-09-03 11:39:40 | 44.06126 | 8.00233 | 74° | 15km/h | 28949m | 5.4m/s | -45.7°C | 0.6% | -1.0hPa | 2.6V | 00:00:00 | 00:00:00 | 00:00:00 | |
| IW2NTF | 2026-09-03 11:39:33 | 44.06113 | 8.00255 | 297° | 22km/h | 28908m | 5.6m/s | -45.6°C | 2.8% | 0hPa | 2.6V | 08:30:00 | 02:03:25 | 00:00:00 | |
| IW2NTF | 2026-09-03 11:39:27 | 44.06103 | 8.00239 | 271° | 5km/h | 28849m | 5.2m/s | -46°C | 2.7% | 0hPa | 2.7V | 08:30:00 | 02:03:15 | 00:00:00 | |
| DB0UT-7 | 2026-09-03 11:39:14 | 44.06092 | 8.00272 | 109° | 18km/h | 28803m | 6.4m/s | -46.4°C | 2.9% | 0hPa | 2.7V | 00:00:00 | 00:00:00 | 00:00:00 | |
| IW2NTF | 2026-09-03 11:39:12 | 44.06095 | 8.00247 | 97° | 22km/h | 28778m | 4.6m/s | -46.5°C | 2.9% | 0hPa | 2.7V | 08:30:00 | 02:03:03 | 00:00:00 | |
| AUTORXJP | 2026-09-03 11:39:09 | 44.06096 | 8.00240 | 108° | 18km/h | 28773m | 5.7m/s | -46.5°C | 0.6% | -1.0hPa | 2.7V | 00:00:00 | 00:00:00 | 00:00:00 | |
| IW2NTF | 2026-09-03 11:39:02 | 44.06096 | 8.00250 | 298° | 2km/h | 28721m | 6.4m/s | -46.4°C | 2.8% | 0hPa | 2.7V | 08:30:00 | 02:02:53 | 00:00:00 | |
| IW2NTF | 2026-09-03 11:38:52 | 44.06098 | 8.00235 | 283° | 4km/h | 28663m | 5.7m/s | -46.5°C | 2.9% | 0hPa | 2.6V | 08:30:00 | 02:02:43 | 00:00:00 | |
| DO3MHA-12 | 2026-09-03 11:38:47 | 44.06097 | 8.00243 | 292° | 7km/h | 28645m | 6.9m/s | -46.7°C | 2.9% | 0hPa | 2.6V | 00:00:00 | 02:02:40 | 00:00:00 | |
| IW2NTF | 2026-09-03 11:38:42 | 44.06099 | 8.00247 | 110° | 9km/h | 28604m | 6.5m/s | -46.5°C | 2.9% | 0hPa | 2.6V | 08:30:00 | 02:02:33 | 00:00:00 | |
| DO3MHA-12 | 2026-09-03 11:38:36 | 44.06099 | 8.00236 | 116° | 7km/h | 28581m | 6.7m/s | -46.4°C | 2.9% | 0hPa | 2.7V | 00:00:00 | 02:02:29 | 08:30:00 | |
| IW2NTF | 2026-09-03 11:38:32 | 44.06106 | 8.00235 | 202° | 5km/h | 28545m | 5.7m/s | -46.6°C | 2.9% | 0hPa | 2.7V | 08:30:00 | 02:02:23 | 00:00:00 | |
| DO3MHA-12 | 2026-09-03 11:38:26 | 44.06114 | 8.00230 | 126° | 13km/h | 28522m | 5.1m/s | -46.7°C | 2.9% | 0hPa | 2.6V | 00:00:00 | 02:02:19 | 00:00:00 | |
| IW2NTF | 2026-09-03 11:38:22 | 44.06113 | 8.00205 | 107° | 11km/h | 28485m | 5.8m/s | -46.5°C | 2.9% | 0hPa | 2.6V | 08:30:00 | 02:02:13 | 00:00:00 | |
| DO3MHA-12 | 2026-09-03 11:38:16 | 44.06118 | 8.00191 | 123° | 20km/h | 28461m | 5.3m/s | -46.3°C | 2.9% | 0hPa | 2.7V | 00:00:00 | 02:02:09 | 00:00:00 | |
| IW2NTF | 2026-09-03 11:38:11 | 44.06135 | 8.00159 | 100° | 22km/h | 28427m | 6.4m/s | -46.3°C | 2.8% | 0hPa | 2.7V | 08:30:00 | 02:02:03 | 00:00:00 | |
| AUTORXJP | 2026-09-03 11:38:07 | 44.06128 | 8.00130 | 68° | 20km/h | 28404m | 6.4m/s | -46.3°C | 0.6% | -1.0hPa | 2.7V | 00:00:00 | 00:00:00 | 00:00:00 | |
| DO3MHA-12 | 2026-09-03 11:38:06 | 44.06128 | 8.00130 | 69° | 18km/h | 28404m | 6.3m/s | -46.2°C | 2.8% | 0hPa | 2.7V | 00:00:00 | 02:01:59 | 00:00:00 | |
| DB0UT-7 | 2026-09-03 11:38:04 | 44.06127 | 8.00117 | 103° | 24km/h | 28392m | 5.4m/s | -46.2°C | 2.9% | 0hPa | 2.6V | 00:00:00 | 02:01:57 | 00:00:00 | |
| IW2NTF | 2026-09-03 11:38:02 | 44.06134 | 8.00093 | 102° | 18km/h | 28368m | 6.3m/s | -46.2°C | 2.8% | 0hPa | 2.7V | 08:30:00 | 02:01:53 | 00:00:00 | |
| DO3MHA-12 | 2026-09-03 11:37:56 | 44.06135 | 8.00067 | 94° | 26km/h | 28345m | 5.5m/s | -46.1°C | 2.9% | 0hPa | 2.6V | 00:00:00 | 02:01:49 | 00:00:00 | |
| IW2NTF | 2026-09-03 11:37:52 | 44.06126 | 8.00010 | 68° | 29km/h | 28311m | 5.2m/s | -46.5°C | 2.9% | 0hPa | 2.6V | 08:30:00 | 02:01:43 | 00:00:00 | |
| DO3MHA-12 | 2026-09-03 11:37:46 | 44.06120 | 7.99984 | 75° | 22km/h | 28288m | 5.5m/s | -46.3°C | 2.8% | 0hPa | 2.6V | 00:00:00 | 02:01:39 | 00:00:00 | |
| IW2NTF | 2026-09-03 11:37:41 | 44.06110 | 7.99946 | 79° | 26km/h | 28252m | 5.4m/s | -46.5°C | 2.9% | 0hPa | 2.6V | 08:30:00 | 02:01:33 | 00:00:00 | |
| DO3MHA-12 | 2026-09-03 11:37:36 | 44.06099 | 7.99907 | 58° | 31km/h | 28232m | 6.7m/s | -46.5°C | 2.8% | 0hPa | 2.7V | 00:00:00 | 02:01:29 | 00:00:00 | |
| AUTORXJP | 2026-09-03 11:37:35 | 44.06094 | 7.99896 | 53° | 38km/h | 28225m | 5.7m/s | -46.6°C | 0.6% | -1.0hPa | 2.7V | 00:00:00 | 00:00:00 | 00:00:00 | |
| DB0UT-7 | 2026-09-03 11:37:34 | 44.06088 | 7.99885 | 54° | 22km/h | 28220m | 5.5m/s | -46.6°C | 2.8% | 0hPa | 2.7V | 00:00:00 | 00:00:00 | 00:00:00 | |
| IW2NTF | 2026-09-03 11:37:33 | 44.06073 | 7.99844 | 74° | 27km/h | 28197m | 5m/s | -46.8°C | 2.9% | 0hPa | 2.7V | 08:30:00 | 02:01:23 | 00:00:00 | |
| DO3MHA-12 | 2026-09-03 11:37:26 | 44.06064 | 7.99816 | 59° | 26km/h | 28173m | 5.2m/s | -47.0°C | 3.0% | 0hPa | 2.7V | 00:00:00 | 02:01:19 | 00:00:00 | |
| IW2NTF | 2026-09-03 11:37:23 | 44.06049 | 7.99772 | 56° | 27km/h | 28138m | 5.1m/s | -47.1°C | 3% | 0hPa | 2.7V | 08:30:00 | 02:01:13 | 00:00:00 | |
| DO3MHA-12 | 2026-09-03 11:37:16 | 44.06039 | 7.99736 | 88° | 15km/h | 28116m | 5.0m/s | -46.8°C | 2.9% | 0hPa | 2.7V | 00:00:00 | 02:01:09 | 00:00:00 | |
| IW2NTF | 2026-09-03 11:37:12 | 44.06043 | 7.99700 | 111° | 15km/h | 28070m | 5.7m/s | -46.8°C | 3% | 0hPa | 2.7V | 08:30:00 | 02:01:01 | 00:00:00 | |
| DO3MHA-12 | 2026-09-03 11:37:06 | 44.06045 | 7.99687 | 92° | 24km/h | 28060m | 6.6m/s | -46.9°C | 3.0% | 0hPa | 2.6V | 00:00:00 | 02:00:59 | 08:30:00 | |
| AUTORXJP | 2026-09-03 11:37:04 | 44.06043 | 7.99671 | 73° | 26km/h | 28047m | 5.1m/s | -47.0°C | 0.6% | -1.0hPa | 2.6V | 00:00:00 | 00:00:00 | 00:00:00 | |
| IW2NTF | 2026-09-03 11:37:03 | 44.06047 | 7.99628 | 136° | 15km/h | 28013m | 6.2m/s | -46.9°C | 2.9% | 0hPa | 2.6V | 08:30:00 | 02:00:51 | 00:00:00 | |
| DB0UT-7 | 2026-09-03 11:37:03 | 44.06041 | 7.99662 | 77° | 16km/h | 28043m | 4.5m/s | -47.1°C | 3.0% | 0hPa | 2.6V | 00:00:00 | 02:00:56 | 00:00:00 | |
| IW2NTF | 2026-09-03 11:36:53 | 44.06054 | 7.99585 | 62° | 29km/h | 27955m | 5.2m/s | -46.7°C | 2.9% | 0hPa | 2.6V | 08:30:00 | 02:00:41 | 00:00:00 | |
| IW2NTF | 2026-09-03 11:36:44 | 44.06055 | 7.99561 | 160° | 13km/h | 27899m | 4.3m/s | -46.9°C | 2.9% | 0hPa | 2.7V | 08:30:00 | 02:00:31 | 00:00:00 | |
| IW2NTF | 2026-09-03 11:36:33 | 44.06052 | 7.99513 | 155° | 9km/h | 27844m | 5.2m/s | -47°C | 2.9% | 0hPa | 2.6V | 08:30:00 | 02:00:21 | 00:00:00 | |
| DB0UT-7 | 2026-09-03 11:36:33 | 44.06054 | 7.99535 | 61° | 16km/h | 27872m | 5.0m/s | -46.8°C | 2.9% | 0hPa | 2.7V | 00:00:00 | 00:00:00 | 08:30:00 | |
| IW2NTF | 2026-09-03 11:36:23 | 44.06044 | 7.99478 | 55° | 29km/h | 27786m | 5.4m/s | -47.4°C | 3% | 0hPa | 2.6V | 08:30:00 | 02:00:11 | 00:00:00 | |
| IW2NTF | 2026-09-03 11:36:09 | 44.06023 | 7.99425 | 54° | 15km/h | 27729m | 6m/s | -47.4°C | 3% | 0hPa | 2.6V | 08:30:00 | 02:00:01 | 00:00:00 | |
| DB0UT-7 | 2026-09-03 11:36:03 | 44.06008 | 7.99393 | 51° | 13km/h | 27701m | 5.1m/s | -47.3°C | 3.0% | 0hPa | 2.7V | 00:00:00 | 01:59:56 | 00:00:00 | |
| AUTORXJP | 2026-09-03 11:36:02 | 44.06004 | 7.99386 | 51° | 24km/h | 27695m | 4.9m/s | -47.4°C | 0.7% | -1.0hPa | 2.7V | 00:00:00 | 00:00:00 | 00:00:00 | |
| IW2NTF | 2026-09-03 11:36:00 | 44.05994 | 7.99365 | 36° | 11km/h | 27674m | 5.5m/s | -47.4°C | 3% | 0hPa | 2.7V | 08:30:00 | 01:59:51 | 00:00:00 | |
| IW2NTF | 2026-09-03 11:35:50 | 44.05968 | 7.99344 | 54° | 20km/h | 27616m | 5.8m/s | -47.5°C | 3.1% | 0hPa | 2.7V | 08:30:00 | 01:59:41 | 00:00:00 | |
| IW2NTF | 2026-09-03 11:35:44 | 44.05945 | 7.99336 | 25° | 4km/h | 27561m | 6.2m/s | -47.5°C | 3.1% | 0hPa | 2.6V | 08:30:00 | 01:59:31 | 00:00:00 | |
| IW2NTF | 2026-09-03 11:35:33 | 44.05923 | 7.99312 | 342° | 16km/h | 27505m | 5.5m/s | -47.2°C | 3% | 0hPa | 2.6V | 08:30:00 | 01:59:21 | 00:00:00 | |
| AUTORXJP | 2026-09-03 11:35:31 | 44.05934 | 7.99311 | 23° | 15km/h | 27523m | 6.3m/s | -47.4°C | 0.7% | -1.0hPa | 2.7V | 00:00:00 | 00:00:00 | 00:00:00 | |
| IW2NTF | 2026-09-03 11:35:24 | 44.05899 | 7.99286 | 49° | 15km/h | 27448m | 5.1m/s | -46.9°C | 3% | 0hPa | 2.7V | 08:30:00 | 01:59:11 | 00:00:00 | |
| IW2NTF | 2026-09-03 11:35:13 | 44.05877 | 7.99296 | 90° | 5km/h | 27391m | 6.4m/s | -47.1°C | 3% | 0hPa | 2.7V | 08:30:00 | 01:59:01 | 00:00:00 | |
| IW2NTF | 2026-09-03 11:35:04 | 44.05873 | 7.99296 | 300° | 20km/h | 27334m | 6.6m/s | -46.6°C | 2.8% | 0hPa | 2.7V | 08:30:00 | 01:58:51 | 00:00:00 | |
| DB0UT-7 | 2026-09-03 11:35:00 | 44.05876 | 7.99285 | 285° | 11km/h | 27346m | 4.6m/s | -46.6°C | 2.9% | 0hPa | 2.6V | 00:00:00 | 01:58:53 | 00:00:00 | |
| IW2NTF | 2026-09-03 11:34:53 | 44.05866 | 7.99298 | 69° | 9km/h | 27280m | 4.6m/s | -46.6°C | 2.9% | 0hPa | 2.6V | 08:30:00 | 01:58:41 | 00:00:00 | |
| IW2NTF | 2026-09-03 11:34:43 | 44.05855 | 7.99305 | 117° | 9km/h | 27224m | 5.3m/s | -47°C | 3% | 0hPa | 2.6V | 08:30:00 | 01:58:31 | 00:00:00 | |
| IW2NTF | 2026-09-03 11:34:33 | 44.05861 | 7.99273 | 299° | 9km/h | 27169m | 4.8m/s | -46.9°C | 3% | 0hPa | 2.7V | 08:30:00 | 01:58:21 | 00:00:00 | |
| DB0UT-7 | 2026-09-03 11:34:30 | 44.05861 | 7.99269 | 270° | 11km/h | 27180m | 6.2m/s | -46.9°C | 3.0% | 0hPa | 2.6V | 00:00:00 | 00:00:00 | 00:00:00 | |
| AUTORXJP | 2026-09-03 11:34:29 | 44.05861 | 7.99270 | 281° | 5km/h | 27174m | 4.9m/s | -46.9°C | 0.7% | -1.0hPa | 2.6V | 00:00:00 | 00:00:00 | 00:00:00 | |
| IW2NTF | 2026-09-03 11:34:24 | 44.05857 | 7.99232 | 82° | 15km/h | 27115m | 5.1m/s | -46.7°C | 2.9% | 0hPa | 2.6V | 08:30:00 | 01:58:11 | 00:00:00 | |
| IW2NTF | 2026-09-03 11:34:13 | 44.05847 | 7.99236 | 67° | 11km/h | 27061m | 5.8m/s | -47.1°C | 2.9% | 0hPa | 2.7V | 08:30:00 | 01:58:01 | 00:00:00 | |
| IW2NTF | 2026-09-03 11:34:01 | 44.05843 | 7.99210 | 300° | 7km/h | 27006m | 4.9m/s | -47.3°C | 2.9% | 0hPa | 2.6V | 08:30:00 | 01:57:51 | 00:00:00 | |
| AUTORXJP | 2026-09-03 11:33:58 | 44.05843 | 7.99210 | 300° | 5km/h | 27006m | 4.9m/s | -47.3°C | 0.7% | -1.0hPa | 2.6V | 00:00:00 | 00:00:00 | 00:00:00 | |
| IW2NTF | 2026-09-03 11:33:52 | 44.05834 | 7.99206 | 84° | 2km/h | 26950m | 5.9m/s | -47.5°C | 3% | 0hPa | 2.6V | 08:30:00 | 01:57:41 | 00:00:00 | |
| IW2NTF | 2026-09-03 11:33:41 | 44.05814 | 7.99169 | 63° | 20km/h | 26894m | 4.1m/s | -47.7°C | 3.1% | 0hPa | 2.7V | 08:30:00 | 01:57:31 | 00:00:00 | |
| DO3MHA-12 | 2026-09-03 11:33:33 | 44.05810 | 7.99151 | 21° | 11km/h | 26867m | 6.6m/s | -47.6°C | 3.1% | 0hPa | 2.7V | 00:00:00 | 01:57:26 | 00:00:00 | |
| IW2NTF | 2026-09-03 11:33:31 | 44.05797 | 7.99148 | 25° | 11km/h | 26837m | 5.4m/s | -47.8°C | 3% | 0hPa | 2.7V | 08:30:00 | 01:57:21 | 00:00:00 | |
| DB0UT-7 | 2026-09-03 11:33:30 | 44.05802 | 7.99150 | 8° | 13km/h | 26850m | 6.0m/s | -47.6°C | 3.0% | 0hPa | 2.6V | 00:00:00 | 00:00:00 | 00:00:00 | |
| AUTORXJP | 2026-09-03 11:33:27 | 44.05795 | 7.99146 | 31° | 11km/h | 26832m | 5.1m/s | -47.8°C | 0.7% | -1.0hPa | 2.7V | 00:00:00 | 00:00:00 | 00:00:00 | |
| DO3MHA-12 | 2026-09-03 11:33:22 | 44.05778 | 7.99130 | 48° | 16km/h | 26803m | 6.5m/s | -47.9°C | 3.1% | 0hPa | 2.7V | 00:00:00 | 01:57:15 | 00:00:00 | |
| IW2NTF | 2026-09-03 11:33:21 | 44.05770 | 7.99127 | 345° | 13km/h | 26779m | 5.3m/s | -47.7°C | 3% | 0hPa | 2.7V | 08:30:00 | 01:57:11 | 00:00:00 | |
| IW2NTF | 2026-09-03 11:33:10 | 44.05737 | 7.99121 | 23° | 18km/h | 26724m | 5.7m/s | -47.8°C | 3% | 0hPa | 2.6V | 08:30:00 | 01:57:01 | 00:00:00 | |
| IW2NTF | 2026-09-03 11:33:00 | 44.05717 | 7.99139 | 358° | 9km/h | 26669m | 5.6m/s | -48.2°C | 3.1% | 0hPa | 2.7V | 08:30:00 | 01:56:51 | 00:00:00 | |
| AUTORXJP | 2026-09-03 11:32:56 | 44.05704 | 7.99135 | 19° | 22km/h | 26651m | 4.9m/s | -48.3°C | 0.7% | -1.0hPa | 2.6V | 00:00:00 | 00:00:00 | 00:00:00 | |
| IW2NTF | 2026-09-03 11:32:49 | 44.05688 | 7.99142 | 279° | 13km/h | 26610m | 4.8m/s | -48.2°C | 3.1% | 0hPa | 2.6V | 08:30:00 | 01:56:41 | 00:00:00 | |
| IW2NTF | 2026-09-03 11:32:42 | 44.05667 | 7.99107 | 54° | 5km/h | 26545m | 4.6m/s | -48.6°C | 3.2% | 0hPa | 2.7V | 08:30:00 | 01:56:29 | 00:00:00 | |
| DB0UT-7 | 2026-09-03 11:32:30 | 44.05659 | 7.99114 | 30° | 16km/h | 26512m | 5.5m/s | -48.8°C | 3.2% | 0hPa | 2.6V | 00:00:00 | 00:00:00 | 00:00:00 | |
| IW2NTF | 2026-09-03 11:32:29 | 44.05654 | 7.99092 | 68° | 26km/h | 26489m | 6.3m/s | -49°C | 3.2% | 0hPa | 2.6V | 08:30:00 | 01:56:19 | 00:00:00 | |
| AUTORXJP | 2026-09-03 11:32:25 | 44.05647 | 7.99074 | 59° | 29km/h | 26477m | 4.9m/s | -49.0°C | 0.8% | -1.0hPa | 2.6V | 00:00:00 | 00:00:00 | 00:00:00 | |
| IW2NTF | 2026-09-03 11:32:20 | 44.05632 | 7.99024 | 24° | 13km/h | 26435m | 4.7m/s | -49.1°C | 3.2% | 0hPa | 2.6V | 08:30:00 | 01:56:09 | 00:00:00 | |
| IW2NTF | 2026-09-03 11:32:10 | 44.05605 | 7.98993 | 48° | 13km/h | 26378m | 6.1m/s | -48.9°C | 3.3% | 0hPa | 2.6V | 08:30:00 | 01:55:59 | 00:00:00 | |
| IW2NTF | 2026-09-03 11:32:00 | 44.05575 | 7.98970 | 26° | 13km/h | 26322m | 5.9m/s | -48.8°C | 3.3% | 0hPa | 2.6V | 08:30:00 | 01:55:49 | 00:00:00 | |
| AUTORXJP | 2026-09-03 11:31:54 | 44.05568 | 7.98967 | 25° | 5km/h | 26306m | 6.4m/s | -48.9°C | 0.8% | -1.0hPa | 2.6V | 00:00:00 | 00:00:00 | 00:00:00 | |
| IW2NTF | 2026-09-03 11:31:50 | 44.05553 | 7.98964 | 6° | 18km/h | 26267m | 6.2m/s | -49.1°C | 3.3% | 0hPa | 2.6V | 08:30:00 | 01:55:39 | 00:00:00 | |
| DB0ND-19 | 2026-09-03 11:31:48 | 44.05562 | 7.98964 | 355° | 13km/h | 26278m | 5.1m/s | 0°C | -1.0% | -1.0hPa | 2.7V | 00:00:00 | 00:00:00 | 00:00:00 | |
| IW2NTF | 2026-09-03 11:31:39 | 44.05527 | 7.98962 | 75° | 2km/h | 26210m | 4.3m/s | -48.9°C | 3.3% | 0hPa | 2.7V | 08:30:00 | 01:55:29 | 00:00:00 | |
| IW2NTF | 2026-09-03 11:31:28 | 44.05498 | 7.98949 | 2° | 15km/h | 26155m | 5m/s | -48.9°C | 3.3% | 0hPa | 2.6V | 08:30:00 | 01:55:19 | 00:00:00 | |
| AUTORXJP | 2026-09-03 11:31:23 | 44.05487 | 7.98944 | 62° | 9km/h | 26133m | 5.7m/s | -48.7°C | 0.8% | -1.0hPa | 2.7V | 00:00:00 | 00:00:00 | 00:00:00 | |
| IW2NTF | 2026-09-03 11:31:21 | 44.05473 | 7.98923 | 37° | 18km/h | 26099m | 6.7m/s | -48.6°C | 3.3% | 0hPa | 2.7V | 08:30:00 | 01:55:09 | 00:00:00 | |
| DB0ND-19 | 2026-09-03 11:31:17 | 44.05476 | 7.98926 | 35° | 16km/h | 26105m | 5.4m/s | 0°C | -1.0% | -1.0hPa | 2.7V | 00:00:00 | 00:00:00 | 00:00:00 | |
| DB0UT-7 | 2026-09-03 11:31:09 | 44.05444 | 7.98904 | 41° | 26km/h | 26059m | 5.8m/s | -48.5°C | 3.2% | 0hPa | 2.7V | 00:00:00 | 00:00:00 | 00:00:00 | |
| IW2NTF | 2026-09-03 11:31:08 | 44.05438 | 7.98892 | 58° | 13km/h | 26042m | 6.2m/s | -48.5°C | 3.2% | 0hPa | 2.7V | 08:30:00 | 01:54:59 | 00:00:00 | |
| IW2NTF | 2026-09-03 11:30:58 | 44.05395 | 7.98843 | 28° | 26km/h | 25988m | 6.1m/s | -48.5°C | 3.2% | 0hPa | 2.7V | 08:30:00 | 01:54:49 | 00:00:00 | |
| AUTORXJP | 2026-09-03 11:30:52 | 44.05369 | 7.98817 | 28° | 24km/h | 25960m | 5.1m/s | -48.6°C | 0.8% | -1.0hPa | 2.7V | 00:00:00 | 00:00:00 | 00:00:00 | |
| IW2NTF | 2026-09-03 11:30:48 | 44.05336 | 7.98787 | 42° | 35km/h | 25934m | 5.4m/s | -48.8°C | 3.3% | 0hPa | 2.7V | 08:30:00 | 01:54:39 | 00:00:00 | |
| DO3MHA-12 | 2026-09-03 11:30:42 | 44.05314 | 7.98757 | 45° | 35km/h | 25912m | 4.7m/s | -48.7°C | 3.3% | 0hPa | 2.7V | 00:00:00 | 01:54:35 | 00:00:00 | |
| DB0UT-7 | 2026-09-03 11:30:39 | 44.05297 | 7.98734 | 37° | 33km/h | 25896m | 4.5m/s | -48.7°C | 3.3% | 0hPa | 2.7V | 00:00:00 | 01:54:32 | 00:00:00 | |
| IW2NTF | 2026-09-03 11:30:38 | 44.05273 | 7.98719 | 14° | 37km/h | 25879m | 4.5m/s | -48.6°C | 3.3% | 0hPa | 2.7V | 08:30:00 | 01:54:29 | 00:00:00 | |
| DO3MHA-12 | 2026-09-03 11:30:32 | 44.05234 | 7.98704 | 18° | 29km/h | 25857m | 5.6m/s | -48.5°C | 3.3% | 0hPa | 2.7V | 00:00:00 | 01:54:25 | 00:00:00 | |
| IW2NTF | 2026-09-03 11:30:28 | 44.05190 | 7.98690 | 18° | 27km/h | 25821m | 5.3m/s | -48.3°C | 3.2% | 0hPa | 2.7V | 08:30:00 | 01:54:19 | 00:00:00 | |
| DO3MHA-12 | 2026-09-03 11:30:22 | 44.05162 | 7.98683 | 2° | 31km/h | 25799m | 4.8m/s | -48.1°C | 3.3% | 0hPa | 2.7V | 00:00:00 | 01:54:15 | 00:00:00 | |
| AUTORXJP | 2026-09-03 11:30:20 | 44.05145 | 7.98682 | 8° | 33km/h | 25788m | 6.6m/s | -48.0°C | 0.7% | -1.0hPa | 2.7V | 00:00:00 | 00:00:00 | 00:00:00 | |
| IW2NTF | 2026-09-03 11:30:18 | 44.05113 | 7.98673 | 3° | 29km/h | 25767m | 5.7m/s | -47.8°C | 3.2% | 0hPa | 2.7V | 08:30:00 | 01:54:09 | 00:00:00 | |
| DO3MHA-12 | 2026-09-03 11:30:12 | 44.05082 | 7.98673 | 4° | 24km/h | 25744m | 4.9m/s | -47.7°C | 3.2% | 0hPa | 2.6V | 00:00:00 | 01:54:05 | 00:00:00 | |
| IW2NTF | 2026-09-03 11:30:11 | 44.05046 | 7.98674 | 7° | 20km/h | 25710m | 6.1m/s | -47.5°C | 3.1% | 0hPa | 2.6V | 08:30:00 | 01:53:59 | 00:00:00 | |
| DB0UT-7 | 2026-09-03 11:30:09 | 44.05062 | 7.98673 | 353° | 20km/h | 25727m | 5.9m/s | -47.6°C | 3.2% | 0hPa | 2.7V | 00:00:00 | 00:00:00 | 00:00:00 | |
| IW2NTF | 2026-09-03 11:29:57 | 44.04976 | 7.98679 | 330° | 20km/h | 25642m | 5m/s | -47.6°C | 3% | 0hPa | 2.6V | 08:30:00 | 01:53:47 | 00:00:00 | |
| AUTORXJP | 2026-09-03 11:29:50 | 44.04955 | 7.98694 | 330° | 15km/h | 25614m | 6.1m/s | -47.7°C | 0.7% | -1.0hPa | 2.7V | 00:00:00 | 00:00:00 | 00:00:00 | |
| IW2NTF | 2026-09-03 11:29:47 | 44.04935 | 7.98703 | 355° | 18km/h | 25587m | 4.9m/s | -47.8°C | 3.1% | 0hPa | 2.7V | 08:30:00 | 01:53:37 | 00:00:00 | |
| DO3MHA-12 | 2026-09-03 11:29:42 | 44.04926 | 7.98705 | 339° | 16km/h | 25578m | 5.5m/s | -47.8°C | 3.1% | 0hPa | 2.6V | 00:00:00 | 01:53:35 | 00:00:00 | |
| DB0UT-7 | 2026-09-03 11:29:39 | 44.04915 | 7.98717 | 318° | 13km/h | 25561m | 5.8m/s | -47.8°C | 3.1% | 0hPa | 2.6V | 00:00:00 | 01:53:32 | 00:00:00 | |
| IW2NTF | 2026-09-03 11:29:36 | 44.04899 | 7.98733 | 312° | 13km/h | 25534m | 5.3m/s | -47.9°C | 3.1% | 0hPa | 2.6V | 08:30:00 | 01:53:27 | 00:00:00 | |
| DO3MHA-12 | 2026-09-03 11:29:32 | 44.04895 | 7.98739 | 315° | 16km/h | 25525m | 3.7m/s | -47.8°C | 3.1% | 0hPa | 2.6V | 00:00:00 | 01:53:25 | 00:00:00 | |
| IW2NTF | 2026-09-03 11:29:26 | 44.04870 | 7.98765 | 297° | 20km/h | 25483m | 4.7m/s | -48°C | 3.1% | 0hPa | 2.6V | 08:30:00 | 01:53:17 | 00:00:00 | |
| DO3MHA-12 | 2026-09-03 11:29:22 | 44.04866 | 7.98775 | 302° | 7km/h | 25472m | 5.7m/s | -47.9°C | 3.1% | 0hPa | 2.7V | 00:00:00 | 01:53:15 | 00:00:00 | |
| AUTORXJP | 2026-09-03 11:29:18 | 44.04863 | 7.98783 | 342° | 2km/h | 25450m | 4.5m/s | -48.0°C | 0.8% | -1.0hPa | 2.6V | 00:00:00 | 00:00:00 | 00:00:00 | |
| IW2NTF | 2026-09-03 11:29:17 | 44.04853 | 7.98783 | 299° | 13km/h | 25418m | 5m/s | -48.1°C | 3.2% | 0hPa | 2.6V | 08:30:00 | 01:53:05 | 00:00:00 | |
| DO3MHA-12 | 2026-09-03 11:29:12 | 44.04853 | 7.98783 | 300° | 13km/h | 25418m | 5.0m/s | -48.1°C | 3.2% | 0hPa | 2.6V | 00:00:00 | 01:53:05 | 00:00:00 | |
| DB0UT-7 | 2026-09-03 11:29:09 | 44.04849 | 7.98796 | 305° | 7km/h | 25402m | 5.4m/s | -47.9°C | 3.1% | 0hPa | 2.6V | 00:00:00 | 00:00:00 | 00:00:00 | |
| IW2NTF | 2026-09-03 11:29:06 | 44.04841 | 7.98820 | 305° | 2km/h | 25365m | 5.9m/s | -48°C | 3.1% | 0hPa | 2.6V | 08:30:00 | 01:52:55 | 00:00:00 | |
| DO3MHA-12 | 2026-09-03 11:29:02 | 44.04841 | 7.98820 | 306° | 5km/h | 25365m | 5.9m/s | 0°C | 0% | 0hPa | 2.7V | 00:00:00 | 01:52:55 | 00:00:00 | |
| IW2NTF | 2026-09-03 11:28:57 | 44.04837 | 7.98835 | 293° | 13km/h | 25312m | 4.4m/s | -48.2°C | 3.1% | 0hPa | 2.7V | 08:30:00 | 01:52:45 | 00:00:00 | |
| AUTORXJP | 2026-09-03 11:28:47 | 44.04832 | 7.98840 | 53° | 4km/h | 25287m | 4.8m/s | -48.4°C | 0.7% | -1.0hPa | 2.7V | 00:00:00 | 00:00:00 | 00:00:00 | |
| IW2NTF | 2026-09-03 11:28:45 | 44.04836 | 7.98846 | 236° | 9km/h | 25262m | 4.9m/s | -48.2°C | 3.1% | 0hPa | 2.7V | 08:30:00 | 01:52:35 | 00:00:00 | |
| DO3MHA-12 | 2026-09-03 11:28:42 | 44.04836 | 7.98846 | 237° | 9km/h | 25263m | 4.9m/s | 0°C | 0% | 0hPa | 2.6V | 00:00:00 | 01:52:35 | 00:00:00 | |
| DB0UT-7 | 2026-09-03 11:28:39 | 44.04839 | 7.98848 | 152° | 24km/h | 25247m | 4.7m/s | -48.3°C | 3.1% | 0hPa | 2.6V | 00:00:00 | 01:52:32 | 00:00:00 | |
| IW2NTF | 2026-09-03 11:28:36 | 44.04846 | 7.98831 | 56° | 7km/h | 25210m | 5m/s | -48.8°C | 3.1% | 0hPa | 2.6V | 08:30:00 | 01:52:25 | 00:00:00 | |
| DO3MHA-12 | 2026-09-03 11:28:32 | 44.04846 | 7.98831 | 57° | 5km/h | 25210m | 4.9m/s | 0°C | 0% | 0hPa | 2.6V | 00:00:00 | 01:52:25 | 00:00:00 | |
| IW2NTF | 2026-09-03 11:28:26 | 44.04834 | 7.98834 | 86° | 5km/h | 25160m | 3.9m/s | -49.6°C | 3.2% | 0hPa | 2.6V | 08:30:00 | 01:52:15 | 00:00:00 | |
| DO3MHA-12 | 2026-09-03 11:28:22 | 44.04834 | 7.98834 | 87° | 9km/h | 25160m | 3.8m/s | 0°C | 0% | 0hPa | 2.7V | 00:00:00 | 01:52:15 | 08:30:00 | |
| IW2NTF | 2026-09-03 11:28:16 | 44.04821 | 7.98818 | 357° | 16km/h | 25109m | 6m/s | -50.6°C | 3.4% | 0hPa | 2.7V | 08:30:00 | 01:52:05 | 00:00:00 | |
| IW2NTF | 2026-09-03 11:28:05 | 44.04780 | 7.98829 | 308° | 22km/h | 25057m | 4.8m/s | -50.9°C | 3.4% | 0hPa | 2.7V | 08:30:00 | 01:51:55 | 00:00:00 | |
| IW2NTF | 2026-09-03 11:27:55 | 44.04725 | 7.98876 | 320° | 20km/h | 25010m | 4.5m/s | -51.3°C | 3.6% | 0hPa | 2.7V | 08:30:00 | 01:51:45 | 00:00:00 | |
| IW2NTF | 2026-09-03 11:27:46 | 44.04671 | 7.98968 | 308° | 31km/h | 24960m | 3.5m/s | -51.5°C | 3.6% | 0hPa | 2.6V | 08:30:00 | 01:51:35 | 00:00:00 | |
| DB0UT-7 | 2026-09-03 11:27:45 | 44.04688 | 7.98936 | 304° | 18km/h | 24975m | 5.4m/s | -51.2°C | 3.6% | 0hPa | 2.6V | 00:00:00 | 00:00:00 | 00:00:00 | |
| IW2NTF | 2026-09-03 11:27:33 | 44.04632 | 7.99036 | 294° | 35km/h | 24914m | 5.3m/s | -51.5°C | 3.6% | 0hPa | 2.6V | 08:30:00 | 01:51:25 | 00:00:00 | |
| IW2NTF | 2026-09-03 11:27:23 | 44.04607 | 7.99105 | 296° | 15km/h | 24865m | 4.2m/s | -51.6°C | 3.8% | 0hPa | 2.7V | 08:30:00 | 01:51:15 | 00:00:00 | |
| IW2NTF | 2026-09-03 11:27:14 | 44.04593 | 7.99175 | 273° | 15km/h | 24819m | 3.5m/s | -51.5°C | 3.7% | 0hPa | 2.6V | 08:30:00 | 01:51:05 | 00:00:00 | |
| IW2NTF | 2026-09-03 11:27:03 | 44.04593 | 7.99226 | 280° | 18km/h | 24769m | 5m/s | -51.4°C | 3.7% | 0hPa | 2.7V | 08:30:00 | 01:50:55 | 00:00:00 | |
| DB0UT-7 | 2026-09-03 11:27:01 | 44.04592 | 7.99232 | 280° | 9km/h | 24765m | 4.1m/s | -51.4°C | 3.7% | 0hPa | 2.7V | 00:00:00 | 01:50:54 | 00:00:00 | |
| IW2NTF | 2026-09-03 11:26:53 | 44.04594 | 7.99270 | 272° | 5km/h | 24720m | 4.7m/s | -50.9°C | 3.5% | 0hPa | 2.7V | 08:30:00 | 01:50:45 | 00:00:00 | |
| IW2NTF | 2026-09-03 11:26:43 | 44.04598 | 7.99299 | 228° | 15km/h | 24673m | 5.1m/s | -51.2°C | 3.6% | 0hPa | 2.7V | 08:30:00 | 01:50:35 | 00:00:00 | |
| AUTORXJP | 2026-09-03 11:26:43 | 44.04596 | 7.99296 | 229° | 11km/h | 24678m | 5.7m/s | -51.2°C | 0.9% | -1.0hPa | 2.7V | 00:00:00 | 00:00:00 | 00:00:00 | |
| IW2NTF | 2026-09-03 11:26:37 | 44.04606 | 7.99323 | 258° | 7km/h | 24624m | 5.9m/s | -51.2°C | 3.6% | 0hPa | 2.7V | 08:30:00 | 01:50:25 | 00:00:00 | |
| DB0UT-7 | 2026-09-03 11:26:31 | 44.04606 | 7.99325 | 253° | 7km/h | 24619m | 5.1m/s | -51.1°C | 3.7% | 0hPa | 2.7V | 00:00:00 | 00:00:00 | 08:30:00 | |
| IW2NTF | 2026-09-03 11:26:28 | 44.04618 | 7.99330 | 259° | 2km/h | 24574m | 5.7m/s | -51.3°C | 3.6% | 0hPa | 2.6V | 08:30:00 | 01:50:15 | 00:00:00 | |
| IW2NTF | 2026-09-03 11:26:18 | 44.04620 | 7.99348 | 185° | 5km/h | 24521m | 6m/s | -51.1°C | 3.5% | 0hPa | 2.7V | 08:30:00 | 01:50:05 | 00:00:00 | |
| AUTORXJP | 2026-09-03 11:26:12 | 44.04620 | 7.99348 | 185° | 5km/h | 24522m | 6.0m/s | -51.1°C | 0.9% | -1.0hPa | 2.6V | 00:00:00 | 00:00:00 | 00:00:00 | |
| IW2NTF | 2026-09-03 11:26:08 | 44.04618 | 7.99367 | 288° | 9km/h | 24471m | 5.6m/s | -51.4°C | 3.6% | 0hPa | 2.6V | 08:30:00 | 01:49:55 | 00:00:00 | |
| DB0UT-7 | 2026-09-03 11:26:01 | 44.04618 | 7.99371 | 277° | 9km/h | 24466m | 5.0m/s | -51.3°C | 3.6% | 0hPa | 2.6V | 00:00:00 | 01:49:54 | 00:00:00 | |
| IW2NTF | 2026-09-03 11:25:57 | 44.04612 | 7.99378 | 4° | 2km/h | 24417m | 5.9m/s | -52°C | 3.7% | 0hPa | 2.6V | 08:30:00 | 01:49:45 | 00:00:00 | |
| IW2NTF | 2026-09-03 11:25:41 | 44.04596 | 7.99352 | 53° | 11km/h | 24355m | 4.5m/s | -51.9°C | 3.8% | 0hPa | 2.6V | 08:30:00 | 01:49:33 | 00:00:00 | |
| AUTORXJP | 2026-09-03 11:25:41 | 44.04596 | 7.99352 | 53° | 11km/h | 24355m | 4.5m/s | -51.9°C | 1.0% | -1.0hPa | 2.6V | 00:00:00 | 00:00:00 | 00:00:00 | |
| DB0UT-7 | 2026-09-03 11:25:31 | 44.04574 | 7.99327 | 38° | 13km/h | 24308m | 5.0m/s | -51.5°C | 3.7% | 0hPa | 2.6V | 00:00:00 | 00:00:00 | 00:00:00 | |
| IW2NTF | 2026-09-03 11:25:26 | 44.04550 | 7.99301 | 5° | 11km/h | 24257m | 6.2m/s | -51.4°C | 3.6% | 0hPa | 2.6V | 08:30:00 | 01:49:14 | 00:00:00 | |
| AUTORXJP | 2026-09-03 11:25:10 | 44.04523 | 7.99296 | 8° | 15km/h | 24194m | 5.0m/s | -51.7°C | 0.9% | -1.0hPa | 2.7V | 00:00:00 | 00:00:00 | 00:00:00 | |
| DB0UT-7 | 2026-09-03 11:25:01 | 44.04498 | 7.99319 | 304° | 11km/h | 24152m | 6.3m/s | -51.6°C | 3.6% | 0hPa | 2.7V | 00:00:00 | 01:48:54 | 00:00:00 | |
| IW2NTF | 2026-09-03 11:24:43 | 44.04464 | 7.99397 | 281° | 13km/h | 24033m | 5.8m/s | -52.2°C | 3.9% | 0hPa | 2.7V | 08:30:00 | 01:48:30 | 00:00:00 | |
| AUTORXJP | 2026-09-03 11:24:39 | 44.04465 | 7.99393 | 268° | 9km/h | 24039m | 4.9m/s | -52.2°C | 1.0% | -1.0hPa | 2.7V | 00:00:00 | 00:00:00 | 00:00:00 | |
| DB0UT-7 | 2026-09-03 11:24:31 | 44.04458 | 7.99422 | 303° | 15km/h | 24003m | 5.7m/s | -52.0°C | 3.8% | 0hPa | 2.7V | 00:00:00 | 00:00:00 | 00:00:00 | |
| AUTORXJP | 2026-09-03 11:24:08 | 44.04423 | 7.99526 | 292° | 11km/h | 23880m | 4.9m/s | -51.5°C | 0.9% | -1.0hPa | 2.7V | 00:00:00 | 00:00:00 | 00:00:00 | |
| IW2NTF | 2026-09-03 11:24:03 | 44.04418 | 7.99564 | 247° | 11km/h | 23830m | 4.9m/s | -51.4°C | 3.7% | 0hPa | 2.7V | 08:30:00 | 01:47:50 | 00:00:00 | |
| DB0UT-7 | 2026-09-03 11:24:01 | 44.04412 | 7.99549 | 265° | 9km/h | 23851m | 5.1m/s | -51.4°C | 3.7% | 0hPa | 2.7V | 00:00:00 | 01:47:54 | 00:00:00 | |
| AUTORXJP | 2026-09-03 11:23:36 | 44.04424 | 7.99632 | 280° | 7km/h | 23725m | 4.2m/s | -51.5°C | 0.9% | -1.0hPa | 2.7V | 00:00:00 | 00:00:00 | 00:00:00 | |
| DB0UT-7 | 2026-09-03 11:23:28 | 44.04426 | 7.99638 | 157° | 7km/h | 23686m | 6.2m/s | -51.3°C | 3.7% | 0hPa | 2.7V | 00:00:00 | 00:00:00 | 00:00:00 | |
| AUTORXJP | 2026-09-03 11:23:05 | 44.04455 | 7.99674 | 258° | 11km/h | 23570m | 5.6m/s | -51.1°C | 0.9% | -1.0hPa | 2.7V | 00:00:00 | 00:00:00 | 00:00:00 | |
| DB0UT-7 | 2026-09-03 11:22:58 | 44.04460 | 7.99690 | 227° | 5km/h | 23535m | 4.8m/s | 0°C | 0% | 0hPa | 2.7V | 00:00:00 | 01:46:51 | 00:00:00 | |
| IW2NTF | 2026-09-03 11:22:48 | 44.04471 | 7.99723 | 289° | 7km/h | 23464m | 4.8m/s | -50.8°C | 3.6% | 0hPa | 2.7V | 08:30:00 | 01:46:36 | 00:00:00 | |
| AUTORXJP | 2026-09-03 11:22:34 | 44.04474 | 7.99731 | 89° | 2km/h | 23421m | 5.3m/s | -50.8°C | 0.9% | -1.0hPa | 2.7V | 00:00:00 | 00:00:00 | 00:00:00 | |
| DB0UT-7 | 2026-09-03 11:22:28 | 44.04475 | 7.99732 | 300° | 5km/h | 23392m | 4.8m/s | 0°C | 0% | 0hPa | 2.7V | 00:00:00 | 00:00:00 | 00:00:00 | |
| IW2NTF | 2026-09-03 11:22:27 | 44.04473 | 7.99736 | 341° | 5km/h | 23377m | 4.5m/s | -50.7°C | 3.5% | 0hPa | 2.7V | 08:30:00 | 01:46:18 | 00:00:00 | |
| IW2NTF | 2026-09-03 11:22:16 | 44.04438 | 7.99700 | 359° | 5km/h | 23308m | 5.9m/s | -51.5°C | 3.6% | 0hPa | 2.7V | 08:30:00 | 01:46:04 | 00:00:00 | |
| AUTORXJP | 2026-09-03 11:22:03 | 44.04410 | 7.99695 | 17° | 18km/h | 23267m | 3.7m/s | -51.4°C | 0.9% | -1.0hPa | 2.6V | 00:00:00 | 00:00:00 | 00:00:00 | |
| IW2NTF | 2026-09-03 11:21:42 | 44.04376 | 7.99708 | 283° | 5km/h | 23151m | 5.3m/s | -52.2°C | 3.7% | 0hPa | 2.6V | 08:30:00 | 01:45:32 | 00:00:00 | |
| AUTORXJP | 2026-09-03 11:21:32 | 44.04374 | 7.99707 | 53° | 4km/h | 23118m | 5.3m/s | -52.1°C | 0.9% | -1.0hPa | 2.6V | 00:00:00 | 00:00:00 | 00:00:00 | |
| IW2NTF | 2026-09-03 11:21:30 | 44.04367 | 7.99707 | 26° | 5km/h | 23084m | 4.7m/s | -52.4°C | 3.7% | 0hPa | 2.6V | 08:30:00 | 01:45:18 | 00:00:00 | |
| DB0UT-7 | 2026-09-03 11:21:24 | 44.04366 | 7.99705 | 42° | 7km/h | 23079m | 4.6m/s | 0°C | 0% | 0hPa | 2.6V | 00:00:00 | 01:45:17 | 00:00:00 | |
| AUTORXJP | 2026-09-03 11:21:01 | 44.04308 | 7.99661 | 5° | 16km/h | 22966m | 4.3m/s | -53.1°C | 1.0% | -1.0hPa | 2.6V | 00:00:00 | 00:00:00 | 00:00:00 | |
| IW2NTF | 2026-09-03 11:20:53 | 44.04287 | 7.99653 | 323° | 9km/h | 22908m | 5.4m/s | -53.1°C | 4% | 0hPa | 2.6V | 08:30:00 | 01:44:42 | 00:00:00 | |
| IW2NTF | 2026-09-03 11:20:36 | 44.04288 | 7.99670 | 300° | 7km/h | 22835m | 3.9m/s | -53.3°C | 3.9% | 0hPa | 2.7V | 08:30:00 | 01:44:27 | 00:00:00 | |
| AUTORXJP | 2026-09-03 11:20:30 | 44.04287 | 7.99678 | 295° | 2km/h | 22817m | 4.7m/s | -53.4°C | 1.1% | -1.0hPa | 2.6V | 00:00:00 | 00:00:00 | 00:00:00 | |
| IW2NTF | 2026-09-03 11:20:18 | 44.04287 | 7.99682 | 172° | 11km/h | 22733m | 4.8m/s | -53.5°C | 4% | 0hPa | 2.6V | 08:30:00 | 01:44:06 | 00:00:00 | |
| IW2NTF | 2026-09-03 11:19:59 | 44.04290 | 7.99705 | 233° | 11km/h | 22662m | 5.1m/s | -53.4°C | 3.9% | 0hPa | 2.7V | 08:30:00 | 01:43:52 | 00:00:00 | |
| AUTORXJP | 2026-09-03 11:19:59 | 44.04290 | 7.99705 | 233° | 9km/h | 22663m | 5.1m/s | -53.4°C | 1.0% | -1.0hPa | 2.7V | 00:00:00 | 00:00:00 | 00:00:00 | |
| IW2NTF | 2026-09-03 11:19:53 | 44.04309 | 7.99728 | 248° | 7km/h | 22604m | 5.8m/s | -53.4°C | 4% | 0hPa | 2.7V | 08:30:00 | 01:43:40 | 00:00:00 | |
| IW2NTF | 2026-09-03 11:19:41 | 44.04326 | 7.99755 | 276° | 7km/h | 22552m | 5.4m/s | -53.4°C | 4% | 0hPa | 2.7V | 08:30:00 | 01:43:30 | 00:00:00 | |
| AUTORXJP | 2026-09-03 11:19:28 | 44.04336 | 7.99782 | 216° | 15km/h | 22507m | 5.5m/s | -53.4°C | 1.1% | -1.0hPa | 2.6V | 00:00:00 | 00:00:00 | 00:00:00 | |
| IW2NTF | 2026-09-03 11:19:27 | 44.04343 | 7.99792 | 230° | 9km/h | 22491m | 5.4m/s | -53.3°C | 4% | 0hPa | 2.6V | 08:30:00 | 01:43:18 | 00:00:00 | |
| IW2NTF | 2026-09-03 11:19:09 | 44.04356 | 7.99861 | 274° | 11km/h | 22402m | 4.8m/s | -53.2°C | 3.9% | 0hPa | 2.6V | 08:30:00 | 01:43:00 | 00:00:00 | |
| AUTORXJP | 2026-09-03 11:18:57 | 44.04361 | 7.99895 | 259° | 5km/h | 22350m | 5.1m/s | -53.4°C | 1.0% | -1.0hPa | 2.7V | 00:00:00 | 00:00:00 | 00:00:00 | |
| IW2NTF | 2026-09-03 11:18:36 | 44.04400 | 7.99906 | 120° | 7km/h | 22231m | 4.2m/s | -53.5°C | 4% | 0hPa | 2.7V | 08:30:00 | 01:42:24 | 00:00:00 | |
| AUTORXJP | 2026-09-03 11:18:26 | 44.04410 | 7.99887 | 112° | 13km/h | 22203m | 3.9m/s | -53.6°C | 1.0% | -1.0hPa | 2.6V | 00:00:00 | 00:00:00 | 00:00:00 | |
| IW2NTF | 2026-09-03 11:18:20 | 44.04424 | 7.99877 | 157° | 7km/h | 22156m | 4.1m/s | -53.5°C | 3.9% | 0hPa | 2.6V | 08:30:00 | 01:42:08 | 00:00:00 | |
| IW2NTF | 2026-09-03 11:18:05 | 44.04429 | 7.99859 | 81° | 4km/h | 22090m | 5.3m/s | -54.3°C | 4% | 0hPa | 2.6V | 08:30:00 | 01:41:54 | 00:00:00 | |
| AUTORXJP | 2026-09-03 11:17:55 | 44.04435 | 7.99836 | 101° | 7km/h | 22059m | 4.7m/s | -54.6°C | 1.1% | -1.0hPa | 2.7V | 00:00:00 | 00:00:00 | 00:00:00 | |
| IW2NTF | 2026-09-03 11:17:53 | 44.04432 | 7.99827 | 29° | 4km/h | 22040m | 5.4m/s | -54.5°C | 4.2% | 0hPa | 2.7V | 08:30:00 | 01:41:43 | 00:00:00 | |
| IW2NTF | 2026-09-03 11:17:41 | 44.04424 | 7.99827 | 123° | 7km/h | 21975m | 4.5m/s | -54.6°C | 4.3% | 0hPa | 2.6V | 08:30:00 | 01:41:29 | 00:00:00 | |
| AUTORXJP | 2026-09-03 11:17:24 | 44.04429 | 7.99816 | 266° | 11km/h | 21915m | 3.9m/s | -54.3°C | 1.1% | -1.0hPa | 2.7V | 00:00:00 | 00:00:00 | 00:00:00 | |
| IW2NTF | 2026-09-03 11:17:23 | 44.04427 | 7.99826 | 313° | 7km/h | 21901m | 4m/s | -54.2°C | 4.2% | 0hPa | 2.7V | 08:30:00 | 01:41:13 | 00:00:00 | |
| IW2NTF | 2026-09-03 11:17:11 | 44.04422 | 7.99836 | 298° | 18km/h | 21845m | 4.6m/s | -53.9°C | 4% | 0hPa | 2.6V | 08:30:00 | 01:41:01 | 00:00:00 | |
| IW2NTF | 2026-09-03 11:16:53 | 44.04416 | 7.99893 | 258° | 7km/h | 21751m | 5.5m/s | -54.4°C | 4.1% | 0hPa | 2.7V | 08:30:00 | 01:40:41 | 00:00:00 | |
| AUTORXJP | 2026-09-03 11:16:52 | 44.04415 | 7.99887 | 307° | 4km/h | 21770m | 5.1m/s | -53.9°C | 1.1% | -1.0hPa | 2.6V | 00:00:00 | 00:00:00 | 00:00:00 | |
| IW2NTF | 2026-09-03 11:16:39 | 44.04410 | 7.99903 | 47° | 9km/h | 21703m | 4.9m/s | -54.4°C | 4.2% | 0hPa | 2.6V | 08:30:00 | 01:40:31 | 00:00:00 | |
| IW2NTF | 2026-09-03 11:16:27 | 44.04382 | 7.99878 | 26° | 13km/h | 21645m | 4.8m/s | -54.4°C | 4.3% | 0hPa | 2.6V | 08:30:00 | 01:40:19 | 00:00:00 | |
| IW2NTF | 2026-09-03 11:16:22 | 44.04366 | 7.99877 | 339° | 9km/h | 21593m | 5m/s | -53.9°C | 4.2% | 0hPa | 2.6V | 08:30:00 | 01:40:09 | 00:00:00 | |
| AUTORXJP | 2026-09-03 11:16:21 | 44.04372 | 7.99872 | 331° | 5km/h | 21618m | 4.5m/s | -54.1°C | 1.1% | -1.0hPa | 2.7V | 00:00:00 | 00:00:00 | 00:00:00 | |
| IW2NTF | 2026-09-03 11:16:09 | 44.04340 | 7.99881 | 336° | 5km/h | 21544m | 4.3m/s | -53.8°C | 3.9% | 0hPa | 2.7V | 08:30:00 | 01:39:59 | 00:00:00 | |
| AUTORXJP | 2026-09-03 11:15:50 | 44.04336 | 7.99893 | 245° | 7km/h | 21466m | 4.4m/s | -54.3°C | 1.1% | -1.0hPa | 2.6V | 00:00:00 | 00:00:00 | 00:00:00 | |
| IW2NTF | 2026-09-03 11:15:21 | 44.04392 | 7.99845 | 117° | 13km/h | 21321m | 4.7m/s | -54.6°C | 4.2% | 0hPa | 2.6V | 08:30:00 | 01:39:13 | 00:00:00 | |
| AUTORXJP | 2026-09-03 11:15:19 | 44.04394 | 7.99841 | 109° | 11km/h | 21317m | 4.0m/s | -54.7°C | 1.2% | -1.0hPa | 2.6V | 00:00:00 | 00:00:00 | 00:00:00 | |
| IW2NTF | 2026-09-03 11:15:10 | 44.04391 | 7.99790 | 96° | 18km/h | 21264m | 4m/s | -54.6°C | 4.1% | 0hPa | 2.6V | 08:30:00 | 01:39:01 | 00:00:00 | |
| IW2NTF | 2026-09-03 11:15:03 | 44.04388 | 7.99743 | 84° | 7km/h | 21216m | 4.6m/s | -54.8°C | 4.1% | 0hPa | 2.6V | 08:30:00 | 01:38:51 | 00:00:00 | |
| IW2NTF | 2026-09-03 11:14:51 | 44.04402 | 7.99705 | 100° | 13km/h | 21169m | 5m/s | -55.1°C | 4.2% | 0hPa | 2.7V | 08:30:00 | 01:38:41 | 00:00:00 | |
| AUTORXJP | 2026-09-03 11:14:48 | 44.04402 | 7.99705 | 100° | 11km/h | 21169m | 5.1m/s | -55.1°C | 1.2% | -1.0hPa | 2.6V | 00:00:00 | 00:00:00 | 00:00:00 | |
| IW2NTF | 2026-09-03 11:14:39 | 44.04403 | 7.99689 | 188° | 4km/h | 21123m | 5.1m/s | -55.4°C | 4.3% | 0hPa | 2.6V | 08:30:00 | 01:38:31 | 00:00:00 | |
| IW2NTF | 2026-09-03 11:14:33 | 44.04418 | 7.99645 | 112° | 15km/h | 21077m | 5.3m/s | -55.8°C | 4.5% | 0hPa | 2.6V | 08:30:00 | 01:38:21 | 00:00:00 | |
| IW2NTF | 2026-09-03 11:14:21 | 44.04438 | 7.99615 | 115° | 13km/h | 21030m | 5.5m/s | -55.6°C | 4.4% | 0hPa | 2.7V | 08:30:00 | 01:38:11 | 00:00:00 | |
| AUTORXJP | 2026-09-03 11:14:17 | 44.04440 | 7.99611 | 108° | 11km/h | 21025m | 4.4m/s | -55.6°C | 1.2% | -1.0hPa | 2.6V | 00:00:00 | 00:00:00 | 00:00:00 | |
| IW2NTF | 2026-09-03 11:14:10 | 44.04442 | 7.99605 | 220° | 4km/h | 20983m | 3.4m/s | -55.8°C | 4.5% | 0hPa | 2.6V | 08:30:00 | 01:38:01 | 00:00:00 | |
| IW2NTF | 2026-09-03 11:14:03 | 44.04445 | 7.99578 | 69° | 7km/h | 20939m | 5.1m/s | -56.3°C | 4.7% | 0hPa | 2.6V | 08:30:00 | 01:37:51 | 00:00:00 | |
| IW2NTF | 2026-09-03 11:13:51 | 44.04443 | 7.99589 | 175° | 5km/h | 20894m | 3.7m/s | -55.9°C | 4.5% | 0hPa | 2.7V | 08:30:00 | 01:37:41 | 00:00:00 | |
| AUTORXJP | 2026-09-03 11:13:46 | 44.04444 | 7.99589 | 152° | 0km/h | 20886m | 5.3m/s | -55.9°C | 1.2% | -1.0hPa | 2.7V | 00:00:00 | 00:00:00 | 00:00:00 | |
| IW2NTF | 2026-09-03 11:13:39 | 44.04439 | 7.99610 | 28° | 0km/h | 20846m | 4.5m/s | -55.5°C | 4.4% | 0hPa | 2.7V | 08:30:00 | 01:37:30 | 00:00:00 | |
| IW2NTF | 2026-09-03 11:13:27 | 44.04444 | 7.99627 | 287° | 9km/h | 20795m | 5.5m/s | -55.6°C | 4.4% | 0hPa | 2.6V | 08:30:00 | 01:37:19 | 00:00:00 | |
| IW2NTF | 2026-09-03 11:13:19 | 44.04453 | 7.99615 | 200° | 7km/h | 20746m | 4.1m/s | -55.4°C | 4.3% | 0hPa | 2.6V | 08:30:00 | 01:37:09 | 00:00:00 | |
| AUTORXJP | 2026-09-03 11:13:15 | 44.04454 | 7.99617 | 226° | 5km/h | 20742m | 3.4m/s | -55.5°C | 1.2% | -1.0hPa | 2.7V | 00:00:00 | 00:00:00 | 00:00:00 | |
| IW2NTF | 2026-09-03 11:13:07 | 44.04467 | 7.99616 | 166° | 13km/h | 20697m | 5m/s | -56.1°C | 4.3% | 0hPa | 2.7V | 08:30:00 | 01:36:58 | 00:00:00 | |
| IW2NTF | 2026-09-03 11:13:00 | 44.04508 | 7.99612 | 177° | 15km/h | 20651m | 4.6m/s | -56.4°C | 4.4% | 0hPa | 2.7V | 08:30:00 | 01:36:48 | 00:00:00 | |
| IW2NTF | 2026-09-03 11:12:49 | 44.04538 | 7.99597 | 154° | 13km/h | 20605m | 4.7m/s | -56.9°C | 4.6% | 0hPa | 2.6V | 08:30:00 | 01:36:38 | 00:00:00 | |
| AUTORXJP | 2026-09-03 11:12:44 | 44.04541 | 7.99595 | 153° | 11km/h | 20601m | 3.8m/s | -56.9°C | 1.3% | -1.0hPa | 2.7V | 00:00:00 | 00:00:00 | 00:00:00 | |
| IW2NTF | 2026-09-03 11:12:37 | 44.04556 | 7.99574 | 143° | 5km/h | 20561m | 4.3m/s | -57.2°C | 4.6% | 0hPa | 2.7V | 08:30:00 | 01:36:28 | 00:00:00 | |
| IW2NTF | 2026-09-03 11:12:30 | 44.04574 | 7.99583 | 145° | 5km/h | 20517m | 5.3m/s | -57.2°C | 4.7% | 0hPa | 2.7V | 08:30:00 | 01:36:18 | 00:00:00 | |
| IW2NTF | 2026-09-03 11:12:20 | 44.04596 | 7.99555 | 131° | 4km/h | 20458m | 4.8m/s | -57.3°C | 4.8% | 0hPa | 2.7V | 08:30:00 | 01:36:05 | 00:00:00 | |
| AUTORXJP | 2026-09-03 11:12:16 | 44.04595 | 7.99556 | 167° | 4km/h | 20463m | 5.4m/s | -57.3°C | 1.3% | -1.0hPa | 2.6V | 00:00:00 | 00:00:00 | 00:00:00 | |
| IW2NTF | 2026-09-03 11:12:05 | 44.04601 | 7.99544 | 114° | 4km/h | 20423m | 4.4m/s | -57.1°C | 4.8% | 0hPa | 2.6V | 08:30:00 | 01:35:57 | 00:00:00 | |
| IW2NTF | 2026-09-03 11:11:59 | 44.04611 | 7.99540 | 296° | 0km/h | 20375m | 4.9m/s | -56.7°C | 4.7% | 0hPa | 2.7V | 08:30:00 | 01:35:47 | 00:00:00 | |
| IW2NTF | 2026-09-03 11:11:47 | 44.04615 | 7.99553 | 218° | 9km/h | 20330m | 4.2m/s | -56.3°C | 4.6% | 0hPa | 2.6V | 08:30:00 | 01:35:37 | 00:00:00 | |
| AUTORXJP | 2026-09-03 11:11:42 | 44.04618 | 7.99559 | 248° | 4km/h | 20316m | 4.1m/s | -56.3°C | 1.3% | -1.0hPa | 2.7V | 00:00:00 | 00:00:00 | 00:00:00 | |
| IW2NTF | 2026-09-03 11:11:35 | 44.04630 | 7.99585 | 229° | 11km/h | 20261m | 5.6m/s | -56.4°C | 4.6% | 0hPa | 2.7V | 08:30:00 | 01:35:22 | 00:00:00 | |
| IW2NTF | 2026-09-03 11:11:20 | 44.04658 | 7.99589 | 194° | 15km/h | 20195m | 3.4m/s | -56.5°C | 4.5% | 0hPa | 2.6V | 08:30:00 | 01:35:08 | 00:00:00 | |
| AUTORXJP | 2026-09-03 11:11:11 | 44.04679 | 7.99578 | 140° | 20km/h | 20173m | 5.2m/s | -56.5°C | 1.3% | -1.0hPa | 2.6V | 00:00:00 | 00:00:00 | 00:00:00 | |
| IW2NTF | 2026-09-03 11:11:08 | 44.04709 | 7.99559 | 181° | 16km/h | 20141m | 4.8m/s | -56.6°C | 4.5% | 0hPa | 2.6V | 08:30:00 | 01:34:56 | 00:00:00 | |
| IW2NTF | 2026-09-03 11:10:58 | 44.04747 | 7.99524 | 137° | 15km/h | 20083m | 3.9m/s | -57°C | 4.7% | 0hPa | 2.6V | 08:30:00 | 01:34:44 | 00:00:00 | |
| IW2NTF | 2026-09-03 11:10:45 | 44.04791 | 7.99490 | 122° | 26km/h | 20038m | 4.2m/s | -57.1°C | 4.7% | 0hPa | 2.7V | 08:30:00 | 01:34:34 | 00:00:00 | |
| AUTORXJP | 2026-09-03 11:10:40 | 44.04797 | 7.99474 | 114° | 22km/h | 20029m | 5.3m/s | -57.2°C | 1.4% | -1.0hPa | 2.7V | 00:00:00 | 00:00:00 | 00:00:00 | |
| IW2NTF | 2026-09-03 11:10:33 | 44.04817 | 7.99428 | 124° | 16km/h | 19990m | 4.2m/s | -57.2°C | 4.7% | 0hPa | 2.7V | 08:30:00 | 01:34:24 | 00:00:00 | |
| IW2NTF | 2026-09-03 11:10:26 | 44.04839 | 7.99375 | 108° | 18km/h | 19943m | 5.2m/s | -57.5°C | 4.8% | 0hPa | 2.6V | 08:30:00 | 01:34:14 | 00:00:00 | |
| IW2NTF | 2026-09-03 11:10:13 | 44.04855 | 7.99329 | 119° | 11km/h | 19896m | 5.2m/s | -57.5°C | 4.8% | 0hPa | 2.7V | 08:30:00 | 01:34:04 | 00:00:00 | |
| AUTORXJP | 2026-09-03 11:10:09 | 44.04857 | 7.99317 | 90° | 13km/h | 19883m | 5.4m/s | -57.7°C | 1.4% | -1.0hPa | 2.7V | 00:00:00 | 00:00:00 | 00:00:00 | |
| IW2NTF | 2026-09-03 11:10:06 | 44.04855 | 7.99279 | 67° | 11km/h | 19850m | 5.3m/s | -57.5°C | 4.9% | 0hPa | 2.7V | 08:30:00 | 01:33:54 | 00:00:00 | |
| IW2NTF | 2026-09-03 11:09:55 | 44.04847 | 7.99239 | 89° | 13km/h | 19805m | 5.1m/s | -57.2°C | 4.9% | 0hPa | 2.6V | 08:30:00 | 01:33:44 | 00:00:00 | |
| IW2NTF | 2026-09-03 11:09:43 | 44.04845 | 7.99184 | 122° | 7km/h | 19736m | 6.1m/s | -57.3°C | 4.9% | 0hPa | 2.7V | 08:30:00 | 01:33:30 | 00:00:00 | |
| AUTORXJP | 2026-09-03 11:09:37 | 44.04845 | 7.99184 | 122° | 5km/h | 19736m | 6.1m/s | -57.3°C | 1.4% | -1.0hPa | 2.6V | 00:00:00 | 00:00:00 | 00:00:00 | |
| IW2NTF | 2026-09-03 11:09:31 | 44.04870 | 7.99189 | 163° | 9km/h | 19688m | 4.5m/s | -56.7°C | 4.8% | 0hPa | 2.6V | 08:30:00 | 01:33:20 | 00:00:00 | |
| IW2NTF | 2026-09-03 11:09:19 | 44.04890 | 7.99196 | 223° | 18km/h | 19640m | 5.4m/s | -56.5°C | 4.7% | 0hPa | 2.7V | 08:30:00 | 01:33:10 | 00:00:00 | |
| IW2NTF | 2026-09-03 11:09:12 | 44.04918 | 7.99208 | 164° | 11km/h | 19593m | 3.7m/s | -56.2°C | 4.4% | 0hPa | 2.7V | 08:30:00 | 01:33:00 | 00:00:00 | |
| AUTORXJP | 2026-09-03 11:09:06 | 44.04920 | 7.99208 | 180° | 11km/h | 19589m | 5.8m/s | -56.2°C | 1.2% | -1.0hPa | 2.6V | 00:00:00 | 00:00:00 | 00:00:00 | |
| IW2NTF | 2026-09-03 11:09:01 | 44.04961 | 7.99242 | 190° | 20km/h | 19545m | 4.8m/s | -56.4°C | 4.6% | 0hPa | 2.6V | 08:30:00 | 01:32:50 | 00:00:00 | |
| IW2NTF | 2026-09-03 11:08:49 | 44.05015 | 7.99248 | 204° | 29km/h | 19498m | 4.7m/s | -56.6°C | 4.7% | 0hPa | 2.7V | 08:30:00 | 01:32:40 | 00:00:00 | |
| IW2NTF | 2026-09-03 11:08:37 | 44.05080 | 7.99284 | 192° | 20km/h | 19451m | 5.2m/s | -56.6°C | 4.6% | 0hPa | 2.7V | 08:30:00 | 01:32:30 | 00:00:00 | |
| IW2NTF | 2026-09-03 11:08:31 | 44.05137 | 7.99307 | 193° | 27km/h | 19405m | 5.2m/s | -56.6°C | 4.6% | 0hPa | 2.6V | 08:30:00 | 01:32:20 | 00:00:00 | |
| IW2NTF | 2026-09-03 11:08:19 | 44.05200 | 7.99319 | 176° | 24km/h | 19357m | 4.2m/s | -56.7°C | 4.6% | 0hPa | 2.7V | 08:30:00 | 01:32:10 | 00:00:00 | |
| IW2NTF | 2026-09-03 11:08:12 | 44.05264 | 7.99307 | 172° | 27km/h | 19311m | 4.2m/s | -56.5°C | 4.6% | 0hPa | 2.7V | 08:30:00 | 01:32:00 | 00:00:00 | |
| AUTORXJP | 2026-09-03 11:08:04 | 44.05283 | 7.99302 | 163° | 24km/h | 19296m | 4.8m/s | -56.4°C | 1.3% | -1.0hPa | 2.6V | 00:00:00 | 00:00:00 | 00:00:00 | |
| IW2NTF | 2026-09-03 11:08:01 | 44.05321 | 7.99294 | 196° | 18km/h | 19264m | 4.4m/s | -56.1°C | 4.6% | 0hPa | 2.6V | 08:30:00 | 01:31:50 | 00:00:00 | |
| IW2NTF | 2026-09-03 11:07:49 | 44.05378 | 7.99296 | 179° | 24km/h | 19215m | 5.3m/s | -56°C | 4.6% | 0hPa | 2.7V | 08:30:00 | 01:31:40 | 00:00:00 | |
| IW2NTF | 2026-09-03 11:07:42 | 44.05423 | 7.99329 | 211° | 26km/h | 19167m | 5.3m/s | -55.6°C | 4.5% | 0hPa | 2.7V | 08:30:00 | 01:31:30 | 00:00:00 | |
| AUTORXJP | 2026-09-03 11:07:33 | 44.05448 | 7.99345 | 200° | 26km/h | 19148m | 4.5m/s | -55.5°C | 1.3% | -1.0hPa | 2.6V | 00:00:00 | 00:00:00 | 00:00:00 | |
| IW2NTF | 2026-09-03 11:07:32 | 44.05480 | 7.99365 | 222° | 18km/h | 19119m | 4.1m/s | -55.5°C | 4.4% | 0hPa | 2.6V | 08:30:00 | 01:31:20 | 00:00:00 | |
| IW2NTF | 2026-09-03 11:07:20 | 44.05530 | 7.99428 | 211° | 29km/h | 19074m | 5m/s | -55.4°C | 4.4% | 0hPa | 2.7V | 08:30:00 | 01:31:10 | 00:00:00 | |
| IW2NTF | 2026-09-03 11:07:08 | 44.05592 | 7.99467 | 207° | 29km/h | 19031m | 3.4m/s | -55.4°C | 4.4% | 0hPa | 2.7V | 08:30:00 | 01:31:00 | 00:00:00 | |
| IW2NTF | 2026-09-03 11:07:02 | 44.05669 | 7.99502 | 197° | 37km/h | 18985m | 5m/s | -55.6°C | 4.4% | 0hPa | 2.6V | 08:30:00 | 01:30:50 | 00:00:00 | |
| AUTORXJP | 2026-09-03 11:07:02 | 44.05627 | 7.99485 | 198° | 29km/h | 19008m | 4.3m/s | -55.3°C | 1.3% | -1.0hPa | 2.7V | 00:00:00 | 00:00:00 | 00:00:00 | |
| IW2NTF | 2026-09-03 11:06:50 | 44.05752 | 7.99536 | 185° | 31km/h | 18939m | 4.5m/s | -55.9°C | 4.4% | 0hPa | 2.7V | 08:30:00 | 01:30:40 | 00:00:00 | |
| IW2NTF | 2026-09-03 11:06:38 | 44.05840 | 7.99548 | 185° | 37km/h | 18894m | 4.1m/s | -57°C | 4.5% | 0hPa | 2.7V | 08:30:00 | 01:30:30 | 00:00:00 | |
| IW2NTF | 2026-09-03 11:06:32 | 44.05940 | 7.99532 | 170° | 49km/h | 18848m | 4.7m/s | -57.1°C | 4.5% | 0hPa | 2.6V | 08:30:00 | 01:30:20 | 00:00:00 | |
| AUTORXJP | 2026-09-03 11:06:31 | 44.05895 | 7.99543 | 172° | 40km/h | 18866m | 3.6m/s | -56.9°C | 1.4% | -1.0hPa | 2.7V | 00:00:00 | 00:00:00 | 00:00:00 | |
| IW2NTF | 2026-09-03 11:06:20 | 44.06047 | 7.99507 | 161° | 42km/h | 18800m | 4.2m/s | -58.2°C | 4.8% | 0hPa | 2.7V | 08:30:00 | 01:30:10 | 00:00:00 | |
| IW2NTF | 2026-09-03 11:06:08 | 44.06153 | 7.99460 | 157° | 42km/h | 18756m | 4.9m/s | -59.5°C | 5.3% | 0hPa | 2.7V | 08:30:00 | 01:30:00 | 00:00:00 | |
| IW2NTF | 2026-09-03 11:06:02 | 44.06254 | 7.99371 | 145° | 44km/h | 18712m | 3.9m/s | -59.5°C | 5.5% | 0hPa | 2.6V | 08:30:00 | 01:29:50 | 00:00:00 | |
| AUTORXJP | 2026-09-03 11:06:00 | 44.06223 | 7.99401 | 143° | 51km/h | 18725m | 4.4m/s | -59.5°C | 1.7% | -1.0hPa | 2.7V | 00:00:00 | 00:00:00 | 00:00:00 | |
| IW2NTF | 2026-09-03 11:05:50 | 44.06332 | 7.99287 | 143° | 40km/h | 18667m | 5.2m/s | -59.4°C | 5.2% | 0hPa | 2.7V | 08:30:00 | 01:29:40 | 00:00:00 | |
| IW2NTF | 2026-09-03 11:05:38 | 44.06413 | 7.99207 | 145° | 33km/h | 18623m | 3.7m/s | -59.5°C | 5.4% | 0hPa | 2.7V | 08:30:00 | 01:29:30 | 00:00:00 | |
| IW2NTF | 2026-09-03 11:05:32 | 44.06495 | 7.99141 | 148° | 38km/h | 18578m | 5.1m/s | -59.5°C | 5.3% | 0hPa | 2.6V | 08:30:00 | 01:29:20 | 00:00:00 | |
| AUTORXJP | 2026-09-03 11:05:29 | 44.06478 | 7.99154 | 152° | 38km/h | 18587m | 4.1m/s | -59.5°C | 1.6% | -1.0hPa | 2.6V | 00:00:00 | 00:00:00 | 00:00:00 | |
| IW2NTF | 2026-09-03 11:05:20 | 44.06602 | 7.99075 | 157° | 44km/h | 18523m | 4.3m/s | -59.6°C | 5.3% | 0hPa | 2.6V | 08:30:00 | 01:29:08 | 00:00:00 | |
| IW2NTF | 2026-09-03 11:05:08 | 44.06696 | 7.99021 | 153° | 49km/h | 18478m | 5.6m/s | -60.2°C | 5.6% | 0hPa | 2.7V | 08:30:00 | 01:28:58 | 00:00:00 | |
| AUTORXJP | 2026-09-03 11:04:58 | 44.06787 | 7.98963 | 151° | 40km/h | 18440m | 4.9m/s | -60.4°C | 1.8% | -1.0hPa | 2.7V | 00:00:00 | 00:00:00 | 00:00:00 | |
| IW2NTF | 2026-09-03 11:04:56 | 44.06805 | 7.98949 | 148° | 40km/h | 18430m | 5.4m/s | -60.5°C | 5.8% | 0hPa | 2.7V | 08:30:00 | 01:28:48 | 00:00:00 | |
| IW2NTF | 2026-09-03 11:04:50 | 44.06902 | 7.98855 | 150° | 40km/h | 18383m | 4.8m/s | -60°C | 5.6% | 0hPa | 2.6V | 08:30:00 | 01:28:38 | 00:00:00 | |
| IW2NTF | 2026-09-03 11:04:38 | 44.06971 | 7.98769 | 138° | 40km/h | 18333m | 4.1m/s | -59.7°C | 5.4% | 0hPa | 2.7V | 08:30:00 | 01:28:28 | 00:00:00 | |
| IW2NTF | 2026-09-03 11:04:26 | 44.07036 | 7.98679 | 128° | 35km/h | 18289m | 4.4m/s | -59.7°C | 5.5% | 0hPa | 2.7V | 08:30:00 | 01:28:18 | 00:00:00 | |
| IW2NTF | 2026-09-03 11:04:20 | 44.07090 | 7.98582 | 121° | 35km/h | 18244m | 4.9m/s | -60°C | 5.7% | 0hPa | 2.6V | 08:30:00 | 01:28:08 | 00:00:00 | |
| IW2NTF | 2026-09-03 11:04:08 | 44.07112 | 7.98482 | 103° | 29km/h | 18198m | 4.9m/s | -59.9°C | 5.6% | 0hPa | 2.7V | 08:30:00 | 01:27:58 | 00:00:00 | |
| IW2NTF | 2026-09-03 11:03:56 | 44.07131 | 7.98384 | 109° | 26km/h | 18154m | 4m/s | -59.6°C | 5.6% | 0hPa | 2.7V | 08:30:00 | 01:27:48 | 00:00:00 | |
| AUTORXJP | 2026-09-03 11:03:56 | 44.07131 | 7.98384 | 109° | 26km/h | 18154m | 4.0m/s | -59.6°C | 1.8% | -1.0hPa | 2.6V | 00:00:00 | 00:00:00 | 00:00:00 | |
| IW2NTF | 2026-09-03 11:03:50 | 44.07153 | 7.98305 | 111° | 22km/h | 18110m | 4m/s | -59.5°C | 5.5% | 0hPa | 2.6V | 08:30:00 | 01:27:38 | 00:00:00 | |
| IW2NTF | 2026-09-03 11:03:38 | 44.07185 | 7.98238 | 123° | 24km/h | 18064m | 4.5m/s | -59.5°C | 5.3% | 0hPa | 2.7V | 08:30:00 | 01:27:28 | 00:00:00 | |
| IW2NTF | 2026-09-03 11:03:26 | 44.07219 | 7.98179 | 148° | 26km/h | 18019m | 5.4m/s | -60°C | 5.5% | 0hPa | 2.7V | 08:30:00 | 01:27:18 | 00:00:00 | |
| AUTORXJP | 2026-09-03 11:03:25 | 44.07225 | 7.98174 | 150° | 27km/h | 18015m | 4.3m/s | -60.2°C | 1.8% | -1.0hPa | 2.6V | 00:00:00 | 00:00:00 | 00:00:00 | |
| IW2NTF | 2026-09-03 11:03:20 | 44.07272 | 7.98115 | 137° | 27km/h | 17973m | 3.9m/s | -60.9°C | 5.9% | 0hPa | 2.6V | 08:30:00 | 01:27:08 | 00:00:00 | |
| IW2NTF | 2026-09-03 11:03:09 | 44.07335 | 7.98040 | 125° | 33km/h | 17926m | 4.8m/s | -60.7°C | 6% | 0hPa | 2.7V | 08:30:00 | 01:26:58 | 00:00:00 | |
| IW2NTF | 2026-09-03 11:02:56 | 44.07373 | 7.97950 | 131° | 29km/h | 17880m | 3.8m/s | -60.5°C | 5.8% | 0hPa | 2.7V | 08:30:00 | 01:26:48 | 00:00:00 | |
| AUTORXJP | 2026-09-03 11:02:53 | 44.07382 | 7.97935 | 131° | 26km/h | 17870m | 5.1m/s | -60.5°C | 1.9% | -1.0hPa | 2.6V | 00:00:00 | 00:00:00 | 00:00:00 | |
| IW2NTF | 2026-09-03 11:02:50 | 44.07413 | 7.97875 | 117° | 26km/h | 17834m | 4.6m/s | -60.3°C | 5.8% | 0hPa | 2.6V | 08:30:00 | 01:26:38 | 00:00:00 | |
| IW2NTF | 2026-09-03 11:02:37 | 44.07454 | 7.97805 | 140° | 22km/h | 17787m | 4.7m/s | -59.9°C | 5.7% | 0hPa | 2.7V | 08:30:00 | 01:26:28 | 00:00:00 | |
| IW2NTF | 2026-09-03 11:02:32 | 44.07501 | 7.97758 | 149° | 29km/h | 17739m | 4.4m/s | -59.8°C | 5.7% | 0hPa | 2.7V | 08:30:00 | 01:26:18 | 00:00:00 | |
| AUTORXJP | 2026-09-03 11:02:30 | 44.07519 | 7.97745 | 152° | 24km/h | 17724m | 3.9m/s | -59.8°C | 1.9% | -1.0hPa | 2.6V | 00:00:00 | 00:00:00 | 00:00:00 | |
| IW2NTF | 2026-09-03 11:02:22 | 44.07554 | 7.97713 | 144° | 26km/h | 17688m | 3.9m/s | -59.8°C | 5.7% | 0hPa | 2.6V | 08:30:00 | 01:26:08 | 00:00:00 | |
| AUTORXJP | 2026-09-03 11:01:51 | 44.07715 | 7.97636 | 166° | 31km/h | 17575m | 3.2m/s | -58.9°C | 1.8% | -1.0hPa | 2.6V | 00:00:00 | 00:00:00 | 00:00:00 | |
| IW2NTF | 2026-09-03 11:01:25 | 44.07959 | 7.97556 | 163° | 35km/h | 17434m | 4.4m/s | -58°C | 5.1% | 0hPa | 2.6V | 08:30:00 | 01:25:13 | 00:00:00 | |
| AUTORXJP | 2026-09-03 11:01:20 | 44.07959 | 7.97556 | 163° | 33km/h | 17434m | 4.4m/s | -58.0°C | 1.7% | -1.0hPa | 2.6V | 00:00:00 | 00:00:00 | 00:00:00 | |
| IW2NTF | 2026-09-03 11:01:15 | 44.08035 | 7.97515 | 155° | 31km/h | 17392m | 3.1m/s | -57.6°C | 5.1% | 0hPa | 2.6V | 08:30:00 | 01:25:03 | 00:00:00 | |
| IW2NTF | 2026-09-03 11:00:58 | 44.08173 | 7.97421 | 153° | 38km/h | 17318m | 4.7m/s | -57.9°C | 5.1% | 0hPa | 2.7V | 08:30:00 | 01:24:46 | 00:00:00 | |
| AUTORXJP | 2026-09-03 11:00:49 | 44.08208 | 7.97400 | 153° | 37km/h | 17301m | 4.1m/s | -57.8°C | 1.8% | -1.0hPa | 2.7V | 00:00:00 | 00:00:00 | 00:00:00 | |
| IW2NTF | 2026-09-03 11:00:48 | 44.08263 | 7.97361 | 148° | 40km/h | 17277m | 3.5m/s | -57.7°C | 5.1% | 0hPa | 2.7V | 08:30:00 | 01:24:36 | 00:00:00 | |
| AUTORXJP | 2026-09-03 11:00:18 | 44.08488 | 7.97121 | 142° | 46km/h | 17175m | 4.7m/s | -58.8°C | 1.8% | -1.0hPa | 2.7V | 00:00:00 | 00:00:00 | 00:00:00 | |
| AUTORXJP | 2026-09-03 10:59:47 | 44.08810 | 7.96826 | 145° | 51km/h | 17044m | 3.9m/s | -60.1°C | 2.2% | -1.0hPa | 2.7V | 00:00:00 | 00:00:00 | 00:00:00 | |
| AUTORXJP | 2026-09-03 10:59:16 | 44.09158 | 7.96424 | 133° | 58km/h | 16901m | 4.8m/s | -60.8°C | 2.3% | -1.0hPa | 2.7V | 00:00:00 | 00:00:00 | 00:00:00 | |
| IW2NTF | 2026-09-03 10:59:07 | 44.09310 | 7.96199 | 131° | 60km/h | 16834m | 5.6m/s | -60.6°C | 6.3% | 0hPa | 2.7V | 08:30:00 | 01:22:55 | 00:00:00 | |
| IW2NTF | 2026-09-03 10:58:46 | 44.09502 | 7.95894 | 136° | 47km/h | 16731m | 4.6m/s | -60.9°C | 6.6% | 0hPa | 2.7V | 08:30:00 | 01:22:34 | 00:00:00 | |
| AUTORXJP | 2026-09-03 10:58:45 | 44.09470 | 7.95943 | 129° | 47km/h | 16752m | 5.1m/s | -60.8°C | 2.4% | -1.0hPa | 2.7V | 00:00:00 | 00:00:00 | 00:00:00 | |
| IW2NTF | 2026-09-03 10:58:34 | 44.09594 | 7.95765 | 131° | 35km/h | 16672m | 4.4m/s | -60.9°C | 6.5% | 0hPa | 2.7V | 08:30:00 | 01:22:22 | 00:00:00 | |
| IW2NTF | 2026-09-03 10:58:24 | 44.09669 | 7.95677 | 142° | 35km/h | 16625m | 5.5m/s | -60.8°C | 6.6% | 0hPa | 2.8V | 08:30:00 | 01:22:12 | 00:00:00 | |
| AUTORXJP | 2026-09-03 10:58:14 | 44.09711 | 7.95630 | 144° | 38km/h | 16597m | 5.2m/s | -60.9°C | 2.6% | -1.0hPa | 2.7V | 00:00:00 | 00:00:00 | 00:00:00 | |
| IW2NTF | 2026-09-03 10:58:13 | 44.09753 | 7.95595 | 148° | 38km/h | 16574m | 4m/s | -60.7°C | 6.5% | 0hPa | 2.7V | 08:30:00 | 01:22:01 | 00:00:00 | |
| IW2NTF | 2026-09-03 10:58:03 | 44.09840 | 7.95522 | 151° | 47km/h | 16526m | 5.6m/s | -60.7°C | 6.7% | 0hPa | 2.6V | 08:30:00 | 01:21:51 | 00:00:00 | |
| IW2NTF | 2026-09-03 10:57:53 | 44.09943 | 7.95449 | 147° | 51km/h | 16478m | 4m/s | -61.5°C | 7.2% | 0hPa | 2.8V | 08:30:00 | 01:21:41 | 00:00:00 | |
| IW2NTF | 2026-09-03 10:57:43 | 44.10065 | 7.95341 | 153° | 51km/h | 16429m | 5.2m/s | -61.3°C | 7.2% | 0hPa | 2.7V | 08:30:00 | 01:21:31 | 00:00:00 | |
| AUTORXJP | 2026-09-03 10:57:43 | 44.10017 | 7.95378 | 150° | 57km/h | 16449m | 3.7m/s | -61.4°C | 3.1% | -1.0hPa | 2.7V | 00:00:00 | 00:00:00 | 00:00:00 | |
| IW2NTF | 2026-09-03 10:57:33 | 44.10189 | 7.95231 | 144° | 57km/h | 16386m | 3.9m/s | -61°C | 7.3% | 0hPa | 2.7V | 08:30:00 | 01:21:21 | 00:00:00 | |
| IW2NTF | 2026-09-03 10:57:23 | 44.10313 | 7.95140 | 147° | 60km/h | 16343m | 3.6m/s | -61.3°C | 7.6% | 0hPa | 2.8V | 08:30:00 | 01:21:11 | 00:00:00 | |
| IW2NTF | 2026-09-03 10:57:14 | 44.10439 | 7.95035 | 152° | 55km/h | 16301m | 3.5m/s | -61.5°C | 7.6% | 0hPa | 2.7V | 08:30:00 | 01:21:01 | 00:00:00 | |
| AUTORXJP | 2026-09-03 10:57:12 | 44.10401 | 7.95062 | 153° | 57km/h | 16314m | 4.1m/s | -61.4°C | 3.3% | -1.0hPa | 2.7V | 00:00:00 | 00:00:00 | 00:00:00 | |
| AUTORXJP | 2026-09-03 10:56:41 | 44.10830 | 7.94701 | 138° | 69km/h | 16192m | 3.2m/s | -62.1°C | 3.9% | -1.0hPa | 2.7V | 00:00:00 | 00:00:00 | 00:00:00 | |
| IW2NTF | 2026-09-03 10:56:33 | 44.10993 | 7.94513 | 134° | 66km/h | 16146m | 4.1m/s | -62.6°C | 9.1% | 0hPa | 2.7V | 08:30:00 | 01:20:21 | 00:00:00 | |
| AUTORXJP | 2026-09-03 10:56:09 | 44.11200 | 7.94174 | 122° | 64km/h | 16068m | 4.2m/s | -62.8°C | 4.3% | -1.0hPa | 2.7V | 00:00:00 | 00:00:00 | 00:00:00 | |
| AUTORXJP | 2026-09-03 10:55:38 | 44.11450 | 7.93584 | 115° | 53km/h | 15945m | 3.9m/s | -63.1°C | 4.0% | -1.0hPa | 2.7V | 00:00:00 | 00:00:00 | 00:00:00 | |
| IW2NTF | 2026-09-03 10:55:11 | 44.11648 | 7.93106 | 130° | 44km/h | 15810m | 4.5m/s | -62.3°C | 8.4% | 0hPa | 2.7V | 08:30:00 | 01:18:59 | 00:00:00 | |
| AUTORXJP | 2026-09-03 10:55:08 | 44.11641 | 7.93118 | 131° | 42km/h | 15814m | 4.3m/s | -62.3°C | 3.8% | -1.0hPa | 2.7V | 00:00:00 | 00:00:00 | 00:00:00 | |
| IW2NTF | 2026-09-03 10:54:59 | 44.11731 | 7.92963 | 133° | 42km/h | 15754m | 4.9m/s | -62°C | 8.1% | 0hPa | 2.7V | 08:30:00 | 01:18:47 | 00:00:00 | |
| IW2NTF | 2026-09-03 10:54:49 | 44.11816 | 7.92855 | 137° | 46km/h | 15709m | 4.8m/s | -61.8°C | 8.2% | 0hPa | 2.7V | 08:30:00 | 01:18:37 | 00:00:00 | |
| IW2NTF | 2026-09-03 10:54:41 | 44.11905 | 7.92741 | 140° | 47km/h | 15662m | 5.1m/s | -61.7°C | 8.2% | 0hPa | 2.8V | 08:30:00 | 01:18:27 | 00:00:00 | |
| AUTORXJP | 2026-09-03 10:54:36 | 44.11886 | 7.92763 | 139° | 49km/h | 15672m | 4.2m/s | -61.7°C | 3.7% | -1.0hPa | 2.8V | 00:00:00 | 00:00:00 | 00:00:00 | |
| IW2NTF | 2026-09-03 10:54:29 | 44.12007 | 7.92634 | 146° | 53km/h | 15612m | 5.9m/s | -61.8°C | 8.3% | 0hPa | 2.8V | 08:30:00 | 01:18:17 | 00:00:00 | |
| IW2NTF | 2026-09-03 10:54:19 | 44.12118 | 7.92520 | 139° | 57km/h | 15561m | 5.3m/s | -61.5°C | 8.2% | 0hPa | 2.8V | 08:30:00 | 01:18:07 | 00:00:00 | |
| IW2NTF | 2026-09-03 10:54:10 | 44.12232 | 7.92391 | 135° | 58km/h | 15510m | 5m/s | -61.4°C | 8.1% | 0hPa | 2.8V | 08:30:00 | 01:17:57 | 00:00:00 | |
| AUTORXJP | 2026-09-03 10:54:05 | 44.12222 | 7.92405 | 136° | 57km/h | 15515m | 5.7m/s | -61.5°C | 3.7% | -1.0hPa | 2.8V | 00:00:00 | 00:00:00 | 00:00:00 | |
| IW2NTF | 2026-09-03 10:53:59 | 44.12340 | 7.92249 | 138° | 64km/h | 15460m | 5.6m/s | -61.3°C | 8.4% | 0hPa | 2.8V | 08:30:00 | 01:17:47 | 00:00:00 | |
| IW2NTF | 2026-09-03 10:53:50 | 44.12453 | 7.92093 | 131° | 58km/h | 15411m | 4.6m/s | -61.4°C | 8.2% | 0hPa | 2.7V | 08:30:00 | 01:17:37 | 00:00:00 | |
| IW2NTF | 2026-09-03 10:53:40 | 44.12555 | 7.91915 | 126° | 68km/h | 15361m | 4.5m/s | -61.1°C | 8.2% | 0hPa | 2.7V | 08:30:00 | 01:17:27 | 00:00:00 | |
| AUTORXJP | 2026-09-03 10:53:34 | 44.12555 | 7.91915 | 126° | 66km/h | 15361m | 4.5m/s | -61.1°C | 3.9% | -1.0hPa | 2.7V | 00:00:00 | 00:00:00 | 00:00:00 | |
| IW2NTF | 2026-09-03 10:53:29 | 44.12653 | 7.91716 | 124° | 71km/h | 15313m | 5.2m/s | -61.1°C | 8.1% | 0hPa | 2.7V | 08:30:00 | 01:17:17 | 00:00:00 | |
| IW2NTF | 2026-09-03 10:53:19 | 44.12753 | 7.91499 | 123° | 78km/h | 15266m | 4.8m/s | -60.9°C | 8.1% | 0hPa | 2.8V | 08:30:00 | 01:17:07 | 00:00:00 | |
| IW2NTF | 2026-09-03 10:53:09 | 44.12854 | 7.91268 | 117° | 78km/h | 15217m | 4.8m/s | -61.3°C | 8.6% | 0hPa | 2.8V | 08:30:00 | 01:16:57 | 00:00:00 | |
| AUTORXJP | 2026-09-03 10:53:03 | 44.12863 | 7.91244 | 118° | 78km/h | 15213m | 3.7m/s | -61.2°C | 4.2% | -1.0hPa | 2.7V | 00:00:00 | 00:00:00 | 00:00:00 | |
| IW2NTF | 2026-09-03 10:52:59 | 44.12952 | 7.91028 | 119° | 77km/h | 15172m | 5.1m/s | -61.1°C | 8.6% | 0hPa | 2.7V | 08:30:00 | 01:16:47 | 00:00:00 | |
| IW2NTF | 2026-09-03 10:52:49 | 44.13034 | 7.90787 | 116° | 77km/h | 15126m | 3.6m/s | -60.9°C | 8.6% | 0hPa | 2.7V | 08:30:00 | 01:16:37 | 00:00:00 | |
| IW2NTF | 2026-09-03 10:52:39 | 44.13121 | 7.90569 | 116° | 78km/h | 15079m | 4m/s | -60.7°C | 8.4% | 0hPa | 2.8V | 08:30:00 | 01:16:27 | 00:00:00 | |
| AUTORXJP | 2026-09-03 10:52:32 | 44.13138 | 7.90520 | 117° | 75km/h | 15070m | 5.5m/s | -60.6°C | 4.3% | -1.0hPa | 2.8V | 00:00:00 | 00:00:00 | 00:00:00 | |
| IW2NTF | 2026-09-03 10:52:29 | 44.13204 | 7.90352 | 121° | 66km/h | 15033m | 4.4m/s | -60.5°C | 8.6% | 0hPa | 2.8V | 08:30:00 | 01:16:17 | 00:00:00 | |
| IW2NTF | 2026-09-03 10:52:18 | 44.13309 | 7.90107 | 119° | 60km/h | 14978m | 4.6m/s | -60.2°C | 8.6% | 0hPa | 2.8V | 08:30:00 | 01:16:05 | 00:00:00 | |
| IW2NTF | 2026-09-03 10:52:05 | 44.13422 | 7.89886 | 126° | 62km/h | 14924m | 5.9m/s | -60.2°C | 8.7% | 0hPa | 2.8V | 08:30:00 | 01:15:53 | 00:00:00 | |
| AUTORXJP | 2026-09-03 10:52:01 | 44.13413 | 7.89903 | 127° | 62km/h | 14929m | 4.1m/s | -60.2°C | 4.4% | -1.0hPa | 2.7V | 00:00:00 | 00:00:00 | 00:00:00 | |
| IW2NTF | 2026-09-03 10:51:56 | 44.13514 | 7.89710 | 125° | 64km/h | 14878m | 3.2m/s | -60.3°C | 9% | 0hPa | 2.7V | 08:30:00 | 01:15:43 | 00:00:00 | |
| IW2NTF | 2026-09-03 10:51:46 | 44.13609 | 7.89540 | 127° | 64km/h | 14835m | 3.6m/s | -60°C | 9.4% | 0hPa | 2.7V | 08:30:00 | 01:15:33 | 00:00:00 | |
| IW2NTF | 2026-09-03 10:51:35 | 44.13706 | 7.89359 | 130° | 64km/h | 14793m | 4.7m/s | -59.8°C | 9.5% | 0hPa | 2.7V | 08:30:00 | 01:15:23 | 00:00:00 | |
| AUTORXJP | 2026-09-03 10:51:30 | 44.13717 | 7.89342 | 130° | 66km/h | 14788m | 4.1m/s | -59.8°C | 5.3% | -1.0hPa | 2.7V | 00:00:00 | 00:00:00 | 00:00:00 | |
| IW2NTF | 2026-09-03 10:51:25 | 44.13804 | 7.89164 | 125° | 62km/h | 14750m | 4.1m/s | -59.7°C | 10.1% | 0hPa | 2.7V | 08:30:00 | 01:15:13 | 00:00:00 | |
| IW2NTF | 2026-09-03 10:51:17 | 44.13905 | 7.88989 | 125° | 66km/h | 14708m | 4.1m/s | -59.8°C | 10.9% | 0hPa | 2.7V | 08:30:00 | 01:15:03 | 00:00:00 | |
| IW2NTF | 2026-09-03 10:51:05 | 44.14007 | 7.88816 | 134° | 66km/h | 14668m | 3.4m/s | -60.4°C | 12.4% | 0hPa | 2.7V | 08:30:00 | 01:14:53 | 00:00:00 | |
| AUTORXJP | 2026-09-03 10:50:59 | 44.14030 | 7.88783 | 132° | 64km/h | 14659m | 3.5m/s | -60.5°C | 7.5% | -1.0hPa | 2.7V | 00:00:00 | 00:00:00 | 00:00:00 | |
| IW2NTF | 2026-09-03 10:50:55 | 44.14114 | 7.88647 | 129° | 64km/h | 14627m | 3.1m/s | -60.5°C | 12.9% | 0hPa | 2.7V | 08:30:00 | 01:14:43 | 00:00:00 | |
| IW2NTF | 2026-09-03 10:50:47 | 44.14208 | 7.88486 | 132° | 58km/h | 14585m | 3.8m/s | -61.2°C | 13.7% | 0hPa | 2.8V | 08:30:00 | 01:14:33 | 00:00:00 | |
| IW2NTF | 2026-09-03 10:50:35 | 44.14303 | 7.88325 | 131° | 64km/h | 14545m | 4.3m/s | -61.5°C | 14.4% | 0hPa | 2.8V | 08:30:00 | 01:14:23 | 00:00:00 | |
| AUTORXJP | 2026-09-03 10:50:28 | 44.14338 | 7.88277 | 138° | 64km/h | 14533m | 3.8m/s | -61.4°C | 9.1% | -1.0hPa | 2.8V | 00:00:00 | 00:00:00 | 00:00:00 | |
| IW2NTF | 2026-09-03 10:50:25 | 44.14424 | 7.88163 | 135° | 66km/h | 14504m | 3.5m/s | -61.4°C | 14.3% | 0hPa | 2.8V | 08:30:00 | 01:14:13 | 00:00:00 | |
| IW2NTF | 2026-09-03 10:50:17 | 44.14566 | 7.87996 | 137° | 75km/h | 14464m | 3.4m/s | -61.6°C | 15% | 0hPa | 2.7V | 08:30:00 | 01:14:03 | 00:00:00 | |
| IW2NTF | 2026-09-03 10:50:06 | 44.14709 | 7.87806 | 142° | 82km/h | 14425m | 3.3m/s | -61.3°C | 14.8% | 0hPa | 2.7V | 08:30:00 | 01:13:53 | 00:00:00 | |
| AUTORXJP | 2026-09-03 10:49:56 | 44.14772 | 7.87735 | 136° | 77km/h | 14408m | 3.8m/s | -61.1°C | 10.0% | -1.0hPa | 2.7V | 00:00:00 | 00:00:00 | 00:00:00 | |
| IW2NTF | 2026-09-03 10:49:55 | 44.14851 | 7.87617 | 132° | 78km/h | 14384m | 4m/s | -60.9°C | 14.9% | 0hPa | 2.7V | 08:30:00 | 01:13:43 | 00:00:00 | |
| IW2NTF | 2026-09-03 10:49:45 | 44.14993 | 7.87435 | 137° | 75km/h | 14343m | 3.4m/s | -60.6°C | 15.4% | 0hPa | 2.8V | 08:30:00 | 01:13:33 | 00:00:00 | |
| IW2NTF | 2026-09-03 10:49:36 | 44.15140 | 7.87260 | 139° | 71km/h | 14299m | 5m/s | -60.8°C | 16.4% | 0hPa | 2.8V | 08:30:00 | 01:13:23 | 00:00:00 | |
| IW2NTF | 2026-09-03 10:49:25 | 44.15285 | 7.87088 | 141° | 80km/h | 14259m | 3.9m/s | -60.7°C | 17% | 0hPa | 2.7V | 08:30:00 | 01:13:13 | 00:00:00 | |
| IW2NTF | 2026-09-03 10:49:15 | 44.15446 | 7.86916 | 145° | 86km/h | 14217m | 4.5m/s | -60.9°C | 17.8% | 0hPa | 2.7V | 08:30:00 | 01:13:03 | 00:00:00 | |
| IW2NTF | 2026-09-03 10:49:07 | 44.15626 | 7.86755 | 143° | 86km/h | 14176m | 4.1m/s | -60.7°C | 18.8% | 0hPa | 2.8V | 08:30:00 | 01:12:53 | 00:00:00 | |
| IW2NTF | 2026-09-03 10:48:55 | 44.15801 | 7.86587 | 144° | 82km/h | 14136m | 4.4m/s | -60.9°C | 20.1% | 0hPa | 2.7V | 08:30:00 | 01:12:43 | 00:00:00 | |
| AUTORXJP | 2026-09-03 10:48:54 | 44.15732 | 7.86654 | 146° | 82km/h | 14153m | 4.0m/s | -60.8°C | 13.4% | -1.0hPa | 2.7V | 00:00:00 | 00:00:00 | 00:00:00 | |
| IW2NTF | 2026-09-03 10:48:45 | 44.15975 | 7.86419 | 144° | 86km/h | 14094m | 3.9m/s | -61.2°C | 21.3% | 0hPa | 2.7V | 08:30:00 | 01:12:33 | 00:00:00 | |
| IW2NTF | 2026-09-03 10:48:36 | 44.16147 | 7.86246 | 143° | 82km/h | 14051m | 4.7m/s | -61.1°C | 21.6% | 0hPa | 2.8V | 08:30:00 | 01:12:23 | 00:00:00 | |
| IW2NTF | 2026-09-03 10:48:26 | 44.16315 | 7.86062 | 142° | 89km/h | 14009m | 4.3m/s | -61.2°C | 22.3% | 0hPa | 2.8V | 08:30:00 | 01:12:13 | 00:00:00 | |
| AUTORXJP | 2026-09-03 10:48:23 | 44.16264 | 7.86119 | 140° | 84km/h | 14021m | 3.9m/s | -61.2°C | 15.5% | -1.0hPa | 2.7V | 00:00:00 | 00:00:00 | 00:00:00 | |
| IW2NTF | 2026-09-03 10:48:15 | 44.16497 | 7.85871 | 141° | 91km/h | 13968m | 4.4m/s | -60.9°C | 22.2% | 0hPa | 2.7V | 08:30:00 | 01:12:03 | 00:00:00 | |
| IW2NTF | 2026-09-03 10:48:05 | 44.16680 | 7.85668 | 142° | 89km/h | 13925m | 4m/s | -60.6°C | 22.2% | 0hPa | 2.8V | 08:30:00 | 01:11:53 | 00:00:00 | |
| IW2NTF | 2026-09-03 10:47:57 | 44.16863 | 7.85464 | 139° | 89km/h | 13881m | 3.6m/s | -60.5°C | 22.1% | 0hPa | 2.8V | 08:30:00 | 01:11:43 | 00:00:00 | |
| AUTORXJP | 2026-09-03 10:47:52 | 44.16827 | 7.85505 | 140° | 93km/h | 13890m | 4.7m/s | -60.5°C | 15.7% | -1.0hPa | 2.8V | 00:00:00 | 00:00:00 | 00:00:00 | |
| IW2NTF | 2026-09-03 10:47:45 | 44.17044 | 7.85263 | 143° | 97km/h | 13837m | 4.6m/s | -60.8°C | 23.3% | 0hPa | 2.8V | 08:30:00 | 01:11:33 | 00:00:00 | |
| IW2NTF | 2026-09-03 10:47:35 | 44.17228 | 7.85053 | 139° | 99km/h | 13795m | 4.3m/s | -60.7°C | 23.4% | 0hPa | 2.8V | 08:30:00 | 01:11:23 | 00:00:00 | |
| IW2NTF | 2026-09-03 10:47:25 | 44.17413 | 7.84835 | 139° | 93km/h | 13751m | 4.1m/s | -60.4°C | 23.5% | 0hPa | 2.8V | 08:30:00 | 01:11:13 | 00:00:00 | |
| AUTORXJP | 2026-09-03 10:47:21 | 44.17395 | 7.84856 | 140° | 93km/h | 13755m | 4.9m/s | -60.4°C | 17.2% | -1.0hPa | 2.7V | 00:00:00 | 00:00:00 | 00:00:00 | |
| IW2NTF | 2026-09-03 10:46:51 | 44.18083 | 7.84088 | 140° | 91km/h | 13597m | 4.7m/s | -61.2°C | 27.6% | 0hPa | 2.7V | 08:30:00 | 01:10:37 | 00:00:00 | |
| AUTORXJP | 2026-09-03 10:46:50 | 44.17975 | 7.84208 | 142° | 93km/h | 13622m | 4.6m/s | -61.2°C | 19.8% | -1.0hPa | 2.8V | 00:00:00 | 00:00:00 | 00:00:00 | |
| IW2NTF | 2026-09-03 10:46:39 | 44.18269 | 7.83877 | 141° | 99km/h | 13556m | 3.3m/s | -61.1°C | 28.4% | 0hPa | 2.8V | 08:30:00 | 01:10:27 | 00:00:00 | |
| IW2NTF | 2026-09-03 10:46:29 | 44.18453 | 7.83661 | 135° | 97km/h | 13514m | 4.9m/s | -61.4°C | 29.7% | 0hPa | 2.8V | 08:30:00 | 01:10:17 | 00:00:00 | |
| IW2NTF | 2026-09-03 10:46:19 | 44.18628 | 7.83435 | 138° | 88km/h | 13475m | 2.6m/s | -61.3°C | 31.7% | 0hPa | 2.7V | 08:30:00 | 01:10:07 | 00:00:00 | |
| AUTORXJP | 2026-09-03 10:46:19 | 44.18542 | 7.83543 | 137° | 97km/h | 13494m | 4.0m/s | -61.4°C | 23.3% | -1.0hPa | 2.7V | 00:00:00 | 00:00:00 | 00:00:00 | |
| IW2NTF | 2026-09-03 10:46:09 | 44.18807 | 7.83237 | 141° | 88km/h | 13428m | 5.8m/s | -61°C | 31.2% | 0hPa | 2.7V | 08:30:00 | 01:09:57 | 00:00:00 | |
| IW2NTF | 2026-09-03 10:46:00 | 44.18986 | 7.83060 | 144° | 84km/h | 13378m | 3.9m/s | -60.6°C | 32.1% | 0hPa | 2.8V | 08:30:00 | 01:09:47 | 00:00:00 | |
| AUTORXJP | 2026-09-03 10:45:48 | 44.19087 | 7.82955 | 140° | 84km/h | 13353m | 3.5m/s | -60.6°C | 24.6% | -1.0hPa | 2.8V | 00:00:00 | 00:00:00 | 00:00:00 | |
| IW2NTF | 2026-09-03 10:45:47 | 44.19194 | 7.82860 | 149° | 84km/h | 13325m | 5.4m/s | -60.5°C | 33.7% | 0hPa | 2.8V | 08:30:00 | 01:09:35 | 00:00:00 | |
| IW2NTF | 2026-09-03 10:45:37 | 44.19377 | 7.82697 | 151° | 86km/h | 13279m | 4.7m/s | -60.8°C | 33.5% | 0hPa | 2.8V | 08:30:00 | 01:09:25 | 00:00:00 | |
| IW2NTF | 2026-09-03 10:45:27 | 44.19582 | 7.82548 | 151° | 91km/h | 13241m | 3.5m/s | -60.9°C | 33.3% | 0hPa | 2.8V | 08:30:00 | 01:09:15 | 00:00:00 | |
| IW2NTF | 2026-09-03 10:45:17 | 44.19802 | 7.82388 | 153° | 100km/h | 13202m | 3.2m/s | -60.9°C | 33% | 0hPa | 2.8V | 08:30:00 | 01:09:05 | 00:00:00 | |
| AUTORXJP | 2026-09-03 10:45:17 | 44.19689 | 7.82469 | 152° | 99km/h | 13222m | 4.2m/s | -60.8°C | 25.3% | -1.0hPa | 2.8V | 00:00:00 | 00:00:00 | 00:00:00 | |
| IW2NTF | 2026-09-03 10:45:07 | 44.20020 | 7.82231 | 150° | 100km/h | 13166m | 3.5m/s | -61°C | 34.7% | 0hPa | 2.8V | 08:30:00 | 01:08:55 | 00:00:00 | |
| IW2NTF | 2026-09-03 10:44:57 | 44.20238 | 7.82060 | 150° | 97km/h | 13131m | 3.4m/s | -61.3°C | 36.4% | 0hPa | 2.8V | 08:30:00 | 01:08:45 | 00:00:00 | |
| AUTORXJP | 2026-09-03 10:44:46 | 44.20368 | 7.81956 | 148° | 99km/h | 13108m | 4.1m/s | -61.5°C | 29.1% | -1.0hPa | 2.8V | 00:00:00 | 00:00:00 | 00:00:00 | |
| IW2NTF | 2026-09-03 10:44:45 | 44.20498 | 7.81847 | 148° | 99km/h | 13088m | 3.2m/s | -61.8°C | 38.3% | 0hPa | 2.8V | 08:30:00 | 01:08:33 | 00:00:00 | |
| IW2NTF | 2026-09-03 10:44:36 | 44.20716 | 7.81647 | 142° | 104km/h | 13053m | 3.7m/s | -61.7°C | 39.6% | 0hPa | 2.8V | 08:30:00 | 01:08:23 | 00:00:00 | |
| IW2NTF | 2026-09-03 10:44:23 | 44.20960 | 7.81389 | 141° | 100km/h | 13010m | 3.6m/s | -61.9°C | 41.7% | 0hPa | 2.7V | 08:30:00 | 01:08:11 | 00:00:00 | |
| AUTORXJP | 2026-09-03 10:44:15 | 44.21040 | 7.81308 | 146° | 97km/h | 12996m | 3.7m/s | -61.9°C | 32.5% | -1.0hPa | 2.8V | 00:00:00 | 00:00:00 | 00:00:00 | |
| IW2NTF | 2026-09-03 10:44:13 | 44.21162 | 7.81199 | 144° | 95km/h | 12973m | 4.2m/s | -61.8°C | 40.4% | 0hPa | 2.8V | 08:30:00 | 01:08:01 | 00:00:00 | |
| IW2NTF | 2026-09-03 10:44:03 | 44.21353 | 7.81003 | 146° | 91km/h | 12935m | 5m/s | -61.4°C | 40.1% | 0hPa | 2.8V | 08:30:00 | 01:07:51 | 00:00:00 | |
| IW2NTF | 2026-09-03 10:43:53 | 44.21543 | 7.80828 | 147° | 91km/h | 12896m | 3.1m/s | -61.4°C | 41.2% | 0hPa | 2.7V | 08:30:00 | 01:07:41 | 00:00:00 | |
| AUTORXJP | 2026-09-03 10:43:44 | 44.21640 | 7.80741 | 145° | 91km/h | 12877m | 3.5m/s | 0°C | -1.0% | -1.0hPa | 2.8V | 00:00:00 | 00:00:00 | 00:00:00 | |
| IW2NTF | 2026-09-03 10:43:43 | 44.21735 | 7.80653 | 146° | 91km/h | 12857m | 3.8m/s | -61.3°C | 40.4% | 0hPa | 2.8V | 08:30:00 | 01:07:31 | 00:00:00 | |
| IW2NTF | 2026-09-03 10:43:33 | 44.21918 | 7.80493 | 148° | 82km/h | 12815m | 3.3m/s | -60.8°C | 40% | 0hPa | 2.8V | 08:30:00 | 01:07:21 | 00:00:00 | |
| IW2NTF | 2026-09-03 10:43:23 | 44.22102 | 7.80327 | 147° | 91km/h | 12770m | 4m/s | -60.6°C | 38.6% | 0hPa | 2.8V | 08:30:00 | 01:07:11 | 00:00:00 | |
| IW2NTF | 2026-09-03 10:43:13 | 44.22295 | 7.80178 | 149° | 88km/h | 12726m | 4m/s | -60.3°C | 37.7% | 0hPa | 2.7V | 08:30:00 | 01:07:01 | 00:00:00 | |
| IW2NTF | 2026-09-03 10:43:03 | 44.22491 | 7.80037 | 154° | 80km/h | 12683m | 4.5m/s | -60°C | 38.7% | 0hPa | 2.7V | 08:30:00 | 01:06:51 | 00:00:00 | |
| IW2NTF | 2026-09-03 10:42:53 | 44.22675 | 7.79908 | 156° | 86km/h | 12641m | 5.3m/s | -59.7°C | 36.6% | 0hPa | 2.8V | 08:30:00 | 01:06:41 | 00:00:00 | |
| IW2NTF | 2026-09-03 10:42:43 | 44.22877 | 7.79789 | 152° | 88km/h | 12596m | 4.5m/s | -59.3°C | 36.3% | 0hPa | 2.8V | 08:30:00 | 01:06:31 | 00:00:00 | |
| IW2NTF | 2026-09-03 10:42:33 | 44.23077 | 7.79673 | 158° | 84km/h | 12551m | 6m/s | -59°C | 36.8% | 0hPa | 2.8V | 08:30:00 | 01:06:21 | 00:00:00 | |
| IW2NTF | 2026-09-03 10:42:21 | 44.23320 | 7.79524 | 164° | 93km/h | 12495m | 5.7m/s | -58.9°C | 38.1% | 0hPa | 2.8V | 08:30:00 | 01:06:09 | 00:00:00 | |
| IW2NTF | 2026-09-03 10:42:11 | 44.23533 | 7.79434 | 161° | 95km/h | 12443m | 6.8m/s | -58.5°C | 39.6% | 0hPa | 2.8V | 08:30:00 | 01:05:59 | 00:00:00 | |
| IW2NTF | 2026-09-03 10:42:01 | 44.23765 | 7.79346 | 162° | 104km/h | 12394m | 4.4m/s | -58.8°C | 41.3% | 0hPa | 2.8V | 08:30:00 | 01:05:49 | 00:00:00 | |
| IW2NTF | 2026-09-03 10:41:51 | 44.24012 | 7.79227 | 160° | 104km/h | 12346m | 4.3m/s | -58.4°C | 41.5% | 0hPa | 2.7V | 08:30:00 | 01:05:39 | 00:00:00 | |
| IW2NTF | 2026-09-03 10:41:41 | 44.24261 | 7.79101 | 160° | 100km/h | 12306m | 4.6m/s | -58°C | 40.2% | 0hPa | 2.9V | 08:30:00 | 01:05:29 | 00:00:00 | |
| IW2NTF | 2026-09-03 10:41:31 | 44.24511 | 7.78977 | 161° | 108km/h | 12269m | 3.1m/s | -57.8°C | 39.3% | 0hPa | 2.9V | 08:30:00 | 01:05:19 | 00:00:00 | |
| IW2NTF | 2026-09-03 10:41:21 | 44.24755 | 7.78846 | 156° | 110km/h | 12229m | 3.1m/s | -57.5°C | 40% | 0hPa | 2.8V | 08:30:00 | 01:05:09 | 00:00:00 | |
| IW2NTF | 2026-09-03 10:41:11 | 44.25011 | 7.78713 | 158° | 106km/h | 12185m | 4.5m/s | -57.2°C | 38% | 0hPa | 2.9V | 08:30:00 | 01:04:59 | 00:00:00 | |
| IW2NTF | 2026-09-03 10:41:01 | 44.25255 | 7.78583 | 159° | 100km/h | 12141m | 3.7m/s | -56.7°C | 37.5% | 0hPa | 2.9V | 08:30:00 | 01:04:49 | 00:00:00 | |
| IW2NTF | 2026-09-03 10:40:51 | 44.25491 | 7.78448 | 152° | 99km/h | 12095m | 5.8m/s | -56.4°C | 37% | 0hPa | 2.8V | 08:30:00 | 01:04:39 | 00:00:00 | |
| IW2NTF | 2026-09-03 10:40:42 | 44.25721 | 7.78304 | 156° | 102km/h | 12044m | 5.1m/s | -55.9°C | 35.9% | 0hPa | 2.9V | 08:30:00 | 01:04:29 | 00:00:00 | |
| IW2NTF | 2026-09-03 10:40:31 | 44.25943 | 7.78170 | 157° | 95km/h | 11999m | 2.9m/s | -55.5°C | 35% | 0hPa | 2.9V | 08:30:00 | 01:04:19 | 00:00:00 | |
| IW2NTF | 2026-09-03 10:40:21 | 44.26160 | 7.78032 | 160° | 93km/h | 11951m | 4.9m/s | -55.1°C | 34.5% | 0hPa | 2.8V | 08:30:00 | 01:04:09 | 00:00:00 | |
| IW2NTF | 2026-09-03 10:40:12 | 44.26368 | 7.77920 | 156° | 86km/h | 11898m | 4.4m/s | -54.6°C | 32.6% | 0hPa | 2.9V | 08:30:00 | 01:03:59 | 00:00:00 | |
| IW2NTF | 2026-09-03 10:40:01 | 44.26575 | 7.77786 | 151° | 88km/h | 11854m | 4.7m/s | -54.2°C | 32.2% | 0hPa | 2.9V | 08:30:00 | 01:03:49 | 00:00:00 | |
| IW2NTF | 2026-09-03 10:39:51 | 44.26781 | 7.77667 | 156° | 88km/h | 11809m | 5.6m/s | -53.8°C | 31.6% | 0hPa | 2.8V | 08:30:00 | 01:03:39 | 00:00:00 | |
| IW2NTF | 2026-09-03 10:39:41 | 44.26981 | 7.77543 | 157° | 88km/h | 11764m | 5.6m/s | -53.4°C | 30.8% | 0hPa | 2.9V | 08:30:00 | 01:03:29 | 00:00:00 | |
| IW2NTF | 2026-09-03 10:39:31 | 44.27183 | 7.77417 | 152° | 88km/h | 11719m | 3.4m/s | -53°C | 30.6% | 0hPa | 2.8V | 08:30:00 | 01:03:19 | 00:00:00 | |
| IW2NTF | 2026-09-03 10:39:21 | 44.27380 | 7.77283 | 154° | 86km/h | 11675m | 5.8m/s | -52.5°C | 28.7% | 0hPa | 2.9V | 08:30:00 | 01:03:09 | 00:00:00 | |
| IW2NTF | 2026-09-03 10:39:11 | 44.27570 | 7.77140 | 150° | 86km/h | 11632m | 3.4m/s | -52.2°C | 29.2% | 0hPa | 2.9V | 08:30:00 | 01:02:59 | 00:00:00 | |
| IW2NTF | 2026-09-03 10:38:59 | 44.27788 | 7.76976 | 149° | 84km/h | 11580m | 3.6m/s | -51.9°C | 28.9% | 0hPa | 2.8V | 08:30:00 | 01:02:47 | 00:00:00 | |
| IW2NTF | 2026-09-03 10:38:49 | 44.27971 | 7.76829 | 152° | 80km/h | 11537m | 5m/s | -51.6°C | 28.9% | 0hPa | 2.9V | 08:30:00 | 01:02:37 | 00:00:00 | |
| IW2NTF | 2026-09-03 10:38:39 | 44.28148 | 7.76679 | 147° | 80km/h | 11496m | 4.1m/s | -51.4°C | 29% | 0hPa | 2.8V | 08:30:00 | 01:02:27 | 00:00:00 | |
| IW2NTF | 2026-09-03 10:38:30 | 44.28325 | 7.76524 | 147° | 86km/h | 11454m | 4.3m/s | -51.3°C | 30.1% | 0hPa | 2.9V | 08:30:00 | 01:02:17 | 00:00:00 | |
| IW2NTF | 2026-09-03 10:38:19 | 44.28511 | 7.76374 | 151° | 84km/h | 11412m | 3.7m/s | -51°C | 28.7% | 0hPa | 2.8V | 08:30:00 | 01:02:07 | 00:00:00 | |
| IW2NTF | 2026-09-03 10:38:09 | 44.28698 | 7.76211 | 145° | 91km/h | 11368m | 4m/s | -50.6°C | 27.7% | 0hPa | 2.9V | 08:30:00 | 01:01:57 | 00:00:00 | |
| IW2NTF | 2026-09-03 10:37:59 | 44.28884 | 7.76040 | 147° | 89km/h | 11323m | 5.4m/s | -50.3°C | 27.8% | 0hPa | 2.8V | 08:30:00 | 01:01:47 | 00:00:00 | |
| IW2NTF | 2026-09-03 10:37:49 | 44.29076 | 7.75862 | 147° | 88km/h | 11281m | 5.5m/s | -50.1°C | 28% | 0hPa | 2.9V | 08:30:00 | 01:01:37 | 00:00:00 | |
| IW2NTF | 2026-09-03 10:37:39 | 44.29260 | 7.75699 | 148° | 86km/h | 11234m | 4.2m/s | -49.9°C | 29.7% | 0hPa | 2.9V | 08:30:00 | 01:01:27 | 00:00:00 | |
| IW2NTF | 2026-09-03 10:37:29 | 44.29447 | 7.75540 | 150° | 86km/h | 11193m | 4m/s | -49.7°C | 30.5% | 0hPa | 2.9V | 08:30:00 | 01:01:17 | 00:00:00 | |
| IW2NTF | 2026-09-03 10:37:19 | 44.29633 | 7.75403 | 149° | 84km/h | 11150m | 3.7m/s | -49.4°C | 30.7% | 0hPa | 2.9V | 08:30:00 | 01:01:07 | 00:00:00 | |
| IW2NTF | 2026-09-03 10:37:09 | 44.29815 | 7.75262 | 152° | 80km/h | 11108m | 4.4m/s | -49.2°C | 32.4% | 0hPa | 2.8V | 08:30:00 | 01:00:57 | 00:00:00 | |
| IW2NTF | 2026-09-03 10:36:59 | 44.29998 | 7.75130 | 150° | 82km/h | 11063m | 4m/s | -48.8°C | 31.7% | 0hPa | 2.9V | 08:30:00 | 01:00:47 | 00:00:00 | |
| IW2NTF | 2026-09-03 10:36:49 | 44.30179 | 7.74998 | 155° | 80km/h | 11020m | 4.4m/s | -48.4°C | 30.4% | 0hPa | 2.9V | 08:30:00 | 01:00:37 | 00:00:00 | |
| IW2NTF | 2026-09-03 10:36:39 | 44.30356 | 7.74868 | 152° | 84km/h | 10976m | 4.4m/s | -48°C | 29.4% | 0hPa | 2.8V | 08:30:00 | 01:00:27 | 00:00:00 | |
| IW2NTF | 2026-09-03 10:36:29 | 44.30519 | 7.74734 | 149° | 75km/h | 10935m | 4m/s | -47.6°C | 28% | 0hPa | 2.9V | 08:30:00 | 01:00:17 | 00:00:00 | |
| IW2NTF | 2026-09-03 10:36:20 | 44.30696 | 7.74592 | 144° | 78km/h | 10887m | 5.9m/s | -47.3°C | 25.6% | 0hPa | 2.9V | 08:30:00 | 01:00:07 | 00:00:00 | |
| IW2NTF | 2026-09-03 10:36:09 | 44.30872 | 7.74456 | 158° | 84km/h | 10838m | 5m/s | -46.8°C | 24.2% | 0hPa | 2.8V | 08:30:00 | 00:59:57 | 00:00:00 | |
| IW2NTF | 2026-09-03 10:35:59 | 44.31057 | 7.74344 | 151° | 80km/h | 10794m | 4.5m/s | -46.4°C | 22.7% | 0hPa | 2.9V | 08:30:00 | 00:59:47 | 00:00:00 | |
| IW2NTF | 2026-09-03 10:35:49 | 44.31239 | 7.74239 | 157° | 82km/h | 10746m | 5m/s | -46.1°C | 22.1% | 0hPa | 2.9V | 08:30:00 | 00:59:37 | 00:00:00 | |
| IW2NTF | 2026-09-03 10:35:39 | 44.31419 | 7.74131 | 157° | 77km/h | 10702m | 4m/s | -45.6°C | 22.2% | 0hPa | 2.9V | 08:30:00 | 00:59:27 | 00:00:00 | |
| IW2NTF | 2026-09-03 10:35:30 | 44.31604 | 7.74025 | 159° | 77km/h | 10662m | 4.2m/s | -45.2°C | 21.9% | 0hPa | 2.8V | 08:30:00 | 00:59:17 | 00:00:00 | |
| IW2NTF | 2026-09-03 10:35:19 | 44.31784 | 7.73921 | 156° | 80km/h | 10620m | 5.1m/s | -45°C | 22.5% | 0hPa | 2.9V | 08:30:00 | 00:59:07 | 00:00:00 | |
| IW2NTF | 2026-09-03 10:35:09 | 44.31968 | 7.73816 | 158° | 82km/h | 10576m | 4.9m/s | -44.7°C | 23.1% | 0hPa | 2.9V | 08:30:00 | 00:58:57 | 00:00:00 | |
| IW2NTF | 2026-09-03 10:34:59 | 44.32152 | 7.73711 | 158° | 71km/h | 10534m | 3.7m/s | -44.3°C | 22.4% | 0hPa | 2.9V | 08:30:00 | 00:58:47 | 00:00:00 | |
| IW2NTF | 2026-09-03 10:34:49 | 44.32331 | 7.73604 | 155° | 78km/h | 10496m | 3.4m/s | -43.9°C | 23.7% | 0hPa | 2.9V | 08:30:00 | 00:58:37 | 00:00:00 | |
| IW2NTF | 2026-09-03 10:34:39 | 44.32514 | 7.73489 | 155° | 84km/h | 10455m | 4.1m/s | -43.6°C | 22.1% | 0hPa | 2.9V | 08:30:00 | 00:58:27 | 00:00:00 | |
| IW2NTF | 2026-09-03 10:34:29 | 44.32701 | 7.73368 | 161° | 80km/h | 10417m | 3.9m/s | -43.4°C | 22% | 0hPa | 2.8V | 08:30:00 | 00:58:17 | 00:00:00 | |
| IW2NTF | 2026-09-03 10:34:20 | 44.32889 | 7.73256 | 157° | 80km/h | 10365m | 4m/s | -43.1°C | 21.3% | 0hPa | 2.8V | 08:30:00 | 00:58:07 | 00:00:00 | |
| IW2NTF | 2026-09-03 10:34:09 | 44.33084 | 7.73156 | 158° | 73km/h | 10301m | 6.5m/s | -42.5°C | 20.8% | 0hPa | 2.9V | 08:30:00 | 00:57:57 | 00:00:00 | |
| IW2NTF | 2026-09-03 10:34:00 | 44.33267 | 7.73063 | 163° | 73km/h | 10248m | 6.3m/s | -42.1°C | 21.7% | 0hPa | 2.9V | 08:30:00 | 00:57:47 | 00:00:00 | |
| IW2NTF | 2026-09-03 10:33:49 | 44.33439 | 7.72989 | 164° | 73km/h | 10199m | 5m/s | -41.7°C | 21.6% | 0hPa | 2.9V | 08:30:00 | 00:57:37 | 00:00:00 | |
| IW2NTF | 2026-09-03 10:33:39 | 44.33616 | 7.72924 | 166° | 69km/h | 10157m | 4.2m/s | -41.3°C | 21.6% | 0hPa | 2.9V | 08:30:00 | 00:57:27 | 00:00:00 | |
| IW2NTF | 2026-09-03 10:33:29 | 44.33788 | 7.72878 | 167° | 71km/h | 10107m | 4.2m/s | -40.9°C | 21.9% | 0hPa | 2.9V | 08:30:00 | 00:57:17 | 00:00:00 | |
| IW2NTF | 2026-09-03 10:33:19 | 44.33964 | 7.72812 | 166° | 68km/h | 10055m | 5.6m/s | -40.5°C | 21.8% | 0hPa | 2.9V | 08:30:00 | 00:57:07 | 00:00:00 | |
| IW2NTF | 2026-09-03 10:33:07 | 44.34184 | 7.72767 | 170° | 77km/h | 9994m | 5.1m/s | -40°C | 23.6% | 0hPa | 2.8V | 08:30:00 | 00:56:55 | 00:00:00 | |
| IW2NTF | 2026-09-03 10:32:57 | 44.34370 | 7.72712 | 167° | 80km/h | 9944m | 5.1m/s | -39.6°C | 23.4% | 0hPa | 2.8V | 08:30:00 | 00:56:45 | 00:00:00 | |
| IW2NTF | 2026-09-03 10:32:47 | 44.34566 | 7.72660 | 172° | 71km/h | 9895m | 5m/s | -39.1°C | 23% | 0hPa | 2.9V | 08:30:00 | 00:56:35 | 00:00:00 | |
| IW2NTF | 2026-09-03 10:32:37 | 44.34763 | 7.72619 | 175° | 77km/h | 9851m | 5.3m/s | -38.7°C | 22.9% | 0hPa | 2.8V | 08:30:00 | 00:56:25 | 00:00:00 | |
| IW2NTF | 2026-09-03 10:32:27 | 44.34960 | 7.72572 | 170° | 82km/h | 9804m | 3.3m/s | -38.3°C | 23.1% | 0hPa | 2.9V | 08:30:00 | 00:56:15 | 00:00:00 | |
| IW2NTF | 2026-09-03 10:32:17 | 44.35163 | 7.72520 | 174° | 73km/h | 9760m | 3.8m/s | -37.9°C | 22.4% | 0hPa | 2.9V | 08:30:00 | 00:56:05 | 00:00:00 | |
| IW2NTF | 2026-09-03 10:32:07 | 44.35372 | 7.72470 | 167° | 84km/h | 9716m | 4.1m/s | -37.5°C | 20.6% | 0hPa | 2.9V | 08:30:00 | 00:55:55 | 00:00:00 | |
| IW2NTF | 2026-09-03 10:31:57 | 44.35578 | 7.72437 | 174° | 80km/h | 9662m | 4.4m/s | -37.1°C | 18.2% | 0hPa | 2.9V | 08:30:00 | 00:55:45 | 00:00:00 | |
| IW2NTF | 2026-09-03 10:31:48 | 44.35793 | 7.72385 | 164° | 86km/h | 9616m | 6.6m/s | -36.7°C | 17.4% | 0hPa | 2.9V | 08:30:00 | 00:55:35 | 00:00:00 | |
| IW2NTF | 2026-09-03 10:31:37 | 44.35993 | 7.72334 | 171° | 86km/h | 9575m | 3.6m/s | -36.3°C | 17.1% | 0hPa | 2.9V | 08:30:00 | 00:55:25 | 00:00:00 | |
| IW2NTF | 2026-09-03 10:31:27 | 44.36201 | 7.72277 | 169° | 82km/h | 9527m | 6.4m/s | -35.9°C | 16% | 0hPa | 2.8V | 08:30:00 | 00:55:15 | 00:00:00 | |
| IW2NTF | 2026-09-03 10:31:17 | 44.36404 | 7.72225 | 169° | 84km/h | 9481m | 4.5m/s | -35.5°C | 16.2% | 0hPa | 2.9V | 08:30:00 | 00:55:05 | 00:00:00 | |
| IW2NTF | 2026-09-03 10:31:07 | 44.36611 | 7.72168 | 168° | 84km/h | 9437m | 4.6m/s | -35.2°C | 16% | 0hPa | 2.8V | 08:30:00 | 00:54:55 | 00:00:00 | |
| IW2NTF | 2026-09-03 10:30:57 | 44.36805 | 7.72100 | 171° | 77km/h | 9398m | 3.9m/s | -34.8°C | 16.1% | 0hPa | 2.9V | 08:30:00 | 00:54:45 | 00:00:00 | |
| IW2NTF | 2026-09-03 10:30:46 | 44.37038 | 7.72039 | 163° | 73km/h | 9349m | 4.4m/s | -34.3°C | 15.8% | 0hPa | 2.9V | 08:30:00 | 00:54:33 | 00:00:00 | |
| IW2NTF | 2026-09-03 10:30:35 | 44.37223 | 7.71981 | 171° | 77km/h | 9306m | 5.4m/s | -33.9°C | 15.4% | 0hPa | 2.9V | 08:30:00 | 00:54:23 | 00:00:00 | |
| IW2NTF | 2026-09-03 10:30:25 | 44.37416 | 7.71920 | 164° | 80km/h | 9261m | 3.8m/s | -33.5°C | 15.7% | 0hPa | 2.9V | 08:30:00 | 00:54:13 | 00:00:00 | |
| IW2NTF | 2026-09-03 10:30:16 | 44.37603 | 7.71875 | 170° | 80km/h | 9214m | 4m/s | -33.1°C | 15.4% | 0hPa | 2.9V | 08:30:00 | 00:54:03 | 00:00:00 | |
| IW2NTF | 2026-09-03 10:30:05 | 44.37782 | 7.71810 | 166° | 66km/h | 9166m | 4.4m/s | -32.7°C | 15.4% | 0hPa | 2.9V | 08:30:00 | 00:53:53 | 00:00:00 | |
| IW2NTF | 2026-09-03 10:29:55 | 44.37957 | 7.71750 | 165° | 71km/h | 9120m | 2.9m/s | -32.3°C | 15.3% | 0hPa | 2.9V | 08:30:00 | 00:53:43 | 00:00:00 | |
| IW2NTF | 2026-09-03 10:29:45 | 44.38134 | 7.71692 | 164° | 77km/h | 9066m | 6m/s | -31.8°C | 14.7% | 0hPa | 2.9V | 08:30:00 | 00:53:33 | 00:00:00 | |
| IW2NTF | 2026-09-03 10:29:35 | 44.38317 | 7.71638 | 169° | 68km/h | 9021m | 5.4m/s | -31.4°C | 15.3% | 0hPa | 2.9V | 08:30:00 | 00:53:23 | 00:00:00 | |
| IW2NTF | 2026-09-03 10:29:25 | 44.38496 | 7.71578 | 170° | 77km/h | 8970m | 6.7m/s | -31.1°C | 16.9% | 0hPa | 2.9V | 08:30:00 | 00:53:13 | 00:00:00 | |
| IW2NTF | 2026-09-03 10:29:15 | 44.38677 | 7.71503 | 162° | 71km/h | 8919m | 5.3m/s | -30.6°C | 17.2% | 0hPa | 2.9V | 08:30:00 | 00:53:03 | 00:00:00 | |
| IW2NTF | 2026-09-03 10:29:05 | 44.38858 | 7.71450 | 164° | 78km/h | 8872m | 5.7m/s | -30.2°C | 16.7% | 0hPa | 2.9V | 08:30:00 | 00:52:53 | 00:00:00 | |
| IW2NTF | 2026-09-03 10:28:55 | 44.39032 | 7.71382 | 163° | 68km/h | 8823m | 3.7m/s | -29.7°C | 16.8% | 0hPa | 2.9V | 08:30:00 | 00:52:43 | 00:00:00 | |
| IW2NTF | 2026-09-03 10:28:45 | 44.39215 | 7.71297 | 161° | 66km/h | 8781m | 5.8m/s | -29.4°C | 16.8% | 0hPa | 2.9V | 08:30:00 | 00:52:33 | 00:00:00 | |
| IW2NTF | 2026-09-03 10:28:35 | 44.39389 | 7.71228 | 161° | 73km/h | 8732m | 4.1m/s | -29.1°C | 17.5% | 0hPa | 2.9V | 08:30:00 | 00:52:23 | 00:00:00 | |
| IW2NTF | 2026-09-03 10:28:25 | 44.39558 | 7.71157 | 164° | 73km/h | 8682m | 3.8m/s | -28.7°C | 19.7% | 0hPa | 2.9V | 08:30:00 | 00:52:13 | 00:00:00 | |
| IW2NTF | 2026-09-03 10:28:15 | 44.39730 | 7.71074 | 158° | 77km/h | 8642m | 4.5m/s | -28.4°C | 20.2% | 0hPa | 2.9V | 08:30:00 | 00:52:03 | 00:00:00 | |
| IW2NTF | 2026-09-03 10:28:05 | 44.39897 | 7.71006 | 160° | 68km/h | 8592m | 5.9m/s | -28°C | 20.5% | 0hPa | 2.9V | 08:30:00 | 00:51:53 | 00:00:00 | |
| IW2NTF | 2026-09-03 10:27:56 | 44.40075 | 7.70935 | 162° | 71km/h | 8538m | 4.4m/s | -27.5°C | 22.1% | 0hPa | 2.9V | 08:30:00 | 00:51:43 | 00:00:00 | |
| IW2NTF | 2026-09-03 10:27:45 | 44.40254 | 7.70857 | 164° | 77km/h | 8487m | 4.8m/s | -27.1°C | 25.4% | 0hPa | 3V | 08:30:00 | 00:51:33 | 00:00:00 | |
| IW2NTF | 2026-09-03 10:27:35 | 44.40429 | 7.70773 | 157° | 75km/h | 8432m | 5m/s | -26.6°C | 25% | 0hPa | 2.9V | 08:30:00 | 00:51:23 | 00:00:00 | |
| IW2NTF | 2026-09-03 10:27:25 | 44.40593 | 7.70692 | 164° | 73km/h | 8377m | 4.4m/s | -26.1°C | 24% | 0hPa | 3V | 08:30:00 | 00:51:13 | 00:00:00 | |
| IW2NTF | 2026-09-03 10:27:15 | 44.40762 | 7.70617 | 164° | 71km/h | 8323m | 5.9m/s | -25.6°C | 22.9% | 0hPa | 2.9V | 08:30:00 | 00:51:03 | 00:00:00 | |
| IW2NTF | 2026-09-03 10:27:05 | 44.40928 | 7.70539 | 161° | 64km/h | 8274m | 6.6m/s | -25.1°C | 22.1% | 0hPa | 3V | 08:30:00 | 00:50:53 | 00:00:00 | |
| IW2NTF | 2026-09-03 10:26:55 | 44.41078 | 7.70462 | 160° | 64km/h | 8216m | 5.3m/s | -24.5°C | 21.1% | 0hPa | 3V | 08:30:00 | 00:50:43 | 00:00:00 | |
| IW2NTF | 2026-09-03 10:26:45 | 44.41240 | 7.70388 | 159° | 69km/h | 8169m | 3.6m/s | -24.1°C | 21.4% | 0hPa | 3V | 08:30:00 | 00:50:33 | 00:00:00 | |
| IW2NTF | 2026-09-03 10:26:35 | 44.41396 | 7.70307 | 157° | 68km/h | 8126m | 3.7m/s | -23.8°C | 20.3% | 0hPa | 3V | 08:30:00 | 00:50:23 | 00:00:00 | |
| IW2NTF | 2026-09-03 10:26:25 | 44.41565 | 7.70238 | 165° | 66km/h | 8078m | 6.1m/s | -23.5°C | 20.7% | 0hPa | 3V | 08:30:00 | 00:50:13 | 00:00:00 | |
| IW2NTF | 2026-09-03 10:26:15 | 44.41726 | 7.70160 | 157° | 69km/h | 8024m | 4.1m/s | -23.1°C | 18.1% | 0hPa | 3V | 08:30:00 | 00:50:03 | 00:00:00 | |
| IW2NTF | 2026-09-03 10:26:06 | 44.41893 | 7.70088 | 162° | 64km/h | 7968m | 6.2m/s | -22.6°C | 14.1% | 0hPa | 3V | 08:30:00 | 00:49:53 | 00:00:00 | |
| IW2NTF | 2026-09-03 10:25:55 | 44.42057 | 7.69994 | 160° | 75km/h | 7914m | 6.1m/s | -22.1°C | 12.5% | 0hPa | 3V | 08:30:00 | 00:49:43 | 00:00:00 | |
| IW2NTF | 2026-09-03 10:25:45 | 44.42221 | 7.69902 | 157° | 68km/h | 7862m | 6.5m/s | -21.7°C | 11.5% | 0hPa | 3V | 08:30:00 | 00:49:33 | 00:00:00 | |
| IW2NTF | 2026-09-03 10:25:35 | 44.42378 | 7.69801 | 160° | 64km/h | 7815m | 4.2m/s | -21.3°C | 12.2% | 0hPa | 3V | 08:30:00 | 00:49:23 | 00:00:00 | |
| IW2NTF | 2026-09-03 10:25:25 | 44.42542 | 7.69717 | 159° | 68km/h | 7774m | 4.2m/s | -21°C | 14% | 0hPa | 3V | 08:30:00 | 00:49:13 | 00:00:00 | |
| IW2NTF | 2026-09-03 10:25:15 | 44.42708 | 7.69623 | 157° | 73km/h | 7732m | 4.7m/s | -20.9°C | 23% | 0hPa | 3V | 08:30:00 | 00:49:03 | 00:00:00 | |
| IW2NTF | 2026-09-03 10:25:05 | 44.42871 | 7.69523 | 156° | 71km/h | 7693m | 3.5m/s | -20.7°C | 34.8% | 0hPa | 3V | 08:30:00 | 00:48:53 | 00:00:00 | |
| IW2NTF | 2026-09-03 10:24:55 | 44.43032 | 7.69414 | 152° | 69km/h | 7647m | 7m/s | -20.4°C | 29.3% | 0hPa | 3V | 08:30:00 | 00:48:43 | 00:00:00 | |
| IW2NTF | 2026-09-03 10:24:43 | 44.43215 | 7.69279 | 158° | 73km/h | 7581m | 5.8m/s | -19.9°C | 14.8% | 0hPa | 2.9V | 08:30:00 | 00:48:31 | 00:00:00 | |
| IW2NTF | 2026-09-03 10:24:33 | 44.43373 | 7.69170 | 155° | 60km/h | 7530m | 3.9m/s | -19.6°C | 14.7% | 0hPa | 3V | 08:30:00 | 00:48:21 | 00:00:00 | |
| IW2NTF | 2026-09-03 10:24:24 | 44.43524 | 7.69092 | 156° | 66km/h | 7485m | 5.7m/s | -19.4°C | 16.1% | 0hPa | 3V | 08:30:00 | 00:48:11 | 00:00:00 | |
| IW2NTF | 2026-09-03 10:24:13 | 44.43684 | 7.68994 | 154° | 71km/h | 7431m | 6.7m/s | -19°C | 14.8% | 0hPa | 3V | 08:30:00 | 00:48:01 | 00:00:00 | |
| IW2NTF | 2026-09-03 10:24:01 | 44.43870 | 7.68880 | 157° | 68km/h | 7363m | 4.5m/s | -18.5°C | 14.3% | 0hPa | 3V | 08:30:00 | 00:47:49 | 00:00:00 | |
| IW2NTF | 2026-09-03 10:23:52 | 44.44038 | 7.68787 | 161° | 62km/h | 7314m | 6m/s | -18.4°C | 17.5% | 0hPa | 3V | 08:30:00 | 00:47:39 | 00:00:00 | |
| IW2NTF | 2026-09-03 10:23:41 | 44.44201 | 7.68699 | 156° | 73km/h | 7265m | 3.8m/s | -18°C | 21.8% | 0hPa | 3V | 08:30:00 | 00:47:29 | 00:00:00 | |
| IW2NTF | 2026-09-03 10:23:31 | 44.44358 | 7.68603 | 155° | 75km/h | 7209m | 4.7m/s | -17.6°C | 22.8% | 0hPa | 3V | 08:30:00 | 00:47:19 | 00:00:00 | |
| IW2NTF | 2026-09-03 10:23:21 | 44.44513 | 7.68490 | 156° | 71km/h | 7159m | 3.9m/s | -17.3°C | 28% | 0hPa | 3V | 08:30:00 | 00:47:09 | 00:00:00 | |
| IW2NTF | 2026-09-03 10:23:11 | 44.44675 | 7.68371 | 147° | 71km/h | 7118m | 3.7m/s | -17.2°C | 33.3% | 0hPa | 3V | 08:30:00 | 00:46:59 | 00:00:00 | |
| IW2NTF | 2026-09-03 10:23:01 | 44.44831 | 7.68244 | 150° | 68km/h | 7076m | 5m/s | -17.2°C | 46% | 0hPa | 3V | 08:30:00 | 00:46:49 | 00:00:00 | |
| IW2NTF | 2026-09-03 10:22:51 | 44.44974 | 7.68124 | 146° | 66km/h | 7024m | 5.2m/s | -17.1°C | 50.4% | 0hPa | 3V | 08:30:00 | 00:46:39 | 00:00:00 | |
| IW2NTF | 2026-09-03 10:22:41 | 44.45106 | 7.67992 | 140° | 66km/h | 6972m | 6.3m/s | -16.8°C | 53.1% | 0hPa | 3V | 08:30:00 | 00:46:29 | 00:00:00 | |
| IW2NTF | 2026-09-03 10:22:31 | 44.45241 | 7.67843 | 148° | 66km/h | 6924m | 4.5m/s | -16.5°C | 55.7% | 0hPa | 3V | 08:30:00 | 00:46:19 | 00:00:00 | |
| IW2NTF | 2026-09-03 10:22:21 | 44.45368 | 7.67728 | 138° | 60km/h | 6876m | 5.3m/s | -16.3°C | 60.5% | 0hPa | 3V | 08:30:00 | 00:46:09 | 00:00:00 | |
| IW2NTF | 2026-09-03 10:22:11 | 44.45496 | 7.67605 | 149° | 49km/h | 6826m | 5.9m/s | -16°C | 64.9% | 0hPa | 3V | 08:30:00 | 00:45:59 | 00:00:00 | |
| IW2NTF | 2026-09-03 10:22:01 | 44.45614 | 7.67478 | 147° | 58km/h | 6775m | 4.9m/s | -15.5°C | 62.2% | 0hPa | 3V | 08:30:00 | 00:45:49 | 00:00:00 | |
| IW2NTF | 2026-09-03 10:21:51 | 44.45732 | 7.67369 | 143° | 60km/h | 6723m | 1.9m/s | -15°C | 59.9% | 0hPa | 3V | 08:30:00 | 00:45:39 | 00:00:00 | |
| IW2NTF | 2026-09-03 10:21:41 | 44.45846 | 7.67260 | 147° | 60km/h | 6677m | 4.9m/s | -14.6°C | 58.5% | 0hPa | 3V | 08:30:00 | 00:45:29 | 00:00:00 | |
| IW2NTF | 2026-09-03 10:21:31 | 44.45972 | 7.67152 | 141° | 46km/h | 6636m | 3.4m/s | -14.2°C | 56.3% | 0hPa | 3V | 08:30:00 | 00:45:19 | 00:00:00 | |
| IW2NTF | 2026-09-03 10:21:21 | 44.46094 | 7.67052 | 146° | 57km/h | 6597m | 5m/s | -13.8°C | 55% | 0hPa | 3V | 08:30:00 | 00:45:09 | 00:00:00 | |
| IW2NTF | 2026-09-03 10:21:11 | 44.46221 | 7.66946 | 143° | 57km/h | 6545m | 6.5m/s | -13.3°C | 52.5% | 0hPa | 3V | 08:30:00 | 00:44:59 | 00:00:00 | |
| IW2NTF | 2026-09-03 10:21:01 | 44.46344 | 7.66830 | 155° | 55km/h | 6500m | 5.8m/s | -12.9°C | 51.5% | 0hPa | 3V | 08:30:00 | 00:44:49 | 00:00:00 | |
| IW2NTF | 2026-09-03 10:20:51 | 44.46476 | 7.66735 | 148° | 58km/h | 6452m | 4.7m/s | -12.5°C | 50.2% | 0hPa | 3V | 08:30:00 | 00:44:39 | 00:00:00 | |
| IW2NTF | 2026-09-03 10:20:41 | 44.46598 | 7.66627 | 146° | 60km/h | 6396m | 6m/s | -12°C | 48.4% | 0hPa | 3V | 08:30:00 | 00:44:29 | 00:00:00 | |
| IW2NTF | 2026-09-03 10:20:31 | 44.46714 | 7.66513 | 145° | 57km/h | 6345m | 3.7m/s | -11.5°C | 47.3% | 0hPa | 3V | 08:30:00 | 00:44:19 | 00:00:00 | |
| IW2NTF | 2026-09-03 10:20:21 | 44.46839 | 7.66395 | 146° | 64km/h | 6293m | 3.6m/s | -11°C | 45.7% | 0hPa | 3V | 08:30:00 | 00:44:09 | 00:00:00 | |
| IW2NTF | 2026-09-03 10:20:11 | 44.46966 | 7.66279 | 149° | 55km/h | 6244m | 5.2m/s | -10.6°C | 45.4% | 0hPa | 3V | 08:30:00 | 00:43:59 | 00:00:00 | |
| IW2NTF | 2026-09-03 10:20:01 | 44.47097 | 7.66173 | 138° | 60km/h | 6194m | 5.1m/s | -10.2°C | 44.4% | 0hPa | 3V | 08:30:00 | 00:43:49 | 00:00:00 | |
| IW2NTF | 2026-09-03 10:19:52 | 44.47223 | 7.66058 | 156° | 60km/h | 6149m | 5.8m/s | -9.8°C | 43.8% | 0hPa | 3V | 08:30:00 | 00:43:39 | 00:00:00 | |
| IW2NTF | 2026-09-03 10:19:42 | 44.47358 | 7.65943 | 153° | 58km/h | 6100m | 5m/s | -9.5°C | 46.7% | 0hPa | 3V | 08:30:00 | 00:43:29 | 00:00:00 | |
| IW2NTF | 2026-09-03 10:19:31 | 44.47499 | 7.65847 | 148° | 58km/h | 6053m | 3.7m/s | -9.2°C | 50.8% | 0hPa | 3V | 08:30:00 | 00:43:19 | 00:00:00 | |
| IW2NTF | 2026-09-03 10:19:21 | 44.47633 | 7.65749 | 152° | 64km/h | 6004m | 6.3m/s | -8.7°C | 48.2% | 0hPa | 3V | 08:30:00 | 00:43:09 | 00:00:00 | |
| IW2NTF | 2026-09-03 10:19:11 | 44.47776 | 7.65633 | 152° | 60km/h | 5947m | 4.9m/s | -8.3°C | 46.1% | 0hPa | 3V | 08:30:00 | 00:42:59 | 00:00:00 | |
| IW2NTF | 2026-09-03 10:19:01 | 44.47906 | 7.65541 | 152° | 58km/h | 5892m | 6.6m/s | -7.8°C | 46.4% | 0hPa | 3V | 08:30:00 | 00:42:49 | 00:00:00 | |
| IW2NTF | 2026-09-03 10:18:51 | 44.48043 | 7.65446 | 162° | 64km/h | 5837m | 2.6m/s | -7.3°C | 45.1% | 0hPa | 3V | 08:30:00 | 00:42:39 | 00:00:00 | |
| IW2NTF | 2026-09-03 10:18:39 | 44.48195 | 7.65342 | 157° | 55km/h | 5781m | 3.9m/s | -6.8°C | 43.9% | 0hPa | 3V | 08:30:00 | 00:42:27 | 00:00:00 | |
| IW2NTF | 2026-09-03 10:18:29 | 44.48323 | 7.65253 | 150° | 55km/h | 5730m | 4.3m/s | -6.5°C | 43.8% | 0hPa | 3V | 08:30:00 | 00:42:17 | 00:00:00 | |
| IW2NTF | 2026-09-03 10:18:20 | 44.48454 | 7.65157 | 161° | 55km/h | 5685m | 4.7m/s | -6.2°C | 46.6% | 0hPa | 3V | 08:30:00 | 00:42:07 | 00:00:00 | |
| IW2NTF | 2026-09-03 10:18:07 | 44.48604 | 7.65052 | 155° | 49km/h | 5618m | 6.4m/s | -5.8°C | 47.4% | 0hPa | 3V | 08:30:00 | 00:41:55 | 00:00:00 | |
| IW2NTF | 2026-09-03 10:17:57 | 44.48717 | 7.64976 | 154° | 51km/h | 5571m | 5m/s | -5.5°C | 49.1% | 0hPa | 3V | 08:30:00 | 00:41:45 | 00:00:00 | |
| IW2NTF | 2026-09-03 10:17:47 | 44.48832 | 7.64874 | 147° | 53km/h | 5523m | 5.6m/s | -5°C | 48.2% | 0hPa | 3V | 08:30:00 | 00:41:35 | 00:00:00 | |
| IW2NTF | 2026-09-03 10:17:37 | 44.48939 | 7.64779 | 140° | 47km/h | 5481m | 4.6m/s | -4.6°C | 46.5% | 0hPa | 3V | 08:30:00 | 00:41:25 | 00:00:00 | |
| IW2NTF | 2026-09-03 10:17:27 | 44.49037 | 7.64683 | 144° | 55km/h | 5433m | 5.5m/s | -4.2°C | 45% | 0hPa | 3V | 08:30:00 | 00:41:15 | 00:00:00 | |
| IW2NTF | 2026-09-03 10:17:17 | 44.49140 | 7.64595 | 157° | 40km/h | 5387m | 4.5m/s | -3.8°C | 44.7% | 0hPa | 3V | 08:30:00 | 00:41:05 | 00:00:00 | |
| IW2NTF | 2026-09-03 10:17:07 | 44.49242 | 7.64520 | 151° | 49km/h | 5338m | 6.2m/s | -3.4°C | 43.4% | 0hPa | 3V | 08:30:00 | 00:40:55 | 00:00:00 | |
| IW2NTF | 2026-09-03 10:16:57 | 44.49353 | 7.64436 | 153° | 46km/h | 5296m | 4.4m/s | -3°C | 42% | 0hPa | 3V | 08:30:00 | 00:40:45 | 00:00:00 | |
| IW2NTF | 2026-09-03 10:16:47 | 44.49460 | 7.64362 | 154° | 51km/h | 5255m | 4.1m/s | -2.6°C | 40.9% | 0hPa | 3V | 08:30:00 | 00:40:35 | 00:00:00 | |
| IW2NTF | 2026-09-03 10:16:37 | 44.49578 | 7.64284 | 153° | 46km/h | 5212m | 5.1m/s | -2.2°C | 39.9% | 0hPa | 3V | 08:30:00 | 00:40:25 | 00:00:00 | |
| IW2NTF | 2026-09-03 10:16:27 | 44.49691 | 7.64204 | 153° | 49km/h | 5170m | 6.1m/s | -1.8°C | 38.7% | 0hPa | 3V | 08:30:00 | 00:40:15 | 00:00:00 | |
| IW2NTF | 2026-09-03 10:16:17 | 44.49809 | 7.64128 | 152° | 47km/h | 5117m | 3m/s | -1.4°C | 37.7% | 0hPa | 3V | 08:30:00 | 00:40:05 | 00:00:00 | |
| IW2NTF | 2026-09-03 10:16:07 | 44.49906 | 7.64051 | 150° | 46km/h | 5071m | 6.3m/s | -1°C | 35.3% | 0hPa | 3V | 08:30:00 | 00:39:55 | 00:00:00 | |
| IW2NTF | 2026-09-03 10:15:57 | 44.50017 | 7.63977 | 150° | 44km/h | 5025m | 3.7m/s | -0.6°C | 34.2% | 0hPa | 3V | 08:30:00 | 00:39:45 | 00:00:00 | |
| IW2NTF | 2026-09-03 10:15:47 | 44.50106 | 7.63893 | 134° | 46km/h | 4982m | 3.8m/s | -0.3°C | 35% | 0hPa | 3V | 08:30:00 | 00:39:35 | 00:00:00 | |
| IW2NTF | 2026-09-03 10:15:41 | 44.50162 | 7.63843 | 162° | 42km/h | 4956m | 4.8m/s | -0.2°C | 35.7% | 0hPa | 3V | 08:30:00 | 00:39:29 | 00:00:00 | |
| IW2NTF | 2026-09-03 10:15:35 | 44.50220 | 7.63803 | 151° | 42km/h | 4923m | 5m/s | 0°C | 36.1% | 0hPa | 3V | 08:30:00 | 00:39:23 | 00:00:00 | |
| IW2NTF | 2026-09-03 10:15:29 | 44.50277 | 7.63756 | 151° | 44km/h | 4889m | 6.5m/s | 0.3°C | 35.9% | 0hPa | 3V | 08:30:00 | 00:39:17 | 00:00:00 | |
| IW2NTF | 2026-09-03 10:15:23 | 44.50334 | 7.63716 | 158° | 42km/h | 4858m | 7m/s | 0.5°C | 36% | 0hPa | 3V | 08:30:00 | 00:39:11 | 00:00:00 | |
| IW2NTF | 2026-09-03 10:15:17 | 44.50391 | 7.63677 | 147° | 42km/h | 4826m | 6.1m/s | 0.7°C | 36.2% | 0hPa | 3V | 08:30:00 | 00:39:05 | 00:00:00 | |
| IW2NTF | 2026-09-03 10:15:11 | 44.50448 | 7.63624 | 150° | 47km/h | 4800m | 4.7m/s | 0.9°C | 36.1% | 0hPa | 3V | 08:30:00 | 00:38:59 | 00:00:00 | |
| IW2NTF | 2026-09-03 10:15:05 | 44.50509 | 7.63584 | 155° | 38km/h | 4777m | 3.9m/s | 1.2°C | 36% | 0hPa | 3V | 08:30:00 | 00:38:53 | 00:00:00 | |
| IW2NTF | 2026-09-03 10:14:59 | 44.50562 | 7.63549 | 151° | 44km/h | 4754m | 3.7m/s | 1.3°C | 36.8% | 0hPa | 3V | 08:30:00 | 00:38:47 | 00:00:00 | |
| IW2NTF | 2026-09-03 10:14:53 | 44.50620 | 7.63497 | 143° | 42km/h | 4726m | 4.5m/s | 1.5°C | 36.8% | 0hPa | 3V | 08:30:00 | 00:38:41 | 00:00:00 | |
| IW2NTF | 2026-09-03 10:14:47 | 44.50682 | 7.63445 | 154° | 49km/h | 4699m | 6.4m/s | 1.7°C | 36.8% | 0hPa | 3V | 08:30:00 | 00:38:35 | 00:00:00 | |
| IW2NTF | 2026-09-03 10:14:41 | 44.50748 | 7.63407 | 157° | 46km/h | 4666m | 4.8m/s | 1.9°C | 36.9% | 0hPa | 3V | 08:30:00 | 00:38:29 | 00:00:00 | |
| IW2NTF | 2026-09-03 10:14:35 | 44.50810 | 7.63364 | 148° | 44km/h | 4640m | 4.8m/s | 2.1°C | 36.9% | 0hPa | 3V | 08:30:00 | 00:38:23 | 00:00:00 | |
| IW2NTF | 2026-09-03 10:14:29 | 44.50872 | 7.63314 | 153° | 51km/h | 4610m | 3.6m/s | 2.3°C | 36.6% | 0hPa | 3V | 08:30:00 | 00:38:17 | 00:00:00 | |
| IW2NTF | 2026-09-03 10:14:23 | 44.50940 | 7.63276 | 160° | 42km/h | 4578m | 5.9m/s | 2.6°C | 35.5% | 0hPa | 3V | 08:30:00 | 00:38:11 | 00:00:00 | |
| IW2NTF | 2026-09-03 10:14:17 | 44.51001 | 7.63238 | 154° | 47km/h | 4550m | 3m/s | 2.9°C | 33% | 0hPa | 3V | 08:30:00 | 00:38:05 | 00:00:00 | |
| IW2NTF | 2026-09-03 10:14:11 | 44.51071 | 7.63205 | 160° | 44km/h | 4523m | 3m/s | 3.1°C | 32.3% | 0hPa | 3V | 08:30:00 | 00:37:59 | 00:00:00 | |
| IW2NTF | 2026-09-03 10:14:05 | 44.51135 | 7.63169 | 153° | 49km/h | 4502m | 3.5m/s | 3.2°C | 31.9% | 0hPa | 3V | 08:30:00 | 00:37:53 | 00:00:00 | |
| IW2NTF | 2026-09-03 10:13:59 | 44.51199 | 7.63132 | 165° | 46km/h | 4479m | 5.5m/s | 3.4°C | 33.2% | 0hPa | 3V | 08:30:00 | 00:37:47 | 00:00:00 | |
| IW2NTF | 2026-09-03 10:13:53 | 44.51271 | 7.63101 | 157° | 55km/h | 4446m | 5.1m/s | 3.6°C | 28.7% | 0hPa | 3V | 08:30:00 | 00:37:41 | 00:00:00 | |
| IW2NTF | 2026-09-03 10:13:46 | 44.51350 | 7.63051 | 160° | 44km/h | 4412m | 5m/s | 4°C | 18.9% | 0hPa | 3V | 08:30:00 | 00:37:34 | 00:00:00 | |
| IW2NTF | 2026-09-03 10:13:40 | 44.51419 | 7.63024 | 162° | 47km/h | 4384m | 4.2m/s | 4.3°C | 13.4% | 0hPa | 3V | 08:30:00 | 00:37:28 | 00:00:00 | |
| IW2NTF | 2026-09-03 10:13:34 | 44.51485 | 7.62986 | 157° | 44km/h | 4353m | 5.7m/s | 4.5°C | 4.1% | 0hPa | 3V | 08:30:00 | 00:37:22 | 00:00:00 | |
| IW2NTF | 2026-09-03 10:13:28 | 44.51546 | 7.62955 | 156° | 46km/h | 4323m | 3.3m/s | 4.5°C | 4.8% | 0hPa | 3V | 08:30:00 | 00:37:16 | 00:00:00 | |
| IW2NTF | 2026-09-03 10:13:22 | 44.51609 | 7.62914 | 151° | 44km/h | 4296m | 2.6m/s | 4.3°C | 7.7% | 0hPa | 3V | 08:30:00 | 00:37:10 | 00:00:00 | |
| IW2NTF | 2026-09-03 10:13:16 | 44.51668 | 7.62880 | 158° | 46km/h | 4271m | 4.6m/s | 4.1°C | 17% | 0hPa | 3V | 08:30:00 | 00:37:04 | 00:00:00 | |
| IW2NTF | 2026-09-03 10:13:11 | 44.51743 | 7.62837 | 158° | 55km/h | 4247m | 5.3m/s | 3.9°C | 29.1% | 0hPa | 3V | 08:30:00 | 00:36:58 | 00:00:00 | |
| IW2NTF | 2026-09-03 10:13:04 | 44.51807 | 7.62803 | 165° | 40km/h | 4217m | 3.9m/s | 3.8°C | 37.5% | 0hPa | 3V | 08:30:00 | 00:36:52 | 00:00:00 | |
| IW2NTF | 2026-09-03 10:12:58 | 44.51861 | 7.62791 | 168° | 38km/h | 4195m | 4.3m/s | 3.9°C | 35.1% | 0hPa | 3V | 08:30:00 | 00:36:46 | 00:00:00 | |
| IW2NTF | 2026-09-03 10:12:52 | 44.51922 | 7.62768 | 156° | 37km/h | 4166m | 3.7m/s | 4°C | 33.3% | 0hPa | 3V | 08:30:00 | 00:36:40 | 00:00:00 | |
| IW2NTF | 2026-09-03 10:12:46 | 44.51969 | 7.62739 | 163° | 31km/h | 4138m | 3.4m/s | 3.9°C | 33.2% | 0hPa | 3V | 08:30:00 | 00:36:34 | 00:00:00 | |
| IW2NTF | 2026-09-03 10:12:40 | 44.52011 | 7.62714 | 157° | 31km/h | 4111m | 5.2m/s | 4°C | 35% | 0hPa | 3V | 08:30:00 | 00:36:28 | 00:00:00 | |
| IW2NTF | 2026-09-03 10:12:34 | 44.52063 | 7.62694 | 163° | 37km/h | 4081m | 5.4m/s | 4.2°C | 34.3% | 0hPa | 3V | 08:30:00 | 00:36:22 | 00:00:00 | |
| IW2NTF | 2026-09-03 10:12:28 | 44.52111 | 7.62674 | 160° | 29km/h | 4054m | 5m/s | 4.1°C | 43.5% | 0hPa | 3V | 08:30:00 | 00:36:16 | 00:00:00 | |
| IW2NTF | 2026-09-03 10:12:22 | 44.52155 | 7.62635 | 143° | 33km/h | 4022m | 6.8m/s | 4.1°C | 46.9% | 0hPa | 3V | 08:30:00 | 00:36:10 | 00:00:00 | |
| IW2NTF | 2026-09-03 10:12:16 | 44.52192 | 7.62608 | 153° | 24km/h | 3993m | 6.2m/s | 4.2°C | 52.9% | 0hPa | 3V | 08:30:00 | 00:36:04 | 00:00:00 | |
| IW2NTF | 2026-09-03 10:12:10 | 44.52226 | 7.62575 | 155° | 29km/h | 3964m | 4.8m/s | 4.2°C | 57.3% | 0hPa | 3V | 08:30:00 | 00:35:58 | 00:00:00 | |
| IW2NTF | 2026-09-03 10:12:04 | 44.52269 | 7.62557 | 159° | 27km/h | 3930m | 4.8m/s | 4.3°C | 61.1% | 0hPa | 3V | 08:30:00 | 00:35:52 | 00:00:00 | |
| IW2NTF | 2026-09-03 10:11:59 | 44.52297 | 7.62534 | 151° | 26km/h | 3908m | 2.1m/s | 4.5°C | 60.7% | 0hPa | 3V | 08:30:00 | 00:35:47 | 00:00:00 | |
| IW2NTF | 2026-09-03 10:11:53 | 44.52332 | 7.62514 | 161° | 27km/h | 3879m | 7.3m/s | 4.7°C | 60% | 0hPa | 3V | 08:30:00 | 00:35:41 | 00:00:00 | |
| IW2NTF | 2026-09-03 10:11:47 | 44.52369 | 7.62502 | 166° | 24km/h | 3844m | 7m/s | 4.8°C | 60.6% | 0hPa | 3V | 08:30:00 | 00:35:35 | 00:00:00 | |
| IW2NTF | 2026-09-03 10:11:41 | 44.52405 | 7.62478 | 150° | 26km/h | 3810m | 6.8m/s | 5.1°C | 56.6% | 0hPa | 3V | 08:30:00 | 00:35:29 | 00:00:00 | |
| IW2NTF | 2026-09-03 10:11:35 | 44.52448 | 7.62449 | 155° | 37km/h | 3782m | 4.2m/s | 5.4°C | 52.3% | 0hPa | 3V | 08:30:00 | 00:35:23 | 00:00:00 | |
| IW2NTF | 2026-09-03 10:11:30 | 44.52486 | 7.62412 | 129° | 24km/h | 3755m | 5.5m/s | 5.7°C | 49.5% | 0hPa | 3V | 08:30:00 | 00:35:17 | 00:00:00 | |
| IW2NTF | 2026-09-03 10:11:23 | 44.52523 | 7.62382 | 154° | 31km/h | 3724m | 4.6m/s | 6°C | 47.2% | 0hPa | 3V | 08:30:00 | 00:35:11 | 00:00:00 | |
| IW2NTF | 2026-09-03 10:11:17 | 44.52556 | 7.62355 | 149° | 24km/h | 3694m | 6.4m/s | 6.3°C | 44.4% | 0hPa | 3V | 08:30:00 | 00:35:05 | 00:00:00 | |
| IW2NTF | 2026-09-03 10:11:09 | 44.52600 | 7.62319 | 165° | 16km/h | 3651m | 5.7m/s | 6.7°C | 43.8% | 0hPa | 3V | 08:30:00 | 00:34:57 | 00:00:00 | |
| IW2NTF | 2026-09-03 10:11:03 | 44.52638 | 7.62305 | 157° | 31km/h | 3625m | 5.7m/s | 7°C | 26% | 0hPa | 3V | 08:30:00 | 00:34:51 | 00:00:00 | |
| IW2NTF | 2026-09-03 10:10:57 | 44.52671 | 7.62278 | 127° | 20km/h | 3592m | 5.5m/s | 7.3°C | 20% | 0hPa | 3V | 08:30:00 | 00:34:45 | 00:00:00 | |
| IW2NTF | 2026-09-03 10:10:51 | 44.52699 | 7.62243 | 152° | 31km/h | 3563m | 4.6m/s | 7.5°C | 8.7% | 0hPa | 3V | 08:30:00 | 00:34:39 | 00:00:00 | |
| IW2NTF | 2026-09-03 10:10:45 | 44.52734 | 7.62217 | 136° | 24km/h | 3538m | 3.6m/s | 7.6°C | 10.7% | 0hPa | 3V | 08:30:00 | 00:34:33 | 00:00:00 | |
| IW2NTF | 2026-09-03 10:10:39 | 44.52760 | 7.62190 | 167° | 24km/h | 3515m | 3.8m/s | 7.6°C | 10.5% | 0hPa | 3V | 08:30:00 | 00:34:27 | 00:00:00 | |
| IW2NTF | 2026-09-03 10:10:33 | 44.52791 | 7.62168 | 138° | 26km/h | 3485m | 4.8m/s | 7.8°C | 8.7% | 0hPa | 3V | 08:30:00 | 00:34:21 | 00:00:00 | |
| IW2NTF | 2026-09-03 10:10:27 | 44.52828 | 7.62142 | 161° | 24km/h | 3457m | 4.5m/s | 8°C | 7.7% | 0hPa | 3V | 08:30:00 | 00:34:15 | 00:00:00 | |
| IW2NTF | 2026-09-03 10:10:21 | 44.52861 | 7.62115 | 130° | 31km/h | 3436m | 3.5m/s | 8.1°C | 7.2% | 0hPa | 3V | 08:30:00 | 00:34:09 | 00:00:00 | |
| IW2NTF | 2026-09-03 10:10:15 | 44.52898 | 7.62080 | 170° | 26km/h | 3411m | 6m/s | 8.2°C | 6.9% | 0hPa | 3V | 08:30:00 | 00:34:03 | 00:00:00 | |
| IW2NTF | 2026-09-03 10:10:09 | 44.52927 | 7.62068 | 139° | 20km/h | 3375m | 6.2m/s | 8.3°C | 6.6% | 0hPa | 3V | 08:30:00 | 00:33:57 | 00:00:00 | |
| IW2NTF | 2026-09-03 10:10:03 | 44.52954 | 7.62047 | 152° | 18km/h | 3348m | 5.4m/s | 8.3°C | 6.4% | 0hPa | 3V | 08:30:00 | 00:33:51 | 00:00:00 | |
| IW2NTF | 2026-09-03 10:09:57 | 44.52977 | 7.62022 | 139° | 22km/h | 3317m | 5.9m/s | 8.2°C | 6% | 0hPa | 3V | 08:30:00 | 00:33:45 | 00:00:00 | |
| IW2NTF | 2026-09-03 10:09:51 | 44.53006 | 7.62004 | 165° | 27km/h | 3289m | 4.2m/s | 8.4°C | 7.1% | 0hPa | 3V | 08:30:00 | 00:33:39 | 00:00:00 | |
| IW2NTF | 2026-09-03 10:09:45 | 44.53040 | 7.61982 | 138° | 22km/h | 3266m | 4.5m/s | 8.5°C | 8.2% | 0hPa | 3V | 08:30:00 | 00:33:33 | 00:00:00 | |
| IW2NTF | 2026-09-03 10:09:39 | 44.53076 | 7.61949 | 158° | 31km/h | 3245m | 4.2m/s | 8.7°C | 8.2% | 0hPa | 3V | 08:30:00 | 00:33:27 | 00:00:00 | |
| IW2NTF | 2026-09-03 10:09:33 | 44.53111 | 7.61928 | 158° | 11km/h | 3209m | 7.6m/s | 9°C | 9.2% | 0hPa | 3V | 08:30:00 | 00:33:21 | 00:00:00 | |
| IW2NTF | 2026-09-03 10:09:25 | 44.53143 | 7.61930 | 185° | 18km/h | 3163m | 4.7m/s | 8.7°C | 13.7% | 0hPa | 3V | 08:30:00 | 00:33:13 | 00:00:00 | |
| IW2NTF | 2026-09-03 10:09:19 | 44.53172 | 7.61917 | 148° | 24km/h | 3136m | 5.7m/s | 8.9°C | 14.7% | 0hPa | 3V | 08:30:00 | 00:33:07 | 00:00:00 | |
| IW2NTF | 2026-09-03 10:09:13 | 44.53206 | 7.61891 | 161° | 15km/h | 3110m | 4.9m/s | 9.1°C | 15% | 0hPa | 3V | 08:30:00 | 00:33:01 | 00:00:00 | |
| IW2NTF | 2026-09-03 10:09:07 | 44.53225 | 7.61888 | 144° | 13km/h | 3076m | 4.3m/s | 9.3°C | 16.6% | 0hPa | 3V | 08:30:00 | 00:32:55 | 00:00:00 | |
| IW2NTF | 2026-09-03 10:09:01 | 44.53238 | 7.61860 | 128° | 16km/h | 3048m | 5m/s | 9.5°C | 18% | 0hPa | 3V | 08:30:00 | 00:32:49 | 00:00:00 | |
| IW2NTF | 2026-09-03 10:08:55 | 44.53256 | 7.61850 | 172° | 18km/h | 3023m | 3.1m/s | 9.8°C | 16.9% | 0hPa | 3V | 08:30:00 | 00:32:43 | 00:00:00 | |
| IW2NTF | 2026-09-03 10:08:49 | 44.53273 | 7.61839 | 111° | 13km/h | 2998m | 4.2m/s | 9.8°C | 18.9% | 0hPa | 3V | 08:30:00 | 00:32:37 | 00:00:00 | |
| IW2NTF | 2026-09-03 10:08:43 | 44.53279 | 7.61814 | 138° | 7km/h | 2975m | 5.9m/s | 9.9°C | 18.5% | 0hPa | 3V | 08:30:00 | 00:32:31 | 00:00:00 | |
| IW2NTF | 2026-09-03 10:08:37 | 44.53293 | 7.61795 | 130° | 20km/h | 2940m | 7m/s | 10°C | 20.2% | 0hPa | 3V | 08:30:00 | 00:32:25 | 00:00:00 | |
| IW2NTF | 2026-09-03 10:08:31 | 44.53314 | 7.61771 | 167° | 15km/h | 2906m | 3.7m/s | 10.3°C | 19.1% | 0hPa | 3V | 08:30:00 | 00:32:19 | 00:00:00 | |
| IW2NTF | 2026-09-03 10:08:25 | 44.53333 | 7.61770 | 166° | 11km/h | 2879m | 6.6m/s | 10.5°C | 17.4% | 0hPa | 3V | 08:30:00 | 00:32:13 | 00:00:00 | |
| IW2NTF | 2026-09-03 10:08:19 | 44.53352 | 7.61743 | 127° | 24km/h | 2844m | 5.6m/s | 10.7°C | 17.1% | 0hPa | 3V | 08:30:00 | 00:32:07 | 00:00:00 | |
| IW2NTF | 2026-09-03 10:08:13 | 44.53365 | 7.61713 | 117° | 13km/h | 2817m | 5.2m/s | 10.9°C | 15.9% | 0hPa | 3V | 08:30:00 | 00:32:01 | 00:00:00 | |
| IW2NTF | 2026-09-03 10:08:07 | 44.53385 | 7.61688 | 140° | 18km/h | 2790m | 5.6m/s | 11.1°C | 15.8% | 0hPa | 3V | 08:30:00 | 00:31:55 | 00:00:00 | |
| IW2NTF | 2026-09-03 10:08:01 | 44.53394 | 7.61666 | 143° | 15km/h | 2765m | 4.4m/s | 11.3°C | 16.1% | 0hPa | 3V | 08:30:00 | 00:31:49 | 00:00:00 | |
| IW2NTF | 2026-09-03 10:07:55 | 44.53417 | 7.61639 | 116° | 22km/h | 2736m | 4.2m/s | 11.3°C | 15% | 0hPa | 3V | 08:30:00 | 00:31:43 | 00:00:00 | |
| IW2NTF | 2026-09-03 10:07:49 | 44.53424 | 7.61622 | 205° | 11km/h | 2709m | 4.5m/s | 11.4°C | 15% | 0hPa | 3V | 08:30:00 | 00:31:37 | 00:00:00 | |
| IW2NTF | 2026-09-03 10:07:43 | 44.53445 | 7.61623 | 153° | 18km/h | 2683m | 3.2m/s | 11.6°C | 15.9% | 0hPa | 3V | 08:30:00 | 00:31:31 | 00:00:00 | |
| IW2NTF | 2026-09-03 10:07:37 | 44.53464 | 7.61623 | 236° | 9km/h | 2651m | 4.4m/s | 11.8°C | 16.4% | 0hPa | 3V | 00:00:00 | 00:31:25 | 00:00:00 | |
| IW2NTF | 2026-09-03 10:07:32 | 44.53475 | 7.61613 | 118° | 18km/h | 2618m | 7.2m/s | 12°C | 16.6% | 0hPa | 3V | 00:00:00 | 00:31:19 | 00:00:00 | |
| IW2NTF | 2026-09-03 10:07:25 | 44.53489 | 7.61585 | 157° | 15km/h | 2591m | 3.8m/s | 11.8°C | 31.8% | 0hPa | 3V | 00:00:00 | 00:31:13 | 00:00:00 | |
| IW2NTF | 2026-09-03 10:07:19 | 44.53500 | 7.61583 | 169° | 5km/h | 2561m | 5.7m/s | 11.8°C | 43.2% | 0hPa | 3V | 00:00:00 | 00:31:07 | 00:00:00 | |
| IW2NTF | 2026-09-03 10:07:14 | 44.53503 | 7.61572 | 105° | 15km/h | 2529m | 5m/s | 11.9°C | 46.8% | 0hPa | 3V | 00:00:00 | 00:31:01 | 00:00:00 | |
| IW2NTF | 2026-09-03 10:07:07 | 44.53516 | 7.61562 | 96° | 0km/h | 2502m | 4.5m/s | 12.2°C | 47.2% | 0hPa | 3V | 00:00:00 | 00:30:55 | 00:00:00 | |
| IW2NTF | 2026-09-03 10:07:01 | 44.53523 | 7.61545 | 184° | 11km/h | 2473m | 4.8m/s | 12.3°C | 48.6% | 0hPa | 3V | 00:00:00 | 00:30:49 | 00:00:00 | |
| IW2NTF | 2026-09-03 10:06:55 | 44.53519 | 7.61542 | 67° | 16km/h | 2441m | 5.4m/s | 12.5°C | 46.7% | 0hPa | 3V | 00:00:00 | 00:30:43 | 00:00:00 | |
| IW2NTF | 2026-09-03 10:06:49 | 44.53523 | 7.61534 | 353° | 5km/h | 2409m | 5.6m/s | 0°C | 0% | 0hPa | 3V | 00:00:00 | 00:30:37 | 00:00:00 | |
| IW2NTF | 2026-09-03 10:06:43 | 44.53504 | 7.61513 | 49° | 18km/h | 2385m | 4.6m/s | 0°C | 0% | 0hPa | 3V | 00:00:00 | 00:30:31 | 00:00:00 | |
| IW2NTF | 2026-09-03 10:06:37 | 44.53492 | 7.61485 | 23° | 4km/h | 2358m | 3.2m/s | 0°C | 0% | 0hPa | 3V | 00:00:00 | 00:30:25 | 00:00:00 | |
| IW2NTF | 2026-09-03 10:06:31 | 44.53500 | 7.61476 | 84° | 11km/h | 2334m | 5.3m/s | 0°C | 0% | 0hPa | 3V | 00:00:00 | 00:30:19 | 00:00:00 | |
| IW2NTF | 2026-09-03 10:06:25 | 44.53502 | 7.61474 | 152° | 16km/h | 2306m | 4.5m/s | 0°C | 0% | 0hPa | 3V | 00:00:00 | 00:30:13 | 00:00:00 | |
| IW2NTF | 2026-09-03 10:06:19 | 44.53499 | 7.61452 | 322° | 5km/h | 2275m | 5.1m/s | 0°C | 0% | 0hPa | 3V | 00:00:00 | 00:30:07 | 00:00:00 | |
| IW2NTF | 2026-09-03 10:06:13 | 44.53517 | 7.61449 | 114° | 20km/h | 2250m | 5.2m/s | 0°C | 0% | 0hPa | 3V | 00:00:00 | 00:30:01 | 00:00:00 | |
| IW2NTF | 2026-09-03 10:06:07 | 44.53514 | 7.61431 | 223° | 9km/h | 2224m | 4.5m/s | 0°C | 0% | 0hPa | 3V | 00:00:00 | 00:29:55 | 00:00:00 | |
| IW2NTF | 2026-09-03 10:06:01 | 44.53527 | 7.61413 | 48° | 15km/h | 2199m | 4.4m/s | 0°C | 0% | 0hPa | 3V | 00:00:00 | 00:29:49 | 00:00:00 | |
| IW2NTF | 2026-09-03 10:05:55 | 44.53532 | 7.61416 | 150° | 16km/h | 2174m | 5.7m/s | 0°C | 0% | 0hPa | 3V | 00:00:00 | 00:29:43 | 00:00:00 | |
| IW2NTF | 2026-09-03 10:05:47 | 44.53548 | 7.61376 | 235° | 7km/h | 2137m | 5.1m/s | 0°C | 0% | 0hPa | 3V | 00:00:00 | 00:29:35 | 00:00:00 | |
| IW2NTF | 2026-09-03 10:05:41 | 44.53547 | 7.61355 | 176° | 9km/h | 2108m | 5.2m/s | 0°C | 0% | 0hPa | 3V | 00:00:00 | 00:29:29 | 00:00:00 | |
| IW2NTF | 2026-09-03 10:05:35 | 44.53543 | 7.61346 | 134° | 20km/h | 2079m | 5.3m/s | 0°C | 0% | 0hPa | 3V | 00:00:00 | 00:29:23 | 00:00:00 | |
| IW2NTF | 2026-09-03 10:05:29 | 44.53552 | 7.61315 | 347° | 9km/h | 2055m | 5.4m/s | 0°C | 0% | 0hPa | 3V | 00:00:00 | 00:29:17 | 00:00:00 | |
| IW2NTF | 2026-09-03 10:05:23 | 44.53565 | 7.61304 | 102° | 18km/h | 2024m | 5.6m/s | 0°C | 0% | 0hPa | 3V | 00:00:00 | 00:29:11 | 00:00:00 | |
| IW2NTF | 2026-09-03 10:05:13 | 44.53550 | 7.61271 | 337° | 7km/h | 1999m | 6.2m/s | 0°C | 0% | 0hPa | 3V | 00:00:00 | 00:29:05 | 00:00:00 | |
| IW2NTF | 2026-09-03 10:05:13 | 44.53552 | 7.61275 | 216° | 15km/h | 1988m | 5.3m/s | 0°C | 0% | 0hPa | 3V | 00:00:00 | 00:29:03 | 00:00:00 | |
| IW2NTF | 2026-09-03 10:05:13 | 44.53555 | 7.61283 | 280° | 13km/h | 1978m | 5.9m/s | 0°C | 0% | 0hPa | 3V | 00:00:00 | 00:29:01 | 00:00:00 | |
| IW2NTF | 2026-09-03 10:04:51 | 44.53595 | 7.61257 | 232° | 11km/h | 1857m | 5.5m/s | 0°C | 0% | 0hPa | 3V | 00:00:00 | 00:28:38 | 00:00:00 |